<?xml version='1.0' encoding='UTF-8'?><gpx version="1.1" creator="JPX - https://github.com/jenetics/jpx" xmlns="http://www.topografix.com/GPX/1/1"><trk><trkseg><trkpt lat="41.7803739" lon="13.9059587"><ele>1042.0</ele><time>2026-04-25T09:35:51.799Z</time></trkpt><trkpt lat="41.780314" lon="13.9060055"><ele>1042.0</ele><time>2026-04-25T09:36:03.8Z</time></trkpt><trkpt lat="41.7802623" lon="13.9060682"><ele>1042.0</ele><time>2026-04-25T09:39:06.799Z</time></trkpt><trkpt lat="41.7802045" lon="13.9061036"><ele>1042.0</ele><time>2026-04-25T09:39:12.799Z</time></trkpt><trkpt lat="41.7801409" lon="13.9061247"><ele>1042.0</ele><time>2026-04-25T09:39:18.872Z</time></trkpt><trkpt lat="41.7800768" lon="13.9061686"><ele>1042.0</ele><time>2026-04-25T09:39:25.75Z</time></trkpt><trkpt lat="41.7800099" lon="13.9062037"><ele>1042.0</ele><time>2026-04-25T09:39:32.799Z</time></trkpt><trkpt lat="41.7799431" lon="13.9062454"><ele>1041.142857142857</ele><time>2026-04-25T09:39:38.799Z</time></trkpt><trkpt lat="41.7798846" lon="13.9062847"><ele>1040.2857142857142</ele><time>2026-04-25T09:39:44.799Z</time></trkpt><trkpt lat="41.7798268" lon="13.9063377"><ele>1039.4285714285716</ele><time>2026-04-25T09:39:51.8Z</time></trkpt><trkpt lat="41.7797718" lon="13.9063799"><ele>1038.5714285714284</ele><time>2026-04-25T09:39:57.807Z</time></trkpt><trkpt lat="41.7797103" lon="13.9064163"><ele>1037.7142857142858</ele><time>2026-04-25T09:40:04.799Z</time></trkpt><trkpt lat="41.7796462" lon="13.9064342"><ele>1036.857142857143</ele><time>2026-04-25T09:40:10.799Z</time></trkpt><trkpt lat="41.7795825" lon="13.9064543"><ele>1036.0</ele><time>2026-04-25T09:40:16.729Z</time></trkpt><trkpt lat="41.7795212" lon="13.9064761"><ele>1036.0</ele><time>2026-04-25T09:40:22.799Z</time></trkpt><trkpt lat="41.7794546" lon="13.9064647"><ele>1036.0</ele><time>2026-04-25T09:40:28.799Z</time></trkpt><trkpt lat="41.7793903" lon="13.9064427"><ele>1036.0</ele><time>2026-04-25T09:40:34.83Z</time></trkpt><trkpt lat="41.7793225" lon="13.9064189"><ele>1036.0</ele><time>2026-04-25T09:40:40.793Z</time></trkpt><trkpt lat="41.779258" lon="13.9064013"><ele>1036.0</ele><time>2026-04-25T09:40:46.869Z</time></trkpt><trkpt lat="41.7791881" lon="13.9063933"><ele>1036.0</ele><time>2026-04-25T09:40:53.844Z</time></trkpt><trkpt lat="41.7791251" lon="13.9063845"><ele>1036.0</ele><time>2026-04-25T09:40:59.799Z</time></trkpt><trkpt lat="41.7790572" lon="13.9063907"><ele>1035.4285714285713</ele><time>2026-04-25T09:41:05.754Z</time></trkpt><trkpt lat="41.7789903" lon="13.906402"><ele>1034.857142857143</ele><time>2026-04-25T09:41:11.808Z</time></trkpt><trkpt lat="41.7789292" lon="13.9064237"><ele>1034.2857142857142</ele><time>2026-04-25T09:41:17.799Z</time></trkpt><trkpt lat="41.7788649" lon="13.9064666"><ele>1033.7142857142858</ele><time>2026-04-25T09:41:25.799Z</time></trkpt><trkpt lat="41.7788039" lon="13.9064296"><ele>1033.142857142857</ele><time>2026-04-25T09:41:30.734Z</time></trkpt><trkpt lat="41.7787393" lon="13.9064359"><ele>1032.5714285714284</ele><time>2026-04-25T09:41:36.802Z</time></trkpt><trkpt lat="41.7786732" lon="13.9064778"><ele>1032.0</ele><time>2026-04-25T09:41:43.799Z</time></trkpt><trkpt lat="41.7786051" lon="13.9064779"><ele>1031.9999999999998</ele><time>2026-04-25T09:41:50.799Z</time></trkpt><trkpt lat="41.7785349" lon="13.9064835"><ele>1032.0</ele><time>2026-04-25T09:41:58.791Z</time></trkpt><trkpt lat="41.7784687" lon="13.9064861"><ele>1032.0</ele><time>2026-04-25T09:42:03.799Z</time></trkpt><trkpt lat="41.7784094" lon="13.9065345"><ele>1032.0</ele><time>2026-04-25T09:42:09.807Z</time></trkpt><trkpt lat="41.7783462" lon="13.906575"><ele>1032.0</ele><time>2026-04-25T09:42:16.799Z</time></trkpt><trkpt lat="41.7782878" lon="13.9066164"><ele>1031.9999999999998</ele><time>2026-04-25T09:42:22.8Z</time></trkpt><trkpt lat="41.7782295" lon="13.9066671"><ele>1032.0</ele><time>2026-04-25T09:42:28.818Z</time></trkpt><trkpt lat="41.7781855" lon="13.9067351"><ele>1031.8571428571427</ele><time>2026-04-25T09:42:35.799Z</time></trkpt><trkpt lat="41.7781164" lon="13.9067431"><ele>1031.7142857142858</ele><time>2026-04-25T09:42:40.799Z</time></trkpt><trkpt lat="41.7780626" lon="13.9067912"><ele>1031.5714285714284</ele><time>2026-04-25T09:42:45.823Z</time></trkpt><trkpt lat="41.7780046" lon="13.9068495"><ele>1031.4285714285713</ele><time>2026-04-25T09:42:51.785Z</time></trkpt><trkpt lat="41.7779479" lon="13.906905"><ele>1031.2857142857142</ele><time>2026-04-25T09:42:57.799Z</time></trkpt><trkpt lat="41.7778933" lon="13.906961"><ele>1031.142857142857</ele><time>2026-04-25T09:43:03.832Z</time></trkpt><trkpt lat="41.7778329" lon="13.9069912"><ele>1031.0</ele><time>2026-04-25T09:43:09.783Z</time></trkpt><trkpt lat="41.7777869" lon="13.9070653"><ele>1031.0</ele><time>2026-04-25T09:43:15.805Z</time></trkpt><trkpt lat="41.7777297" lon="13.9071116"><ele>1031.0</ele><time>2026-04-25T09:43:21.841Z</time></trkpt><trkpt lat="41.7776726" lon="13.9071559"><ele>1031.0</ele><time>2026-04-25T09:43:27.8Z</time></trkpt><trkpt lat="41.7776262" lon="13.9072248"><ele>1031.0</ele><time>2026-04-25T09:43:33.87Z</time></trkpt><trkpt lat="41.7775716" lon="13.9072825"><ele>1031.0</ele><time>2026-04-25T09:43:39.851Z</time></trkpt><trkpt lat="41.7775179" lon="13.9073438"><ele>1031.0</ele><time>2026-04-25T09:43:45.733Z</time></trkpt><trkpt lat="41.7774592" lon="13.9073826"><ele>1031.0</ele><time>2026-04-25T09:43:51.822Z</time></trkpt><trkpt lat="41.777398" lon="13.907426"><ele>1030.857142857143</ele><time>2026-04-25T09:43:57.866Z</time></trkpt><trkpt lat="41.7773361" lon="13.9074801"><ele>1030.7142857142856</ele><time>2026-04-25T09:44:04.765Z</time></trkpt><trkpt lat="41.7772791" lon="13.9075386"><ele>1030.5714285714284</ele><time>2026-04-25T09:44:10.836Z</time></trkpt><trkpt lat="41.7772299" lon="13.9076032"><ele>1030.4285714285713</ele><time>2026-04-25T09:44:16.799Z</time></trkpt><trkpt lat="41.7771737" lon="13.9076587"><ele>1030.2857142857142</ele><time>2026-04-25T09:44:22.746Z</time></trkpt><trkpt lat="41.7771158" lon="13.907703"><ele>1030.142857142857</ele><time>2026-04-25T09:44:28.845Z</time></trkpt><trkpt lat="41.777061" lon="13.9077555"><ele>1030.0</ele><time>2026-04-25T09:44:34.8Z</time></trkpt><trkpt lat="41.777004" lon="13.9078098"><ele>1030.0</ele><time>2026-04-25T09:44:40.817Z</time></trkpt><trkpt lat="41.776952" lon="13.9078628"><ele>1030.0</ele><time>2026-04-25T09:44:46.8Z</time></trkpt><trkpt lat="41.7768983" lon="13.9079164"><ele>1030.0</ele><time>2026-04-25T09:44:52.865Z</time></trkpt><trkpt lat="41.7768308" lon="13.9079553"><ele>1030.0</ele><time>2026-04-25T09:44:59.832Z</time></trkpt><trkpt lat="41.7767799" lon="13.9080175"><ele>1030.0</ele><time>2026-04-25T09:45:05.799Z</time></trkpt><trkpt lat="41.7767223" lon="13.908069"><ele>1030.0</ele><time>2026-04-25T09:45:11.804Z</time></trkpt><trkpt lat="41.776664" lon="13.9081221"><ele>1030.0</ele><time>2026-04-25T09:45:17.84Z</time></trkpt><trkpt lat="41.7766014" lon="13.9081762"><ele>1030.142857142857</ele><time>2026-04-25T09:45:23.794Z</time></trkpt><trkpt lat="41.7765394" lon="13.9082059"><ele>1030.2857142857142</ele><time>2026-04-25T09:45:29.812Z</time></trkpt><trkpt lat="41.776485" lon="13.9082615"><ele>1030.4285714285713</ele><time>2026-04-25T09:45:35.799Z</time></trkpt><trkpt lat="41.7764294" lon="13.9083152"><ele>1030.5714285714284</ele><time>2026-04-25T09:45:41.752Z</time></trkpt><trkpt lat="41.776372" lon="13.9083696"><ele>1030.7142857142856</ele><time>2026-04-25T09:45:47.821Z</time></trkpt><trkpt lat="41.7763281" lon="13.908442"><ele>1030.857142857143</ele><time>2026-04-25T09:45:53.799Z</time></trkpt><trkpt lat="41.7762638" lon="13.9084678"><ele>1031.0</ele><time>2026-04-25T09:48:00.8Z</time></trkpt><trkpt lat="41.776328" lon="13.9084466"><ele>1031.0</ele><time>2026-04-25T09:48:10.799Z</time></trkpt><trkpt lat="41.7762715" lon="13.9084056"><ele>1031.0</ele><time>2026-04-25T09:48:22.799Z</time></trkpt><trkpt lat="41.7763087" lon="13.9084807"><ele>1031.0</ele><time>2026-04-25T09:49:17.799Z</time></trkpt><trkpt lat="41.7762578" lon="13.9085497"><ele>1031.0</ele><time>2026-04-25T09:49:26.799Z</time></trkpt><trkpt lat="41.7761955" lon="13.9085873"><ele>1031.0</ele><time>2026-04-25T09:49:32.799Z</time></trkpt><trkpt lat="41.776131" lon="13.9086386"><ele>1031.0</ele><time>2026-04-25T09:49:44.843Z</time></trkpt><trkpt lat="41.776068" lon="13.9086514"><ele>1031.0</ele><time>2026-04-25T09:49:49.799Z</time></trkpt><trkpt lat="41.7760068" lon="13.9087021"><ele>1031.5714285714284</ele><time>2026-04-25T09:49:56.814Z</time></trkpt><trkpt lat="41.7759429" lon="13.9087286"><ele>1032.142857142857</ele><time>2026-04-25T09:50:02.799Z</time></trkpt><trkpt lat="41.775885" lon="13.9087746"><ele>1032.7142857142858</ele><time>2026-04-25T09:50:08.799Z</time></trkpt><trkpt lat="41.7758345" lon="13.9088271"><ele>1033.2857142857142</ele><time>2026-04-25T09:50:14.822Z</time></trkpt><trkpt lat="41.7757785" lon="13.9088835"><ele>1033.857142857143</ele><time>2026-04-25T09:50:20.8Z</time></trkpt><trkpt lat="41.7757247" lon="13.9089351"><ele>1034.4285714285713</ele><time>2026-04-25T09:50:26.791Z</time></trkpt><trkpt lat="41.7756852" lon="13.9090132"><ele>1035.0</ele><time>2026-04-25T09:50:32.828Z</time></trkpt><trkpt lat="41.7756334" lon="13.9090707"><ele>1035.0</ele><time>2026-04-25T09:50:38.835Z</time></trkpt><trkpt lat="41.7755782" lon="13.9091221"><ele>1035.0</ele><time>2026-04-25T09:50:44.87Z</time></trkpt><trkpt lat="41.7755216" lon="13.9091649"><ele>1035.0</ele><time>2026-04-25T09:50:50.799Z</time></trkpt><trkpt lat="41.7754686" lon="13.9092267"><ele>1035.0</ele><time>2026-04-25T09:50:56.799Z</time></trkpt><trkpt lat="41.7754046" lon="13.9092649"><ele>1035.0</ele><time>2026-04-25T09:51:03.732Z</time></trkpt><trkpt lat="41.7753519" lon="13.9093181"><ele>1035.0</ele><time>2026-04-25T09:51:09.799Z</time></trkpt><trkpt lat="41.775302" lon="13.9093736"><ele>1035.0</ele><time>2026-04-25T09:51:15.735Z</time></trkpt><trkpt lat="41.7752413" lon="13.9094131"><ele>1035.4285714285713</ele><time>2026-04-25T09:51:21.823Z</time></trkpt><trkpt lat="41.775188" lon="13.9094648"><ele>1035.857142857143</ele><time>2026-04-25T09:51:27.799Z</time></trkpt><trkpt lat="41.7751326" lon="13.9095099"><ele>1036.2857142857142</ele><time>2026-04-25T09:51:34.801Z</time></trkpt><trkpt lat="41.7751554" lon="13.9095988"><ele>1036.7142857142858</ele><time>2026-04-25T09:51:45.799Z</time></trkpt><trkpt lat="41.7750725" lon="13.909582"><ele>1037.142857142857</ele><time>2026-04-25T09:56:27.799Z</time></trkpt><trkpt lat="41.775007" lon="13.909592"><ele>1037.5714285714284</ele><time>2026-04-25T09:56:34.799Z</time></trkpt><trkpt lat="41.774941" lon="13.909626"><ele>1038.0</ele><time>2026-04-25T09:56:40.807Z</time></trkpt><trkpt lat="41.7748805" lon="13.9096644"><ele>1038.857142857143</ele><time>2026-04-25T09:56:47.799Z</time></trkpt><trkpt lat="41.7748085" lon="13.90967"><ele>1039.7142857142856</ele><time>2026-04-25T09:56:54.814Z</time></trkpt><trkpt lat="41.7747386" lon="13.909666"><ele>1040.5714285714284</ele><time>2026-04-25T09:57:01.854Z</time></trkpt><trkpt lat="41.7746751" lon="13.909675"><ele>1041.4285714285713</ele><time>2026-04-25T09:57:08.799Z</time></trkpt><trkpt lat="41.7746099" lon="13.909658"><ele>1042.2857142857142</ele><time>2026-04-25T09:57:15.841Z</time></trkpt><trkpt lat="41.7745531" lon="13.9096036"><ele>1043.142857142857</ele><time>2026-04-25T09:57:22.799Z</time></trkpt><trkpt lat="41.7744855" lon="13.9095974"><ele>1044.0</ele><time>2026-04-25T09:57:29.848Z</time></trkpt><trkpt lat="41.7744226" lon="13.9095753"><ele>1044.0</ele><time>2026-04-25T09:57:36.772Z</time></trkpt><trkpt lat="41.7743614" lon="13.9095441"><ele>1044.0</ele><time>2026-04-25T09:57:43.714Z</time></trkpt><trkpt lat="41.7742905" lon="13.9095246"><ele>1044.0</ele><time>2026-04-25T09:57:50.85Z</time></trkpt><trkpt lat="41.7742228" lon="13.9094961"><ele>1044.0</ele><time>2026-04-25T09:57:57.799Z</time></trkpt><trkpt lat="41.7741506" lon="13.9094738"><ele>1044.0</ele><time>2026-04-25T09:58:04.869Z</time></trkpt><trkpt lat="41.7740892" lon="13.9095117"><ele>1044.0</ele><time>2026-04-25T09:58:13.799Z</time></trkpt><trkpt lat="41.7740222" lon="13.9094688"><ele>1044.0</ele><time>2026-04-25T09:58:18.817Z</time></trkpt><trkpt lat="41.7739603" lon="13.9094162"><ele>1044.142857142857</ele><time>2026-04-25T09:58:25.799Z</time></trkpt><trkpt lat="41.773899" lon="13.9093784"><ele>1044.2857142857142</ele><time>2026-04-25T09:58:31.799Z</time></trkpt><trkpt lat="41.7738481" lon="13.9093099"><ele>1044.4285714285713</ele><time>2026-04-25T09:58:38.838Z</time></trkpt><trkpt lat="41.7737975" lon="13.9092479"><ele>1044.5714285714284</ele><time>2026-04-25T09:58:45.799Z</time></trkpt><trkpt lat="41.7737343" lon="13.9092509"><ele>1044.7142857142856</ele><time>2026-04-25T10:04:26.798Z</time></trkpt><trkpt lat="41.7736661" lon="13.9092353"><ele>1044.857142857143</ele><time>2026-04-25T10:04:31.797Z</time></trkpt><trkpt lat="41.7736031" lon="13.9092622"><ele>1045.0</ele><time>2026-04-25T10:04:38.797Z</time></trkpt><trkpt lat="41.7735939" lon="13.9093532"><ele>1044.857142857143</ele><time>2026-04-25T10:04:44.798Z</time></trkpt><trkpt lat="41.7735551" lon="13.909426"><ele>1044.7142857142856</ele><time>2026-04-25T10:04:50.806Z</time></trkpt><trkpt lat="41.7735064" lon="13.909494"><ele>1044.5714285714284</ele><time>2026-04-25T10:04:56.797Z</time></trkpt><trkpt lat="41.7734601" lon="13.9095617"><ele>1044.4285714285713</ele><time>2026-04-25T10:05:02.798Z</time></trkpt><trkpt lat="41.7733869" lon="13.9095844"><ele>1044.2857142857142</ele><time>2026-04-25T10:06:16.731Z</time></trkpt><trkpt lat="41.7733214" lon="13.9096216"><ele>1044.142857142857</ele><time>2026-04-25T10:06:21.797Z</time></trkpt><trkpt lat="41.7732523" lon="13.9096231"><ele>1044.0</ele><time>2026-04-25T10:06:26.797Z</time></trkpt><trkpt lat="41.773199" lon="13.9096728"><ele>1044.0</ele><time>2026-04-25T10:06:35.75Z</time></trkpt><trkpt lat="41.7731753" lon="13.9097698"><ele>1044.0</ele><time>2026-04-25T10:06:40.733Z</time></trkpt><trkpt lat="41.7731532" lon="13.9098536"><ele>1044.0</ele><time>2026-04-25T10:06:45.816Z</time></trkpt><trkpt lat="41.7731283" lon="13.9099438"><ele>1044.0</ele><time>2026-04-25T10:06:51.835Z</time></trkpt><trkpt lat="41.7731082" lon="13.9100312"><ele>1044.0</ele><time>2026-04-25T10:06:57.797Z</time></trkpt><trkpt lat="41.7730844" lon="13.9101174"><ele>1044.0</ele><time>2026-04-25T10:07:03.795Z</time></trkpt><trkpt lat="41.7730682" lon="13.9102052"><ele>1044.0</ele><time>2026-04-25T10:07:09.797Z</time></trkpt><trkpt lat="41.7730481" lon="13.9102987"><ele>1044.2857142857142</ele><time>2026-04-25T10:07:15.797Z</time></trkpt><trkpt lat="41.7730251" lon="13.9103889"><ele>1044.5714285714284</ele><time>2026-04-25T10:07:21.839Z</time></trkpt><trkpt lat="41.7730632" lon="13.9104669"><ele>1044.8571428571427</ele><time>2026-04-25T10:07:28.797Z</time></trkpt><trkpt lat="41.7730152" lon="13.9105343"><ele>1045.142857142857</ele><time>2026-04-25T10:07:32.797Z</time></trkpt><trkpt lat="41.7729676" lon="13.9106037"><ele>1045.4285714285713</ele><time>2026-04-25T10:07:37.821Z</time></trkpt><trkpt lat="41.7729468" lon="13.9106939"><ele>1045.7142857142856</ele><time>2026-04-25T10:07:43.834Z</time></trkpt><trkpt lat="41.7729395" lon="13.9107802"><ele>1046.0</ele><time>2026-04-25T10:07:48.797Z</time></trkpt><trkpt lat="41.7728852" lon="13.9108291"><ele>1045.9999999999998</ele><time>2026-04-25T10:08:10.824Z</time></trkpt><trkpt lat="41.7728573" lon="13.9109056"><ele>1046.0</ele><time>2026-04-25T10:08:15.798Z</time></trkpt><trkpt lat="41.7727983" lon="13.9109551"><ele>1046.0</ele><time>2026-04-25T10:08:22.798Z</time></trkpt><trkpt lat="41.7727329" lon="13.9109761"><ele>1046.0</ele><time>2026-04-25T10:09:14.772Z</time></trkpt><trkpt lat="41.7726677" lon="13.9109867"><ele>1046.0</ele><time>2026-04-25T10:09:19.849Z</time></trkpt><trkpt lat="41.7725958" lon="13.9109886"><ele>1045.9999999999998</ele><time>2026-04-25T10:09:25.797Z</time></trkpt><trkpt lat="41.7725275" lon="13.9110091"><ele>1046.0</ele><time>2026-04-25T10:09:31.842Z</time></trkpt><trkpt lat="41.7724576" lon="13.9110197"><ele>1044.7142857142856</ele><time>2026-04-25T10:09:37.797Z</time></trkpt><trkpt lat="41.7723885" lon="13.9110296"><ele>1043.4285714285713</ele><time>2026-04-25T10:09:43.75Z</time></trkpt><trkpt lat="41.7723165" lon="13.9110522"><ele>1042.142857142857</ele><time>2026-04-25T10:09:49.833Z</time></trkpt><trkpt lat="41.772252" lon="13.9110757"><ele>1040.8571428571427</ele><time>2026-04-25T10:09:55.797Z</time></trkpt><trkpt lat="41.7722635" lon="13.9111635"><ele>1039.5714285714284</ele><time>2026-04-25T10:10:06.837Z</time></trkpt><trkpt lat="41.7722373" lon="13.9112425"><ele>1038.2857142857142</ele><time>2026-04-25T10:10:12.798Z</time></trkpt><trkpt lat="41.7721742" lon="13.9112355"><ele>1037.0</ele><time>2026-04-25T10:10:16.798Z</time></trkpt><trkpt lat="41.7721093" lon="13.9112467"><ele>1037.0</ele><time>2026-04-25T10:10:21.794Z</time></trkpt><trkpt lat="41.7720465" lon="13.9112051"><ele>1037.0</ele><time>2026-04-25T10:10:25.797Z</time></trkpt><trkpt lat="41.7719773" lon="13.9112128"><ele>1037.0</ele><time>2026-04-25T10:10:31.797Z</time></trkpt><trkpt lat="41.7719101" lon="13.9112074"><ele>1037.0</ele><time>2026-04-25T10:10:37.828Z</time></trkpt><trkpt lat="41.7718423" lon="13.911197"><ele>1037.0</ele><time>2026-04-25T10:10:43.797Z</time></trkpt><trkpt lat="41.771769" lon="13.9111815"><ele>1037.0</ele><time>2026-04-25T10:11:28.797Z</time></trkpt><trkpt lat="41.771707" lon="13.9112011"><ele>1037.0</ele><time>2026-04-25T10:11:33.797Z</time></trkpt><trkpt lat="41.7716372" lon="13.9112055"><ele>1036.142857142857</ele><time>2026-04-25T10:11:39.797Z</time></trkpt><trkpt lat="41.7715712" lon="13.9111858"><ele>1035.2857142857142</ele><time>2026-04-25T10:11:45.798Z</time></trkpt><trkpt lat="41.7715047" lon="13.9111873"><ele>1034.4285714285713</ele><time>2026-04-25T10:11:51.797Z</time></trkpt><trkpt lat="41.7714413" lon="13.9111712"><ele>1033.5714285714284</ele><time>2026-04-25T10:11:57.811Z</time></trkpt><trkpt lat="41.7713773" lon="13.9111327"><ele>1032.7142857142856</ele><time>2026-04-25T10:12:04.797Z</time></trkpt><trkpt lat="41.771308" lon="13.9111052"><ele>1031.857142857143</ele><time>2026-04-25T10:12:11.803Z</time></trkpt><trkpt lat="41.7712397" lon="13.9110883"><ele>1031.0</ele><time>2026-04-25T10:12:18.797Z</time></trkpt><trkpt lat="41.7712059" lon="13.911014"><ele>1031.0</ele><time>2026-04-25T10:12:23.798Z</time></trkpt><trkpt lat="41.7711474" lon="13.9109804"><ele>1031.0</ele><time>2026-04-25T10:12:29.842Z</time></trkpt><trkpt lat="41.7710876" lon="13.910943"><ele>1031.0</ele><time>2026-04-25T10:12:36.797Z</time></trkpt><trkpt lat="41.7710413" lon="13.9108847"><ele>1031.0</ele><time>2026-04-25T10:12:42.797Z</time></trkpt><trkpt lat="41.7709849" lon="13.9108288"><ele>1031.0</ele><time>2026-04-25T10:12:49.834Z</time></trkpt><trkpt lat="41.7709269" lon="13.9107715"><ele>1031.0</ele><time>2026-04-25T10:12:56.797Z</time></trkpt><trkpt lat="41.7708704" lon="13.9107207"><ele>1031.0</ele><time>2026-04-25T10:13:02.717Z</time></trkpt><trkpt lat="41.7708161" lon="13.9106685"><ele>1031.5714285714284</ele><time>2026-04-25T10:13:08.851Z</time></trkpt><trkpt lat="41.7707557" lon="13.9106095"><ele>1032.142857142857</ele><time>2026-04-25T10:13:14.797Z</time></trkpt><trkpt lat="41.7706952" lon="13.9105566"><ele>1032.7142857142858</ele><time>2026-04-25T10:13:20.823Z</time></trkpt><trkpt lat="41.7706335" lon="13.9105118"><ele>1033.2857142857142</ele><time>2026-04-25T10:13:26.797Z</time></trkpt><trkpt lat="41.7705684" lon="13.9104925"><ele>1033.857142857143</ele><time>2026-04-25T10:13:32.797Z</time></trkpt><trkpt lat="41.7705114" lon="13.9104553"><ele>1034.4285714285713</ele><time>2026-04-25T10:13:37.827Z</time></trkpt><trkpt lat="41.7704564" lon="13.9104059"><ele>1035.0</ele><time>2026-04-25T10:13:43.798Z</time></trkpt><trkpt lat="41.7704044" lon="13.9103521"><ele>1035.0</ele><time>2026-04-25T10:13:50.771Z</time></trkpt><trkpt lat="41.7703338" lon="13.9103462"><ele>1035.0</ele><time>2026-04-25T10:13:57.797Z</time></trkpt><trkpt lat="41.7702633" lon="13.9103239"><ele>1035.0</ele><time>2026-04-25T10:14:04.777Z</time></trkpt><trkpt lat="41.7701912" lon="13.9103039"><ele>1035.0</ele><time>2026-04-25T10:14:11.834Z</time></trkpt><trkpt lat="41.7701264" lon="13.9102783"><ele>1035.0</ele><time>2026-04-25T10:14:18.797Z</time></trkpt><trkpt lat="41.7700658" lon="13.9102314"><ele>1035.0</ele><time>2026-04-25T10:14:24.813Z</time></trkpt><trkpt lat="41.7700045" lon="13.9101877"><ele>1035.0</ele><time>2026-04-25T10:14:30.798Z</time></trkpt><trkpt lat="41.7699421" lon="13.9101661"><ele>1035.4285714285713</ele><time>2026-04-25T10:14:37.797Z</time></trkpt><trkpt lat="41.7699505" lon="13.910263"><ele>1035.857142857143</ele><time>2026-04-25T10:14:46.797Z</time></trkpt><trkpt lat="41.7698859" lon="13.9102914"><ele>1036.2857142857142</ele><time>2026-04-25T10:14:52.797Z</time></trkpt><trkpt lat="41.7698452" lon="13.910363"><ele>1036.7142857142858</ele><time>2026-04-25T10:15:01.797Z</time></trkpt><trkpt lat="41.7698256" lon="13.9102741"><ele>1037.142857142857</ele><time>2026-04-25T10:15:12.792Z</time></trkpt><trkpt lat="41.769759" lon="13.9102535"><ele>1037.5714285714284</ele><time>2026-04-25T10:15:27.833Z</time></trkpt><trkpt lat="41.7696995" lon="13.9102862"><ele>1038.0</ele><time>2026-04-25T10:15:33.779Z</time></trkpt><trkpt lat="41.769648" lon="13.9103354"><ele>1038.0</ele><time>2026-04-25T10:15:40.797Z</time></trkpt><trkpt lat="41.7695813" lon="13.910334"><ele>1038.0</ele><time>2026-04-25T10:15:50.838Z</time></trkpt><trkpt lat="41.7696188" lon="13.9104116"><ele>1038.0</ele><time>2026-04-25T10:16:27.86Z</time></trkpt><trkpt lat="41.7695752" lon="13.9103487"><ele>1038.0</ele><time>2026-04-25T10:17:04.793Z</time></trkpt><trkpt lat="41.7695065" lon="13.91033"><ele>1038.0</ele><time>2026-04-25T10:24:20.814Z</time></trkpt><trkpt lat="41.7694368" lon="13.9103428"><ele>1038.0</ele><time>2026-04-25T10:24:27.711Z</time></trkpt><trkpt lat="41.7693933" lon="13.9104159"><ele>1038.0</ele><time>2026-04-25T10:24:39.794Z</time></trkpt><trkpt lat="41.7693581" lon="13.910344"><ele>1038.0</ele><time>2026-04-25T10:25:32.794Z</time></trkpt><trkpt lat="41.7694088" lon="13.9102925"><ele>1038.0</ele><time>2026-04-25T10:25:39.8Z</time></trkpt><trkpt lat="41.7694769" lon="13.9102732"><ele>1038.0</ele><time>2026-04-25T10:25:46.794Z</time></trkpt><trkpt lat="41.7694079" lon="13.9103292"><ele>1038.0</ele><time>2026-04-25T10:27:52.795Z</time></trkpt><trkpt lat="41.7693673" lon="13.9103983"><ele>1038.0</ele><time>2026-04-25T10:29:20.794Z</time></trkpt><trkpt lat="41.7693002" lon="13.9104326"><ele>1038.0</ele><time>2026-04-25T10:29:29.749Z</time></trkpt><trkpt lat="41.7693522" lon="13.9103362"><ele>1038.0</ele><time>2026-04-25T10:31:31.794Z</time></trkpt><trkpt lat="41.7694201" lon="13.9103411"><ele>1038.0</ele><time>2026-04-25T10:31:42.791Z</time></trkpt><trkpt lat="41.7693658" lon="13.9102812"><ele>1038.0</ele><time>2026-04-25T10:31:56.747Z</time></trkpt><trkpt lat="41.769312" lon="13.9102332"><ele>1038.0</ele><time>2026-04-25T10:32:10.801Z</time></trkpt><trkpt lat="41.7692484" lon="13.9102505"><ele>1038.0</ele><time>2026-04-25T10:32:18.794Z</time></trkpt><trkpt lat="41.7691868" lon="13.9102288"><ele>1038.0</ele><time>2026-04-25T10:32:24.552Z</time></trkpt><trkpt lat="41.7691519" lon="13.9101554"><ele>1038.0</ele><time>2026-04-25T10:32:31.831Z</time></trkpt><trkpt lat="41.7691391" lon="13.9100675"><ele>1038.0</ele><time>2026-04-25T10:32:37.853Z</time></trkpt><trkpt lat="41.7691271" lon="13.9099824"><ele>1038.4285714285713</ele><time>2026-04-25T10:32:45.852Z</time></trkpt><trkpt lat="41.769106" lon="13.9098992"><ele>1038.8571428571427</ele><time>2026-04-25T10:32:54.794Z</time></trkpt><trkpt lat="41.7690984" lon="13.9098115"><ele>1039.2857142857142</ele><time>2026-04-25T10:33:02.726Z</time></trkpt><trkpt lat="41.7690853" lon="13.9097237"><ele>1039.7142857142858</ele><time>2026-04-25T10:33:09.794Z</time></trkpt><trkpt lat="41.7690536" lon="13.9096473"><ele>1040.1428571428573</ele><time>2026-04-25T10:33:16.808Z</time></trkpt><trkpt lat="41.7690044" lon="13.9095942"><ele>1040.5714285714287</ele><time>2026-04-25T10:33:26.734Z</time></trkpt><trkpt lat="41.7689432" lon="13.9095528"><ele>1041.0</ele><time>2026-04-25T10:33:38.843Z</time></trkpt><trkpt lat="41.7688791" lon="13.909517"><ele>1041.0</ele><time>2026-04-25T10:33:47.814Z</time></trkpt><trkpt lat="41.768824" lon="13.9094516"><ele>1041.0</ele><time>2026-04-25T10:33:55.794Z</time></trkpt><trkpt lat="41.768769" lon="13.9093997"><ele>1041.0</ele><time>2026-04-25T10:34:02.794Z</time></trkpt><trkpt lat="41.7687741" lon="13.9094847"><ele>1041.0</ele><time>2026-04-25T10:34:17.794Z</time></trkpt><trkpt lat="41.7687058" lon="13.9094622"><ele>1041.0</ele><time>2026-04-25T10:34:24.825Z</time></trkpt><trkpt lat="41.76864" lon="13.9094465"><ele>1041.0</ele><time>2026-04-25T10:36:10.795Z</time></trkpt><trkpt lat="41.7687037" lon="13.9094927"><ele>1041.0</ele><time>2026-04-25T10:36:19.795Z</time></trkpt><trkpt lat="41.7687388" lon="13.9094138"><ele>1041.0</ele><time>2026-04-25T10:36:29.834Z</time></trkpt><trkpt lat="41.7687888" lon="13.9093618"><ele>1041.0</ele><time>2026-04-25T10:36:37.752Z</time></trkpt><trkpt lat="41.7687551" lon="13.9092822"><ele>1041.0</ele><time>2026-04-25T10:36:43.794Z</time></trkpt><trkpt lat="41.7686843" lon="13.9092378"><ele>1041.0</ele><time>2026-04-25T10:36:48.794Z</time></trkpt><trkpt lat="41.7686165" lon="13.909205"><ele>1041.0</ele><time>2026-04-25T10:36:53.753Z</time></trkpt><trkpt lat="41.7685467" lon="13.9091637"><ele>1041.0</ele><time>2026-04-25T10:36:58.813Z</time></trkpt><trkpt lat="41.7684833" lon="13.9091297"><ele>1041.0</ele><time>2026-04-25T10:37:03.794Z</time></trkpt><trkpt lat="41.7684157" lon="13.9090943"><ele>1041.857142857143</ele><time>2026-04-25T10:37:08.81Z</time></trkpt><trkpt lat="41.7683517" lon="13.9090767"><ele>1042.7142857142858</ele><time>2026-04-25T10:39:44.794Z</time></trkpt><trkpt lat="41.7682862" lon="13.909051"><ele>1043.5714285714287</ele><time>2026-04-25T10:39:49.794Z</time></trkpt><trkpt lat="41.7682233" lon="13.9090128"><ele>1044.4285714285716</ele><time>2026-04-25T10:39:54.794Z</time></trkpt><trkpt lat="41.7681628" lon="13.9089861"><ele>1045.2857142857142</ele><time>2026-04-25T10:39:59.794Z</time></trkpt><trkpt lat="41.768098" lon="13.9089702"><ele>1046.1428571428573</ele><time>2026-04-25T10:40:04.794Z</time></trkpt><trkpt lat="41.7680361" lon="13.9089499"><ele>1047.0</ele><time>2026-04-25T10:40:09.794Z</time></trkpt><trkpt lat="41.7679655" lon="13.9089253"><ele>1047.0000000000002</ele><time>2026-04-25T10:40:15.795Z</time></trkpt><trkpt lat="41.7679003" lon="13.9089063"><ele>1047.0</ele><time>2026-04-25T10:40:21.816Z</time></trkpt><trkpt lat="41.767836" lon="13.9088886"><ele>1047.0</ele><time>2026-04-25T10:40:27.747Z</time></trkpt><trkpt lat="41.767774" lon="13.9088548"><ele>1047.0</ele><time>2026-04-25T10:40:33.795Z</time></trkpt><trkpt lat="41.7677062" lon="13.9088384"><ele>1047.0</ele><time>2026-04-25T10:40:39.827Z</time></trkpt><trkpt lat="41.767638" lon="13.9087997"><ele>1047.0000000000002</ele><time>2026-04-25T10:40:45.77Z</time></trkpt><trkpt lat="41.7675713" lon="13.9087738"><ele>1047.0</ele><time>2026-04-25T10:40:51.802Z</time></trkpt><trkpt lat="41.7675008" lon="13.9087502"><ele>1047.6666666666667</ele><time>2026-04-25T10:40:57.794Z</time></trkpt><trkpt lat="41.7674359" lon="13.9087052"><ele>1048.3333333333333</ele><time>2026-04-25T10:41:03.795Z</time></trkpt><trkpt lat="41.7673763" lon="13.9086601"><ele>1049.0</ele><time>2026-04-25T10:41:09.813Z</time></trkpt><trkpt lat="41.7673171" lon="13.9086302"><ele>1049.6666666666665</ele><time>2026-04-25T10:41:15.846Z</time></trkpt><trkpt lat="41.7672513" lon="13.9086357"><ele>1050.3333333333333</ele><time>2026-04-25T10:41:22.794Z</time></trkpt><trkpt lat="41.7672723" lon="13.9087943"><ele>1051.0</ele><time>2026-04-25T10:42:32.829Z</time></trkpt><trkpt lat="41.7672702" lon="13.9087086"><ele>1051.0</ele><time>2026-04-25T10:44:44.794Z</time></trkpt><trkpt lat="41.7672346" lon="13.9086218"><ele>1051.0</ele><time>2026-04-25T10:45:01.794Z</time></trkpt><trkpt lat="41.7671787" lon="13.9085763"><ele>1051.0</ele><time>2026-04-25T10:45:10.825Z</time></trkpt><trkpt lat="41.7671093" lon="13.908552"><ele>1051.0</ele><time>2026-04-25T10:45:17.794Z</time></trkpt><trkpt lat="41.7670447" lon="13.9085345"><ele>1051.0</ele><time>2026-04-25T10:45:22.799Z</time></trkpt><trkpt lat="41.7669825" lon="13.9084953"><ele>1051.0</ele><time>2026-04-25T10:45:27.784Z</time></trkpt><trkpt lat="41.7669206" lon="13.9084751"><ele>1051.0</ele><time>2026-04-25T10:45:32.794Z</time></trkpt><trkpt lat="41.7668571" lon="13.9084769"><ele>1051.7142857142858</ele><time>2026-04-25T10:45:37.794Z</time></trkpt><trkpt lat="41.7667924" lon="13.9084307"><ele>1052.4285714285713</ele><time>2026-04-25T10:45:42.822Z</time></trkpt><trkpt lat="41.7667266" lon="13.9084102"><ele>1053.142857142857</ele><time>2026-04-25T10:45:47.794Z</time></trkpt><trkpt lat="41.7666618" lon="13.9084497"><ele>1053.857142857143</ele><time>2026-04-25T10:45:53.794Z</time></trkpt><trkpt lat="41.766589" lon="13.9084387"><ele>1054.5714285714287</ele><time>2026-04-25T10:45:58.821Z</time></trkpt><trkpt lat="41.7665179" lon="13.9084065"><ele>1055.2857142857142</ele><time>2026-04-25T10:46:03.794Z</time></trkpt><trkpt lat="41.7664488" lon="13.9083668"><ele>1056.0</ele><time>2026-04-25T10:46:09.756Z</time></trkpt><trkpt lat="41.7663757" lon="13.9083786"><ele>1056.0</ele><time>2026-04-25T10:46:15.826Z</time></trkpt><trkpt lat="41.7663038" lon="13.90838"><ele>1056.0</ele><time>2026-04-25T10:46:21.795Z</time></trkpt><trkpt lat="41.7662321" lon="13.9083875"><ele>1056.0</ele><time>2026-04-25T10:46:27.799Z</time></trkpt><trkpt lat="41.7661685" lon="13.9083448"><ele>1056.0</ele><time>2026-04-25T10:46:33.794Z</time></trkpt><trkpt lat="41.7661074" lon="13.9083175"><ele>1056.0</ele><time>2026-04-25T10:46:39.75Z</time></trkpt><trkpt lat="41.7660386" lon="13.9083035"><ele>1056.0</ele><time>2026-04-25T10:46:45.81Z</time></trkpt><trkpt lat="41.7659682" lon="13.9082913"><ele>1056.0</ele><time>2026-04-25T10:46:51.794Z</time></trkpt><trkpt lat="41.7659024" lon="13.9082655"><ele>1056.0</ele><time>2026-04-25T10:46:57.794Z</time></trkpt><trkpt lat="41.7658372" lon="13.9082223"><ele>1056.0</ele><time>2026-04-25T10:47:03.794Z</time></trkpt><trkpt lat="41.7657649" lon="13.9082002"><ele>1056.0</ele><time>2026-04-25T10:47:09.794Z</time></trkpt><trkpt lat="41.7656992" lon="13.9081605"><ele>1056.0</ele><time>2026-04-25T10:47:15.794Z</time></trkpt><trkpt lat="41.7656401" lon="13.9081222"><ele>1056.0</ele><time>2026-04-25T10:47:21.794Z</time></trkpt><trkpt lat="41.7655841" lon="13.9080776"><ele>1056.0</ele><time>2026-04-25T10:47:27.794Z</time></trkpt><trkpt lat="41.7655232" lon="13.9080397"><ele>1056.0</ele><time>2026-04-25T10:47:33.805Z</time></trkpt><trkpt lat="41.7654684" lon="13.9079889"><ele>1056.0</ele><time>2026-04-25T10:47:40.794Z</time></trkpt><trkpt lat="41.7654049" lon="13.9079582"><ele>1056.0</ele><time>2026-04-25T10:47:54.794Z</time></trkpt><trkpt lat="41.7653439" lon="13.9079298"><ele>1056.0</ele><time>2026-04-25T10:48:02.803Z</time></trkpt><trkpt lat="41.7652743" lon="13.9079091"><ele>1056.0</ele><time>2026-04-25T10:48:08.842Z</time></trkpt><trkpt lat="41.7652149" lon="13.9078688"><ele>1056.0</ele><time>2026-04-25T10:48:14.794Z</time></trkpt><trkpt lat="41.7651386" lon="13.9078874"><ele>1056.0</ele><time>2026-04-25T10:48:21.795Z</time></trkpt><trkpt lat="41.7650983" lon="13.9078202"><ele>1056.0</ele><time>2026-04-25T10:48:27.794Z</time></trkpt><trkpt lat="41.7650514" lon="13.9077614"><ele>1057.2857142857142</ele><time>2026-04-25T10:48:33.846Z</time></trkpt><trkpt lat="41.7649745" lon="13.9077431"><ele>1058.5714285714287</ele><time>2026-04-25T10:48:39.838Z</time></trkpt><trkpt lat="41.7649117" lon="13.9077619"><ele>1059.857142857143</ele><time>2026-04-25T10:48:43.794Z</time></trkpt><trkpt lat="41.7648522" lon="13.9078216"><ele>1061.142857142857</ele><time>2026-04-25T10:48:47.794Z</time></trkpt><trkpt lat="41.7648091" lon="13.9078918"><ele>1062.4285714285713</ele><time>2026-04-25T10:48:53.81Z</time></trkpt><trkpt lat="41.7647412" lon="13.9079125"><ele>1063.7142857142858</ele><time>2026-04-25T10:49:00.712Z</time></trkpt><trkpt lat="41.7646738" lon="13.9079163"><ele>1065.0</ele><time>2026-04-25T10:49:06.805Z</time></trkpt><trkpt lat="41.7646149" lon="13.9078822"><ele>1065.0</ele><time>2026-04-25T10:49:11.835Z</time></trkpt><trkpt lat="41.7645549" lon="13.9078332"><ele>1065.0</ele><time>2026-04-25T10:49:16.794Z</time></trkpt><trkpt lat="41.7644983" lon="13.9077883"><ele>1065.0</ele><time>2026-04-25T10:49:21.796Z</time></trkpt><trkpt lat="41.7644456" lon="13.9077373"><ele>1065.0</ele><time>2026-04-25T10:49:26.827Z</time></trkpt><trkpt lat="41.7643894" lon="13.9076947"><ele>1065.0</ele><time>2026-04-25T10:49:31.795Z</time></trkpt><trkpt lat="41.7643224" lon="13.9076789"><ele>1065.0</ele><time>2026-04-25T10:49:36.854Z</time></trkpt><trkpt lat="41.7642602" lon="13.9076248"><ele>1065.0</ele><time>2026-04-25T10:49:41.793Z</time></trkpt><trkpt lat="41.7641986" lon="13.9075943"><ele>1065.5714285714287</ele><time>2026-04-25T10:49:46.777Z</time></trkpt><trkpt lat="41.7641358" lon="13.9075663"><ele>1066.142857142857</ele><time>2026-04-25T10:49:53.794Z</time></trkpt><trkpt lat="41.7640757" lon="13.9075382"><ele>1066.7142857142858</ele><time>2026-04-25T10:50:00.789Z</time></trkpt><trkpt lat="41.7640109" lon="13.9075175"><ele>1067.2857142857142</ele><time>2026-04-25T10:50:06.794Z</time></trkpt><trkpt lat="41.7639425" lon="13.9075051"><ele>1067.857142857143</ele><time>2026-04-25T10:50:13.707Z</time></trkpt><trkpt lat="41.7638774" lon="13.907477"><ele>1068.4285714285716</ele><time>2026-04-25T10:50:20.794Z</time></trkpt><trkpt lat="41.7638111" lon="13.907477"><ele>1069.0</ele><time>2026-04-25T10:50:29.811Z</time></trkpt><trkpt lat="41.7637382" lon="13.9074556"><ele>1069.0</ele><time>2026-04-25T10:50:42.794Z</time></trkpt><trkpt lat="41.7637953" lon="13.9075008"><ele>1069.0</ele><time>2026-04-25T10:50:52.794Z</time></trkpt><trkpt lat="41.7638608" lon="13.9075161"><ele>1069.0</ele><time>2026-04-25T10:50:57.795Z</time></trkpt><trkpt lat="41.763926" lon="13.907531"><ele>1069.0</ele><time>2026-04-25T10:51:08.735Z</time></trkpt><trkpt lat="41.7639519" lon="13.907611"><ele>1069.0</ele><time>2026-04-25T10:51:22.794Z</time></trkpt><trkpt lat="41.7639232" lon="13.9076971"><ele>1069.0</ele><time>2026-04-25T10:51:30.794Z</time></trkpt><trkpt lat="41.7638596" lon="13.9077261"><ele>1069.0</ele><time>2026-04-25T10:53:29.795Z</time></trkpt><trkpt lat="41.763883" lon="13.9076392"><ele>1069.0</ele><time>2026-04-25T10:53:59.794Z</time></trkpt><trkpt lat="41.7638743" lon="13.9075531"><ele>1069.0</ele><time>2026-04-25T10:54:05.794Z</time></trkpt><trkpt lat="41.7638272" lon="13.9074856"><ele>1069.0</ele><time>2026-04-25T10:54:13.794Z</time></trkpt><trkpt lat="41.7637881" lon="13.9074131"><ele>1069.0</ele><time>2026-04-25T10:54:27.794Z</time></trkpt><trkpt lat="41.7637285" lon="13.907366"><ele>1069.0</ele><time>2026-04-25T10:54:34.794Z</time></trkpt><trkpt lat="41.7636478" lon="13.90735"><ele>1069.0</ele><time>2026-04-25T10:54:41.811Z</time></trkpt><trkpt lat="41.7635838" lon="13.9073447"><ele>1069.0</ele><time>2026-04-25T10:54:49.794Z</time></trkpt><trkpt lat="41.7635179" lon="13.907376"><ele>1069.857142857143</ele><time>2026-04-25T10:54:58.816Z</time></trkpt><trkpt lat="41.7635003" lon="13.907469"><ele>1070.7142857142858</ele><time>2026-04-25T10:55:04.794Z</time></trkpt><trkpt lat="41.7634571" lon="13.9075434"><ele>1071.5714285714287</ele><time>2026-04-25T10:55:10.784Z</time></trkpt><trkpt lat="41.7633938" lon="13.9075936"><ele>1072.4285714285716</ele><time>2026-04-25T10:55:17.794Z</time></trkpt><trkpt lat="41.7633419" lon="13.9076634"><ele>1073.2857142857142</ele><time>2026-04-25T10:55:24.794Z</time></trkpt><trkpt lat="41.7633321" lon="13.9077472"><ele>1074.1428571428573</ele><time>2026-04-25T10:55:34.794Z</time></trkpt><trkpt lat="41.7633923" lon="13.9077946"><ele>1075.0</ele><time>2026-04-25T10:55:55.793Z</time></trkpt><trkpt lat="41.7633437" lon="13.9077244"><ele>1075.0000000000002</ele><time>2026-04-25T10:58:17.795Z</time></trkpt><trkpt lat="41.7633661" lon="13.9076405"><ele>1075.0</ele><time>2026-04-25T10:58:25.794Z</time></trkpt><trkpt lat="41.7632947" lon="13.907629"><ele>1075.0</ele><time>2026-04-25T10:58:32.831Z</time></trkpt><trkpt lat="41.7632425" lon="13.9075776"><ele>1075.0</ele><time>2026-04-25T10:58:40.794Z</time></trkpt><trkpt lat="41.7632282" lon="13.9074853"><ele>1075.0</ele><time>2026-04-25T10:58:46.819Z</time></trkpt><trkpt lat="41.7631534" lon="13.9074771"><ele>1075.0000000000002</ele><time>2026-04-25T10:59:19.825Z</time></trkpt><trkpt lat="41.7630867" lon="13.9074818"><ele>1075.0</ele><time>2026-04-25T10:59:25.725Z</time></trkpt><trkpt lat="41.7630192" lon="13.9074662"><ele>1075.0000000000002</ele><time>2026-04-25T10:59:31.798Z</time></trkpt><trkpt lat="41.7629532" lon="13.9074998"><ele>1075.0</ele><time>2026-04-25T10:59:37.835Z</time></trkpt><trkpt lat="41.7628873" lon="13.9075178"><ele>1075.0</ele><time>2026-04-25T10:59:44.734Z</time></trkpt><trkpt lat="41.762827" lon="13.9075424"><ele>1075.0</ele><time>2026-04-25T10:59:50.816Z</time></trkpt><trkpt lat="41.7629026" lon="13.9075504"><ele>1075.0</ele><time>2026-04-25T11:00:49.795Z</time></trkpt><trkpt lat="41.7629659" lon="13.9075379"><ele>1075.0000000000002</ele><time>2026-04-25T11:00:54.847Z</time></trkpt><trkpt lat="41.7630238" lon="13.9075024"><ele>1075.0</ele><time>2026-04-25T11:00:59.847Z</time></trkpt><trkpt lat="41.7630724" lon="13.9074467"><ele>1075.0000000000002</ele><time>2026-04-25T11:01:04.794Z</time></trkpt><trkpt lat="41.7631445" lon="13.9074496"><ele>1075.0</ele><time>2026-04-25T11:01:10.809Z</time></trkpt><trkpt lat="41.7632109" lon="13.9074788"><ele>1075.0</ele><time>2026-04-25T11:01:16.773Z</time></trkpt><trkpt lat="41.763283" lon="13.9074787"><ele>1075.0</ele><time>2026-04-25T11:01:22.849Z</time></trkpt><trkpt lat="41.763356" lon="13.9074533"><ele>1075.0</ele><time>2026-04-25T11:01:28.821Z</time></trkpt><trkpt lat="41.763425" lon="13.907459"><ele>1075.0000000000002</ele><time>2026-04-25T11:01:34.794Z</time></trkpt><trkpt lat="41.7634962" lon="13.9074403"><ele>1075.0</ele><time>2026-04-25T11:01:40.794Z</time></trkpt><trkpt lat="41.7635637" lon="13.9074111"><ele>1074.1428571428573</ele><time>2026-04-25T11:01:46.794Z</time></trkpt><trkpt lat="41.7636291" lon="13.9073725"><ele>1073.2857142857142</ele><time>2026-04-25T11:01:52.813Z</time></trkpt><trkpt lat="41.76369" lon="13.907405"><ele>1072.4285714285716</ele><time>2026-04-25T11:01:57.798Z</time></trkpt><trkpt lat="41.763759" lon="13.907421"><ele>1071.5714285714287</ele><time>2026-04-25T11:02:06.794Z</time></trkpt><trkpt lat="41.7638126" lon="13.9074773"><ele>1070.7142857142858</ele><time>2026-04-25T11:02:12.794Z</time></trkpt><trkpt lat="41.7637573" lon="13.9074144"><ele>1069.857142857143</ele><time>2026-04-25T11:02:39.794Z</time></trkpt><trkpt lat="41.7636929" lon="13.9074361"><ele>1069.0</ele><time>2026-04-25T11:02:47.805Z</time></trkpt><trkpt lat="41.7636248" lon="13.9074163"><ele>1069.0</ele><time>2026-04-25T11:02:52.794Z</time></trkpt><trkpt lat="41.7635612" lon="13.9074309"><ele>1069.0</ele><time>2026-04-25T11:02:58.768Z</time></trkpt><trkpt lat="41.7634958" lon="13.9074625"><ele>1069.0</ele><time>2026-04-25T11:03:11.794Z</time></trkpt><trkpt lat="41.763456" lon="13.9075415"><ele>1069.0</ele><time>2026-04-25T11:03:17.794Z</time></trkpt><trkpt lat="41.7633828" lon="13.9075478"><ele>1069.0</ele><time>2026-04-25T11:03:26.794Z</time></trkpt><trkpt lat="41.7633124" lon="13.9075534"><ele>1069.0</ele><time>2026-04-25T11:03:32.794Z</time></trkpt><trkpt lat="41.7632421" lon="13.9075682"><ele>1069.0</ele><time>2026-04-25T11:03:38.818Z</time></trkpt><trkpt lat="41.7631478" lon="13.9075562"><ele>1069.857142857143</ele><time>2026-04-25T11:03:57.834Z</time></trkpt><trkpt lat="41.7630767" lon="13.907573"><ele>1070.7142857142858</ele><time>2026-04-25T11:04:01.794Z</time></trkpt><trkpt lat="41.7630119" lon="13.9075594"><ele>1071.5714285714287</ele><time>2026-04-25T11:04:05.849Z</time></trkpt><trkpt lat="41.7629395" lon="13.9075443"><ele>1072.4285714285716</ele><time>2026-04-25T11:04:10.831Z</time></trkpt><trkpt lat="41.7628765" lon="13.907556"><ele>1073.2857142857142</ele><time>2026-04-25T11:04:15.83Z</time></trkpt><trkpt lat="41.7628065" lon="13.9075889"><ele>1074.1428571428573</ele><time>2026-04-25T11:04:21.766Z</time></trkpt><trkpt lat="41.7627431" lon="13.9076112"><ele>1075.0</ele><time>2026-04-25T11:04:26.787Z</time></trkpt><trkpt lat="41.7626775" lon="13.9076136"><ele>1076.1428571428573</ele><time>2026-04-25T11:04:32.754Z</time></trkpt><trkpt lat="41.7626385" lon="13.9076821"><ele>1077.2857142857142</ele><time>2026-04-25T11:04:37.734Z</time></trkpt><trkpt lat="41.7625874" lon="13.9077428"><ele>1078.4285714285716</ele><time>2026-04-25T11:04:43.651Z</time></trkpt><trkpt lat="41.762523" lon="13.9077707"><ele>1079.5714285714287</ele><time>2026-04-25T11:04:48.673Z</time></trkpt><trkpt lat="41.7624498" lon="13.9077788"><ele>1080.7142857142858</ele><time>2026-04-25T11:04:53.711Z</time></trkpt><trkpt lat="41.7623855" lon="13.9077964"><ele>1081.857142857143</ele><time>2026-04-25T11:04:58.812Z</time></trkpt><trkpt lat="41.7623455" lon="13.9078731"><ele>1083.0</ele><time>2026-04-25T11:05:05.786Z</time></trkpt><trkpt lat="41.7622701" lon="13.9078938"><ele>1083.0</ele><time>2026-04-25T11:05:10.794Z</time></trkpt><trkpt lat="41.7622049" lon="13.9079121"><ele>1083.0</ele><time>2026-04-25T11:05:15.812Z</time></trkpt><trkpt lat="41.7621389" lon="13.9079234"><ele>1083.0</ele><time>2026-04-25T11:05:20.794Z</time></trkpt><trkpt lat="41.7620669" lon="13.907914"><ele>1083.0</ele><time>2026-04-25T11:05:26.793Z</time></trkpt><trkpt lat="41.7620013" lon="13.9079224"><ele>1083.0</ele><time>2026-04-25T11:05:31.809Z</time></trkpt><trkpt lat="41.7619416" lon="13.9079492"><ele>1083.0</ele><time>2026-04-25T11:05:36.794Z</time></trkpt><trkpt lat="41.7618749" lon="13.907978"><ele>1083.0</ele><time>2026-04-25T11:05:42.794Z</time></trkpt><trkpt lat="41.7618118" lon="13.9079851"><ele>1084.2857142857142</ele><time>2026-04-25T11:05:47.833Z</time></trkpt><trkpt lat="41.7617374" lon="13.9079892"><ele>1085.5714285714287</ele><time>2026-04-25T11:05:53.795Z</time></trkpt><trkpt lat="41.7616741" lon="13.9079924"><ele>1086.857142857143</ele><time>2026-04-25T11:05:58.795Z</time></trkpt><trkpt lat="41.7616067" lon="13.9080045"><ele>1088.142857142857</ele><time>2026-04-25T11:06:04.812Z</time></trkpt><trkpt lat="41.7615414" lon="13.908001"><ele>1089.4285714285716</ele><time>2026-04-25T11:06:09.794Z</time></trkpt><trkpt lat="41.7615938" lon="13.9080733"><ele>1090.7142857142858</ele><time>2026-04-25T11:06:20.775Z</time></trkpt><trkpt lat="41.7615245" lon="13.908024"><ele>1092.0</ele><time>2026-04-25T11:10:10.794Z</time></trkpt><trkpt lat="41.7614563" lon="13.9079878"><ele>1092.0</ele><time>2026-04-25T11:10:16.794Z</time></trkpt><trkpt lat="41.7613996" lon="13.9079297"><ele>1092.0</ele><time>2026-04-25T11:10:21.794Z</time></trkpt><trkpt lat="41.7613346" lon="13.9078943"><ele>1092.0</ele><time>2026-04-25T11:10:26.823Z</time></trkpt><trkpt lat="41.761273" lon="13.9078511"><ele>1092.0</ele><time>2026-04-25T11:10:31.794Z</time></trkpt><trkpt lat="41.7612193" lon="13.9078064"><ele>1092.0</ele><time>2026-04-25T11:10:36.795Z</time></trkpt><trkpt lat="41.7611577" lon="13.9077827"><ele>1092.0</ele><time>2026-04-25T11:10:41.814Z</time></trkpt><trkpt lat="41.761083" lon="13.9077666"><ele>1092.0</ele><time>2026-04-25T11:10:47.794Z</time></trkpt><trkpt lat="41.7610192" lon="13.9077523"><ele>1092.2857142857142</ele><time>2026-04-25T11:10:52.748Z</time></trkpt><trkpt lat="41.7609427" lon="13.9077568"><ele>1092.5714285714284</ele><time>2026-04-25T11:10:58.818Z</time></trkpt><trkpt lat="41.7608725" lon="13.9077484"><ele>1092.857142857143</ele><time>2026-04-25T11:11:04.794Z</time></trkpt><trkpt lat="41.7608065" lon="13.9077442"><ele>1093.142857142857</ele><time>2026-04-25T11:11:10.794Z</time></trkpt><trkpt lat="41.7607507" lon="13.9078018"><ele>1093.4285714285713</ele><time>2026-04-25T11:11:17.794Z</time></trkpt><trkpt lat="41.7606809" lon="13.9078175"><ele>1093.7142857142858</ele><time>2026-04-25T11:12:32.794Z</time></trkpt><trkpt lat="41.7606358" lon="13.9077541"><ele>1094.0</ele><time>2026-04-25T11:12:37.81Z</time></trkpt><trkpt lat="41.7605679" lon="13.9077865"><ele>1094.0</ele><time>2026-04-25T11:12:42.795Z</time></trkpt><trkpt lat="41.7605256" lon="13.9078634"><ele>1094.0</ele><time>2026-04-25T11:13:06.795Z</time></trkpt><trkpt lat="41.7604805" lon="13.9079309"><ele>1094.0</ele><time>2026-04-25T11:13:14.794Z</time></trkpt><trkpt lat="41.7605244" lon="13.9080016"><ele>1094.0</ele><time>2026-04-25T11:13:26.745Z</time></trkpt><trkpt lat="41.7605255" lon="13.9080873"><ele>1094.0</ele><time>2026-04-25T11:13:56.794Z</time></trkpt><trkpt lat="41.7605876" lon="13.9081235"><ele>1094.0</ele><time>2026-04-25T11:14:20.794Z</time></trkpt><trkpt lat="41.7605555" lon="13.908034"><ele>1094.0</ele><time>2026-04-25T11:18:58.794Z</time></trkpt><trkpt lat="41.7606069" lon="13.9080931"><ele>1094.0</ele><time>2026-04-25T11:20:15.794Z</time></trkpt><trkpt lat="41.7605433" lon="13.9081238"><ele>1094.0</ele><time>2026-04-25T11:22:26.794Z</time></trkpt><trkpt lat="41.760482" lon="13.9080826"><ele>1094.0</ele><time>2026-04-25T11:22:33.794Z</time></trkpt><trkpt lat="41.7604535" lon="13.9080026"><ele>1094.0</ele><time>2026-04-25T11:22:36.794Z</time></trkpt><trkpt lat="41.760403" lon="13.9079337"><ele>1094.0</ele><time>2026-04-25T11:22:42.794Z</time></trkpt><trkpt lat="41.7603387" lon="13.9079199"><ele>1094.0</ele><time>2026-04-25T11:22:47.794Z</time></trkpt><trkpt lat="41.7602763" lon="13.9079669"><ele>1094.0</ele><time>2026-04-25T11:22:53.794Z</time></trkpt><trkpt lat="41.7602043" lon="13.9079884"><ele>1094.7142857142858</ele><time>2026-04-25T11:22:58.794Z</time></trkpt><trkpt lat="41.7601422" lon="13.9080135"><ele>1095.4285714285713</ele><time>2026-04-25T11:23:03.794Z</time></trkpt><trkpt lat="41.7600721" lon="13.9079923"><ele>1096.142857142857</ele><time>2026-04-25T11:23:09.724Z</time></trkpt><trkpt lat="41.7600621" lon="13.9080775"><ele>1096.857142857143</ele><time>2026-04-25T11:23:14.766Z</time></trkpt><trkpt lat="41.7600269" lon="13.9081534"><ele>1097.5714285714284</ele><time>2026-04-25T11:23:18.794Z</time></trkpt><trkpt lat="41.759974" lon="13.9082136"><ele>1098.2857142857142</ele><time>2026-04-25T11:23:23.816Z</time></trkpt><trkpt lat="41.7599295" lon="13.9082995"><ele>1099.0</ele><time>2026-04-25T11:23:45.794Z</time></trkpt><trkpt lat="41.7598665" lon="13.9083553"><ele>1099.0</ele><time>2026-04-25T11:23:50.794Z</time></trkpt><trkpt lat="41.7598096" lon="13.9083984"><ele>1099.0</ele><time>2026-04-25T11:23:55.812Z</time></trkpt><trkpt lat="41.7597545" lon="13.9084445"><ele>1099.0</ele><time>2026-04-25T11:24:00.794Z</time></trkpt><trkpt lat="41.7597034" lon="13.9084942"><ele>1099.0</ele><time>2026-04-25T11:24:05.795Z</time></trkpt><trkpt lat="41.7596576" lon="13.9085552"><ele>1099.0</ele><time>2026-04-25T11:24:10.749Z</time></trkpt><trkpt lat="41.759586" lon="13.9085785"><ele>1099.0</ele><time>2026-04-25T11:24:16.794Z</time></trkpt><trkpt lat="41.7595086" lon="13.908601"><ele>1099.0</ele><time>2026-04-25T11:24:22.731Z</time></trkpt><trkpt lat="41.7594398" lon="13.908635"><ele>1100.4285714285713</ele><time>2026-04-25T11:24:28.814Z</time></trkpt><trkpt lat="41.7593803" lon="13.9086936"><ele>1101.857142857143</ele><time>2026-04-25T11:24:33.795Z</time></trkpt><trkpt lat="41.759336" lon="13.9087607"><ele>1103.2857142857142</ele><time>2026-04-25T11:24:38.794Z</time></trkpt><trkpt lat="41.7592903" lon="13.9088255"><ele>1104.7142857142858</ele><time>2026-04-25T11:24:43.804Z</time></trkpt><trkpt lat="41.7592439" lon="13.9088852"><ele>1106.142857142857</ele><time>2026-04-25T11:24:48.749Z</time></trkpt><trkpt lat="41.7591819" lon="13.908933"><ele>1107.5714285714284</ele><time>2026-04-25T11:24:54.795Z</time></trkpt><trkpt lat="41.759125" lon="13.9089712"><ele>1109.0</ele><time>2026-04-25T11:25:00.809Z</time></trkpt><trkpt lat="41.7590737" lon="13.9090213"><ele>1108.9999999999998</ele><time>2026-04-25T11:25:06.769Z</time></trkpt><trkpt lat="41.7590215" lon="13.9090896"><ele>1109.0</ele><time>2026-04-25T11:25:13.794Z</time></trkpt><trkpt lat="41.7589696" lon="13.9091449"><ele>1109.0</ele><time>2026-04-25T11:25:19.794Z</time></trkpt><trkpt lat="41.7589193" lon="13.9092026"><ele>1109.0</ele><time>2026-04-25T11:25:26.711Z</time></trkpt><trkpt lat="41.7588631" lon="13.9092567"><ele>1109.0</ele><time>2026-04-25T11:25:32.802Z</time></trkpt><trkpt lat="41.7588037" lon="13.9093096"><ele>1108.9999999999998</ele><time>2026-04-25T11:25:38.753Z</time></trkpt><trkpt lat="41.7587389" lon="13.909342"><ele>1109.0</ele><time>2026-04-25T11:25:44.81Z</time></trkpt><trkpt lat="41.7586864" lon="13.9094005"><ele>1111.142857142857</ele><time>2026-04-25T11:25:50.812Z</time></trkpt><trkpt lat="41.7586228" lon="13.9094305"><ele>1113.2857142857142</ele><time>2026-04-25T11:25:56.794Z</time></trkpt><trkpt lat="41.75857" lon="13.9094874"><ele>1115.4285714285716</ele><time>2026-04-25T11:26:04.796Z</time></trkpt><trkpt lat="41.7585484" lon="13.909576"><ele>1117.5714285714284</ele><time>2026-04-25T11:26:27.794Z</time></trkpt><trkpt lat="41.7585742" lon="13.9096593"><ele>1119.7142857142858</ele><time>2026-04-25T11:26:32.794Z</time></trkpt><trkpt lat="41.7586065" lon="13.9097436"><ele>1121.857142857143</ele><time>2026-04-25T11:26:40.815Z</time></trkpt><trkpt lat="41.7585459" lon="13.909695"><ele>1124.0</ele><time>2026-04-25T11:27:35.794Z</time></trkpt><trkpt lat="41.7584764" lon="13.9096922"><ele>1126.4285714285716</ele><time>2026-04-25T11:27:41.794Z</time></trkpt><trkpt lat="41.7584451" lon="13.909609"><ele>1128.857142857143</ele><time>2026-04-25T11:27:47.794Z</time></trkpt><trkpt lat="41.75838" lon="13.9096154"><ele>1131.2857142857142</ele><time>2026-04-25T11:27:53.769Z</time></trkpt><trkpt lat="41.7583322" lon="13.9095392"><ele>1133.7142857142858</ele><time>2026-04-25T11:28:00.794Z</time></trkpt><trkpt lat="41.7582749" lon="13.9094773"><ele>1136.142857142857</ele><time>2026-04-25T11:28:09.808Z</time></trkpt><trkpt lat="41.7582339" lon="13.9093978"><ele>1138.5714285714287</ele><time>2026-04-25T11:28:16.791Z</time></trkpt><trkpt lat="41.7581731" lon="13.9093682"><ele>1141.0</ele><time>2026-04-25T11:28:25.795Z</time></trkpt><trkpt lat="41.7581296" lon="13.9092873"><ele>1139.0</ele><time>2026-04-25T11:28:38.794Z</time></trkpt><trkpt lat="41.7580819" lon="13.9092282"><ele>1137.0</ele><time>2026-04-25T11:28:44.808Z</time></trkpt><trkpt lat="41.7580137" lon="13.9091966"><ele>1135.0</ele><time>2026-04-25T11:28:52.794Z</time></trkpt><trkpt lat="41.7579498" lon="13.9092356"><ele>1133.0</ele><time>2026-04-25T11:29:00.806Z</time></trkpt><trkpt lat="41.7578916" lon="13.9091764"><ele>1131.0</ele><time>2026-04-25T11:29:05.794Z</time></trkpt><trkpt lat="41.7578332" lon="13.9091241"><ele>1129.0</ele><time>2026-04-25T11:29:12.794Z</time></trkpt><trkpt lat="41.7577847" lon="13.9090579"><ele>1127.0</ele><time>2026-04-25T11:29:21.728Z</time></trkpt><trkpt lat="41.7577359" lon="13.9089871"><ele>1129.7142857142858</ele><time>2026-04-25T11:29:29.811Z</time></trkpt><trkpt lat="41.75767" lon="13.9090032"><ele>1132.4285714285716</ele><time>2026-04-25T11:29:40.795Z</time></trkpt><trkpt lat="41.7576004" lon="13.9090275"><ele>1135.142857142857</ele><time>2026-04-25T11:29:48.798Z</time></trkpt><trkpt lat="41.7575316" lon="13.9090294"><ele>1137.857142857143</ele><time>2026-04-25T11:30:46.795Z</time></trkpt><trkpt lat="41.757475" lon="13.9090804"><ele>1140.5714285714287</ele><time>2026-04-25T11:30:53.755Z</time></trkpt><trkpt lat="41.7574091" lon="13.9091157"><ele>1143.2857142857142</ele><time>2026-04-25T11:31:11.784Z</time></trkpt><trkpt lat="41.7573395" lon="13.9091322"><ele>1146.0</ele><time>2026-04-25T11:31:17.71Z</time></trkpt><trkpt lat="41.7572868" lon="13.9090776"><ele>1146.0</ele><time>2026-04-25T11:31:24.735Z</time></trkpt><trkpt lat="41.757221" lon="13.9090661"><ele>1146.0</ele><time>2026-04-25T11:31:33.794Z</time></trkpt><trkpt lat="41.7571528" lon="13.9090587"><ele>1146.0</ele><time>2026-04-25T11:31:42.794Z</time></trkpt><trkpt lat="41.7570908" lon="13.9090316"><ele>1146.0</ele><time>2026-04-25T11:31:52.718Z</time></trkpt><trkpt lat="41.7570271" lon="13.9090109"><ele>1146.0</ele><time>2026-04-25T11:32:04.795Z</time></trkpt><trkpt lat="41.7569995" lon="13.9089329"><ele>1146.0</ele><time>2026-04-25T11:32:13.818Z</time></trkpt><trkpt lat="41.7569358" lon="13.9089554"><ele>1146.0</ele><time>2026-04-25T11:32:27.808Z</time></trkpt><trkpt lat="41.7568702" lon="13.9089772"><ele>1147.857142857143</ele><time>2026-04-25T11:32:34.794Z</time></trkpt><trkpt lat="41.7568049" lon="13.9089395"><ele>1149.7142857142858</ele><time>2026-04-25T11:32:43.799Z</time></trkpt><trkpt lat="41.7567474" lon="13.9089871"><ele>1151.5714285714287</ele><time>2026-04-25T11:34:22.794Z</time></trkpt><trkpt lat="41.7566813" lon="13.9090124"><ele>1153.4285714285716</ele><time>2026-04-25T11:34:29.794Z</time></trkpt><trkpt lat="41.7566172" lon="13.909036"><ele>1155.2857142857142</ele><time>2026-04-25T11:34:44.794Z</time></trkpt><trkpt lat="41.7565515" lon="13.9090638"><ele>1157.1428571428573</ele><time>2026-04-25T11:34:52.779Z</time></trkpt><trkpt lat="41.7564681" lon="13.908975"><ele>1159.0</ele><time>2026-04-25T11:35:22.794Z</time></trkpt><trkpt lat="41.7565256" lon="13.9089351"><ele>1159.0000000000002</ele><time>2026-04-25T11:40:52.794Z</time></trkpt><trkpt lat="41.7565184" lon="13.9088479"><ele>1159.0</ele><time>2026-04-25T11:41:00.794Z</time></trkpt><trkpt lat="41.7564637" lon="13.9088014"><ele>1159.0</ele><time>2026-04-25T11:41:12.794Z</time></trkpt><trkpt lat="41.7564042" lon="13.9087657"><ele>1159.0</ele><time>2026-04-25T11:41:49.783Z</time></trkpt><trkpt lat="41.7563347" lon="13.9087517"><ele>1159.0</ele><time>2026-04-25T11:41:57.783Z</time></trkpt><trkpt lat="41.7562635" lon="13.9087709"><ele>1159.0000000000002</ele><time>2026-04-25T11:42:11.783Z</time></trkpt><trkpt lat="41.7562018" lon="13.9087446"><ele>1159.0</ele><time>2026-04-25T11:42:18.783Z</time></trkpt><trkpt lat="41.7561331" lon="13.9087253"><ele>1159.0000000000002</ele><time>2026-04-25T11:42:25.783Z</time></trkpt><trkpt lat="41.7560619" lon="13.9087149"><ele>1159.0</ele><time>2026-04-25T11:42:31.783Z</time></trkpt><trkpt lat="41.7559991" lon="13.9087453"><ele>1159.0</ele><time>2026-04-25T11:42:36.783Z</time></trkpt><trkpt lat="41.7559335" lon="13.9087881"><ele>1159.0</ele><time>2026-04-25T11:42:43.785Z</time></trkpt><trkpt lat="41.7558726" lon="13.908746"><ele>1159.0</ele><time>2026-04-25T11:42:48.815Z</time></trkpt><trkpt lat="41.7558491" lon="13.9086655"><ele>1159.0000000000002</ele><time>2026-04-25T11:42:57.783Z</time></trkpt><trkpt lat="41.7558209" lon="13.9085622"><ele>1159.0</ele><time>2026-04-25T11:43:45.911Z</time></trkpt><trkpt lat="41.7559154" lon="13.9085586"><ele>1159.0000000000002</ele><time>2026-04-25T11:48:20.784Z</time></trkpt><trkpt lat="41.7559521" lon="13.9086442"><ele>1159.0</ele><time>2026-04-25T11:48:27.783Z</time></trkpt><trkpt lat="41.7559901" lon="13.9087118"><ele>1159.0</ele><time>2026-04-25T11:48:33.783Z</time></trkpt><trkpt lat="41.7560575" lon="13.9086968"><ele>1159.0</ele><time>2026-04-25T11:48:40.84Z</time></trkpt><trkpt lat="41.7561215" lon="13.9087189"><ele>1159.0</ele><time>2026-04-25T11:48:46.785Z</time></trkpt><trkpt lat="41.7561681" lon="13.9087879"><ele>1159.0000000000002</ele><time>2026-04-25T11:48:52.831Z</time></trkpt><trkpt lat="41.7562428" lon="13.9088049"><ele>1159.0</ele><time>2026-04-25T11:48:57.766Z</time></trkpt><trkpt lat="41.7562876" lon="13.9087438"><ele>1159.0000000000002</ele><time>2026-04-25T11:49:02.783Z</time></trkpt><trkpt lat="41.7563506" lon="13.9087518"><ele>1159.0</ele><time>2026-04-25T11:50:55.783Z</time></trkpt><trkpt lat="41.7564194" lon="13.9087831"><ele>1159.0</ele><time>2026-04-25T11:51:04.793Z</time></trkpt><trkpt lat="41.7564791" lon="13.9088144"><ele>1159.0</ele><time>2026-04-25T11:51:11.783Z</time></trkpt><trkpt lat="41.7565356" lon="13.9088644"><ele>1159.0</ele><time>2026-04-25T11:51:18.783Z</time></trkpt><trkpt lat="41.7565554" lon="13.9089515"><ele>1159.0000000000002</ele><time>2026-04-25T11:51:29.783Z</time></trkpt><trkpt lat="41.7565025" lon="13.9090049"><ele>1159.0</ele><time>2026-04-25T11:51:38.706Z</time></trkpt><trkpt lat="41.7565384" lon="13.9090807"><ele>1159.0000000000002</ele><time>2026-04-25T11:51:46.784Z</time></trkpt><trkpt lat="41.7565917" lon="13.9091296"><ele>1159.0</ele><time>2026-04-25T11:51:51.764Z</time></trkpt><trkpt lat="41.7566593" lon="13.9091036"><ele>1159.0</ele><time>2026-04-25T11:51:56.744Z</time></trkpt><trkpt lat="41.756723" lon="13.9090582"><ele>1159.0</ele><time>2026-04-25T11:52:01.772Z</time></trkpt><trkpt lat="41.756772" lon="13.9090023"><ele>1159.0</ele><time>2026-04-25T11:52:07.783Z</time></trkpt><trkpt lat="41.7568191" lon="13.908941"><ele>1159.0000000000002</ele><time>2026-04-25T11:52:16.766Z</time></trkpt><trkpt lat="41.7568551" lon="13.9090275"><ele>1159.0</ele><time>2026-04-25T11:52:58.786Z</time></trkpt><trkpt lat="41.7569126" lon="13.9090868"><ele>1157.1428571428573</ele><time>2026-04-25T11:53:05.783Z</time></trkpt><trkpt lat="41.7569811" lon="13.9091008"><ele>1155.2857142857142</ele><time>2026-04-25T11:53:12.783Z</time></trkpt><trkpt lat="41.757044" lon="13.9090567"><ele>1153.4285714285716</ele><time>2026-04-25T11:53:19.708Z</time></trkpt><trkpt lat="41.7571052" lon="13.9091112"><ele>1151.5714285714287</ele><time>2026-04-25T11:53:28.784Z</time></trkpt><trkpt lat="41.7571605" lon="13.9091651"><ele>1149.7142857142858</ele><time>2026-04-25T11:53:36.771Z</time></trkpt><trkpt lat="41.757208" lon="13.9090921"><ele>1147.857142857143</ele><time>2026-04-25T11:53:43.783Z</time></trkpt><trkpt lat="41.7572703" lon="13.9091133"><ele>1146.0</ele><time>2026-04-25T11:53:51.806Z</time></trkpt><trkpt lat="41.7573332" lon="13.9090752"><ele>1146.0</ele><time>2026-04-25T11:53:58.748Z</time></trkpt><trkpt lat="41.7574019" lon="13.9090692"><ele>1146.0</ele><time>2026-04-25T11:54:05.792Z</time></trkpt><trkpt lat="41.7574565" lon="13.9091189"><ele>1146.0</ele><time>2026-04-25T11:54:12.783Z</time></trkpt><trkpt lat="41.7575198" lon="13.9091133"><ele>1146.0</ele><time>2026-04-25T11:54:20.784Z</time></trkpt><trkpt lat="41.7575598" lon="13.9090425"><ele>1146.0</ele><time>2026-04-25T11:54:29.783Z</time></trkpt><trkpt lat="41.7576151" lon="13.9089928"><ele>1146.0</ele><time>2026-04-25T11:54:37.79Z</time></trkpt><trkpt lat="41.7576795" lon="13.9089908"><ele>1146.0</ele><time>2026-04-25T11:54:45.783Z</time></trkpt><trkpt lat="41.7577327" lon="13.9089379"><ele>1146.0</ele><time>2026-04-25T11:54:52.783Z</time></trkpt><trkpt lat="41.7576688" lon="13.9089346"><ele>1146.0</ele><time>2026-04-25T11:55:36.783Z</time></trkpt><trkpt lat="41.7577171" lon="13.909001"><ele>1146.0</ele><time>2026-04-25T11:56:21.783Z</time></trkpt><trkpt lat="41.7577773" lon="13.9090436"><ele>1146.0</ele><time>2026-04-25T11:56:37.783Z</time></trkpt><trkpt lat="41.7578308" lon="13.9091059"><ele>1146.0</ele><time>2026-04-25T11:56:47.798Z</time></trkpt><trkpt lat="41.7578944" lon="13.909151"><ele>1146.0</ele><time>2026-04-25T11:56:53.783Z</time></trkpt><trkpt lat="41.7579572" lon="13.9091917"><ele>1146.0</ele><time>2026-04-25T11:57:00.783Z</time></trkpt><trkpt lat="41.7580189" lon="13.9092163"><ele>1145.2857142857142</ele><time>2026-04-25T11:57:07.784Z</time></trkpt><trkpt lat="41.7580864" lon="13.9092047"><ele>1144.5714285714287</ele><time>2026-04-25T11:57:14.783Z</time></trkpt><trkpt lat="41.7581388" lon="13.9092529"><ele>1143.857142857143</ele><time>2026-04-25T11:57:20.801Z</time></trkpt><trkpt lat="41.7581946" lon="13.9093116"><ele>1143.142857142857</ele><time>2026-04-25T11:57:27.783Z</time></trkpt><trkpt lat="41.7582467" lon="13.9093624"><ele>1142.4285714285716</ele><time>2026-04-25T11:57:33.783Z</time></trkpt><trkpt lat="41.7583138" lon="13.9093926"><ele>1141.7142857142858</ele><time>2026-04-25T11:57:41.732Z</time></trkpt><trkpt lat="41.7583793" lon="13.9094253"><ele>1141.0</ele><time>2026-04-25T11:57:49.784Z</time></trkpt><trkpt lat="41.7584051" lon="13.9095071"><ele>1141.0</ele><time>2026-04-25T11:57:57.783Z</time></trkpt><trkpt lat="41.7584425" lon="13.9095798"><ele>1141.0</ele><time>2026-04-25T11:58:05.783Z</time></trkpt><trkpt lat="41.7584909" lon="13.9096454"><ele>1141.0</ele><time>2026-04-25T11:58:15.833Z</time></trkpt><trkpt lat="41.758555" lon="13.9096756"><ele>1141.0</ele><time>2026-04-25T11:58:25.793Z</time></trkpt><trkpt lat="41.7586089" lon="13.9097338"><ele>1141.0</ele><time>2026-04-25T11:58:38.783Z</time></trkpt><trkpt lat="41.7586794" lon="13.9097409"><ele>1141.0</ele><time>2026-04-25T11:58:50.783Z</time></trkpt><trkpt lat="41.7586427" lon="13.9096592"><ele>1141.0</ele><time>2026-04-25T11:58:55.783Z</time></trkpt><trkpt lat="41.7585863" lon="13.9096088"><ele>1138.1666666666665</ele><time>2026-04-25T11:58:59.798Z</time></trkpt><trkpt lat="41.7585517" lon="13.9095327"><ele>1135.3333333333333</ele><time>2026-04-25T11:59:04.828Z</time></trkpt><trkpt lat="41.758581" lon="13.909451"><ele>1132.5</ele><time>2026-04-25T11:59:13.783Z</time></trkpt><trkpt lat="41.7586012" lon="13.9093693"><ele>1129.6666666666667</ele><time>2026-04-25T11:59:20.825Z</time></trkpt><trkpt lat="41.7585956" lon="13.9092833"><ele>1126.8333333333335</ele><time>2026-04-25T11:59:27.783Z</time></trkpt><trkpt lat="41.7586433" lon="13.9092213"><ele>1124.0</ele><time>2026-04-25T11:59:34.809Z</time></trkpt><trkpt lat="41.7588689" lon="13.9087283"><ele>1121.0</ele><time>2026-04-25T12:28:22.704Z</time></trkpt><trkpt lat="41.7588043" lon="13.9088826"><ele>1118.0</ele><time>2026-04-25T12:28:24.78Z</time></trkpt><trkpt lat="41.7586982" lon="13.9089603"><ele>1115.0</ele><time>2026-04-25T12:28:25.781Z</time></trkpt><trkpt lat="41.7586376" lon="13.9090078"><ele>1112.0</ele><time>2026-04-25T12:28:26.78Z</time></trkpt><trkpt lat="41.7585762" lon="13.9090272"><ele>1109.0</ele><time>2026-04-25T12:28:29.78Z</time></trkpt><trkpt lat="41.7585774" lon="13.9091243"><ele>1108.9999999999998</ele><time>2026-04-25T12:28:51.78Z</time></trkpt><trkpt lat="41.758614" lon="13.9091959"><ele>1109.0</ele><time>2026-04-25T12:29:37.78Z</time></trkpt><trkpt lat="41.7587132" lon="13.909129"><ele>1109.0</ele><time>2026-04-25T12:30:00.813Z</time></trkpt><trkpt lat="41.7586538" lon="13.9090874"><ele>1109.0</ele><time>2026-04-25T12:30:47.786Z</time></trkpt><trkpt lat="41.7585903" lon="13.9090754"><ele>1109.0</ele><time>2026-04-25T12:30:54.831Z</time></trkpt><trkpt lat="41.7585232" lon="13.9090539"><ele>1108.9999999999998</ele><time>2026-04-25T12:31:12.78Z</time></trkpt><trkpt lat="41.7584558" lon="13.909054"><ele>1109.0</ele><time>2026-04-25T12:31:20.785Z</time></trkpt><trkpt lat="41.7584073" lon="13.9091302"><ele>1111.5714285714284</ele><time>2026-04-25T12:31:32.754Z</time></trkpt><trkpt lat="41.7583613" lon="13.909188"><ele>1114.142857142857</ele><time>2026-04-25T12:31:48.78Z</time></trkpt><trkpt lat="41.7583569" lon="13.9090975"><ele>1116.7142857142858</ele><time>2026-04-25T12:32:46.805Z</time></trkpt><trkpt lat="41.7584204" lon="13.909064"><ele>1119.2857142857142</ele><time>2026-04-25T12:33:00.79Z</time></trkpt><trkpt lat="41.7584429" lon="13.9089813"><ele>1121.857142857143</ele><time>2026-04-25T12:33:09.78Z</time></trkpt><trkpt lat="41.7585014" lon="13.908922"><ele>1124.4285714285713</ele><time>2026-04-25T12:33:36.804Z</time></trkpt><trkpt lat="41.7584479" lon="13.908855"><ele>1127.0</ele><time>2026-04-25T12:33:43.745Z</time></trkpt><trkpt lat="41.7584111" lon="13.9089247"><ele>1127.0</ele><time>2026-04-25T12:33:49.781Z</time></trkpt><trkpt lat="41.7583481" lon="13.9087756"><ele>1127.0</ele><time>2026-04-25T12:34:08.794Z</time></trkpt><trkpt lat="41.7582834" lon="13.9088037"><ele>1127.0</ele><time>2026-04-25T12:34:13.78Z</time></trkpt><trkpt lat="41.7582431" lon="13.9088893"><ele>1127.0</ele><time>2026-04-25T12:34:18.78Z</time></trkpt><trkpt lat="41.7582048" lon="13.9088134"><ele>1127.0</ele><time>2026-04-25T12:34:32.78Z</time></trkpt><trkpt lat="41.7582356" lon="13.9087297"><ele>1127.0</ele><time>2026-04-25T12:34:36.78Z</time></trkpt><trkpt lat="41.7582166" lon="13.9086435"><ele>1127.0</ele><time>2026-04-25T12:34:48.729Z</time></trkpt><trkpt lat="41.7582463" lon="13.9085587"><ele>1127.0</ele><time>2026-04-25T12:35:02.82Z</time></trkpt><trkpt lat="41.7581962" lon="13.9085069"><ele>1127.0</ele><time>2026-04-25T12:35:12.78Z</time></trkpt><trkpt lat="41.7581682" lon="13.9084284"><ele>1127.0</ele><time>2026-04-25T12:35:23.781Z</time></trkpt><trkpt lat="41.7581237" lon="13.9083555"><ele>1127.0</ele><time>2026-04-25T12:35:35.807Z</time></trkpt><trkpt lat="41.7580569" lon="13.9083381"><ele>1127.0</ele><time>2026-04-25T12:35:50.796Z</time></trkpt><trkpt lat="41.7580291" lon="13.908432"><ele>1127.0</ele><time>2026-04-25T12:35:54.825Z</time></trkpt><trkpt lat="41.7579717" lon="13.9083745"><ele>1128.857142857143</ele><time>2026-04-25T12:36:19.78Z</time></trkpt><trkpt lat="41.7578868" lon="13.9083403"><ele>1130.7142857142858</ele><time>2026-04-25T12:36:38.78Z</time></trkpt><trkpt lat="41.7578222" lon="13.908334"><ele>1132.5714285714284</ele><time>2026-04-25T12:36:43.808Z</time></trkpt><trkpt lat="41.7577557" lon="13.9083514"><ele>1134.4285714285716</ele><time>2026-04-25T12:36:51.78Z</time></trkpt><trkpt lat="41.757693" lon="13.9083395"><ele>1136.2857142857142</ele><time>2026-04-25T12:37:01.814Z</time></trkpt><trkpt lat="41.7576275" lon="13.9083353"><ele>1138.142857142857</ele><time>2026-04-25T12:37:10.78Z</time></trkpt><trkpt lat="41.7575615" lon="13.9083341"><ele>1140.0</ele><time>2026-04-25T12:37:19.821Z</time></trkpt><trkpt lat="41.7575083" lon="13.9083827"><ele>1140.857142857143</ele><time>2026-04-25T12:37:26.781Z</time></trkpt><trkpt lat="41.7574426" lon="13.9084132"><ele>1141.7142857142858</ele><time>2026-04-25T12:37:34.808Z</time></trkpt><trkpt lat="41.7573778" lon="13.9083748"><ele>1142.5714285714287</ele><time>2026-04-25T12:37:44.78Z</time></trkpt><trkpt lat="41.7573181" lon="13.9083439"><ele>1143.4285714285716</ele><time>2026-04-25T12:37:51.808Z</time></trkpt><trkpt lat="41.7572571" lon="13.9083138"><ele>1144.2857142857144</ele><time>2026-04-25T12:37:58.683Z</time></trkpt><trkpt lat="41.7572044" lon="13.9082606"><ele>1145.142857142857</ele><time>2026-04-25T12:38:08.808Z</time></trkpt><trkpt lat="41.7571403" lon="13.908263"><ele>1146.0</ele><time>2026-04-25T12:38:17.76Z</time></trkpt><trkpt lat="41.7570855" lon="13.908305"><ele>1147.142857142857</ele><time>2026-04-25T12:38:26.813Z</time></trkpt><trkpt lat="41.757018" lon="13.9082885"><ele>1148.2857142857144</ele><time>2026-04-25T12:38:36.781Z</time></trkpt><trkpt lat="41.7569538" lon="13.9082832"><ele>1149.4285714285716</ele><time>2026-04-25T12:38:45.825Z</time></trkpt><trkpt lat="41.75689" lon="13.9082863"><ele>1150.5714285714287</ele><time>2026-04-25T12:38:52.845Z</time></trkpt><trkpt lat="41.7568309" lon="13.9082494"><ele>1151.7142857142858</ele><time>2026-04-25T12:39:02.781Z</time></trkpt><trkpt lat="41.756772" lon="13.908199"><ele>1152.857142857143</ele><time>2026-04-25T12:39:09.78Z</time></trkpt><trkpt lat="41.7567219" lon="13.9081449"><ele>1154.0</ele><time>2026-04-25T12:39:16.807Z</time></trkpt><trkpt lat="41.7566952" lon="13.9080637"><ele>1155.857142857143</ele><time>2026-04-25T12:39:23.78Z</time></trkpt><trkpt lat="41.7566618" lon="13.9079893"><ele>1157.7142857142858</ele><time>2026-04-25T12:39:30.79Z</time></trkpt><trkpt lat="41.7566101" lon="13.9079393"><ele>1159.5714285714287</ele><time>2026-04-25T12:39:36.78Z</time></trkpt><trkpt lat="41.7565878" lon="13.9078474"><ele>1161.4285714285716</ele><time>2026-04-25T12:39:56.706Z</time></trkpt><trkpt lat="41.7565851" lon="13.9077619"><ele>1163.2857142857144</ele><time>2026-04-25T12:40:44.824Z</time></trkpt><trkpt lat="41.7565221" lon="13.907754"><ele>1165.142857142857</ele><time>2026-04-25T12:41:24.78Z</time></trkpt><trkpt lat="41.7564176" lon="13.9077382"><ele>1167.0</ele><time>2026-04-25T12:42:20.78Z</time></trkpt><trkpt lat="41.7563851" lon="13.9078305"><ele>1167.0</ele><time>2026-04-25T12:44:08.78Z</time></trkpt><trkpt lat="41.7563568" lon="13.9079122"><ele>1167.0</ele><time>2026-04-25T12:44:15.789Z</time></trkpt><trkpt lat="41.7564255" lon="13.9078645"><ele>1167.0</ele><time>2026-04-25T12:46:17.747Z</time></trkpt><trkpt lat="41.7564852" lon="13.907816"><ele>1167.0</ele><time>2026-04-25T12:46:25.78Z</time></trkpt><trkpt lat="41.7565495" lon="13.9077881"><ele>1167.0</ele><time>2026-04-25T12:46:32.78Z</time></trkpt><trkpt lat="41.7564796" lon="13.90773"><ele>1167.0</ele><time>2026-04-25T12:47:20.78Z</time></trkpt><trkpt lat="41.7565418" lon="13.9077"><ele>1167.0</ele><time>2026-04-25T12:50:20.704Z</time></trkpt><trkpt lat="41.7565743" lon="13.9077821"><ele>1167.0</ele><time>2026-04-25T12:50:25.825Z</time></trkpt><trkpt lat="41.7565382" lon="13.9078542"><ele>1167.0</ele><time>2026-04-25T12:50:48.78Z</time></trkpt><trkpt lat="41.7564769" lon="13.9078875"><ele>1167.0</ele><time>2026-04-25T12:52:19.803Z</time></trkpt><trkpt lat="41.7565383" lon="13.9079343"><ele>1167.0</ele><time>2026-04-25T12:52:29.78Z</time></trkpt><trkpt lat="41.7566011" lon="13.9079552"><ele>1167.0</ele><time>2026-04-25T12:52:33.786Z</time></trkpt><trkpt lat="41.7566742" lon="13.9079637"><ele>1167.0</ele><time>2026-04-25T12:52:38.71Z</time></trkpt><trkpt lat="41.7567411" lon="13.9079888"><ele>1167.0</ele><time>2026-04-25T12:52:48.78Z</time></trkpt><trkpt lat="41.7567845" lon="13.9080552"><ele>1167.0</ele><time>2026-04-25T12:52:53.781Z</time></trkpt><trkpt lat="41.7568089" lon="13.9081344"><ele>1167.0</ele><time>2026-04-25T12:53:01.78Z</time></trkpt><trkpt lat="41.7568672" lon="13.9081741"><ele>1167.0</ele><time>2026-04-25T12:53:08.793Z</time></trkpt><trkpt lat="41.7569348" lon="13.9081543"><ele>1167.0</ele><time>2026-04-25T12:53:18.752Z</time></trkpt><trkpt lat="41.7570018" lon="13.9081273"><ele>1167.0</ele><time>2026-04-25T12:54:40.78Z</time></trkpt><trkpt lat="41.7570684" lon="13.908134"><ele>1167.0</ele><time>2026-04-25T12:54:46.816Z</time></trkpt><trkpt lat="41.7571323" lon="13.9081125"><ele>1167.0</ele><time>2026-04-25T12:54:54.718Z</time></trkpt><trkpt lat="41.7571803" lon="13.908183"><ele>1165.142857142857</ele><time>2026-04-25T12:55:01.718Z</time></trkpt><trkpt lat="41.7572312" lon="13.9082419"><ele>1163.2857142857144</ele><time>2026-04-25T12:55:07.788Z</time></trkpt><trkpt lat="41.7572943" lon="13.9082249"><ele>1161.4285714285716</ele><time>2026-04-25T12:55:15.78Z</time></trkpt><trkpt lat="41.7573591" lon="13.9081994"><ele>1159.5714285714287</ele><time>2026-04-25T12:55:25.8Z</time></trkpt><trkpt lat="41.7574261" lon="13.9081779"><ele>1157.7142857142858</ele><time>2026-04-25T12:55:35.818Z</time></trkpt><trkpt lat="41.7574603" lon="13.9080938"><ele>1155.857142857143</ele><time>2026-04-25T12:55:41.826Z</time></trkpt><trkpt lat="41.7575243" lon="13.9081213"><ele>1154.0</ele><time>2026-04-25T12:55:49.718Z</time></trkpt><trkpt lat="41.7575879" lon="13.9081519"><ele>1154.0</ele><time>2026-04-25T12:56:08.781Z</time></trkpt><trkpt lat="41.7576565" lon="13.9081769"><ele>1154.0</ele><time>2026-04-25T12:56:13.78Z</time></trkpt><trkpt lat="41.7577233" lon="13.9081794"><ele>1154.0</ele><time>2026-04-25T12:56:19.808Z</time></trkpt><trkpt lat="41.7577828" lon="13.9081328"><ele>1154.0</ele><time>2026-04-25T12:56:26.78Z</time></trkpt><trkpt lat="41.7578427" lon="13.9081785"><ele>1154.0</ele><time>2026-04-25T12:56:32.784Z</time></trkpt><trkpt lat="41.7579114" lon="13.9081775"><ele>1154.0</ele><time>2026-04-25T12:56:41.751Z</time></trkpt><trkpt lat="41.7579836" lon="13.9081755"><ele>1154.0</ele><time>2026-04-25T12:56:48.78Z</time></trkpt><trkpt lat="41.7580412" lon="13.9082102"><ele>1152.0</ele><time>2026-04-25T12:56:54.78Z</time></trkpt><trkpt lat="41.7581051" lon="13.9082079"><ele>1150.0</ele><time>2026-04-25T12:57:00.78Z</time></trkpt><trkpt lat="41.7581629" lon="13.90817"><ele>1148.0</ele><time>2026-04-25T12:57:06.782Z</time></trkpt><trkpt lat="41.7582259" lon="13.9081867"><ele>1146.0</ele><time>2026-04-25T12:57:12.832Z</time></trkpt><trkpt lat="41.7582922" lon="13.9082239"><ele>1144.0</ele><time>2026-04-25T12:57:18.78Z</time></trkpt><trkpt lat="41.7583553" lon="13.9082626"><ele>1142.0</ele><time>2026-04-25T12:57:24.787Z</time></trkpt><trkpt lat="41.7584252" lon="13.9082761"><ele>1140.0</ele><time>2026-04-25T12:57:31.822Z</time></trkpt><trkpt lat="41.7584957" lon="13.9083049"><ele>1137.2857142857142</ele><time>2026-04-25T12:57:39.78Z</time></trkpt><trkpt lat="41.7585531" lon="13.9083513"><ele>1134.5714285714287</ele><time>2026-04-25T12:57:44.803Z</time></trkpt><trkpt lat="41.7585744" lon="13.9084316"><ele>1131.857142857143</ele><time>2026-04-25T12:57:50.78Z</time></trkpt><trkpt lat="41.7586058" lon="13.9085147"><ele>1129.142857142857</ele><time>2026-04-25T12:57:55.78Z</time></trkpt><trkpt lat="41.7586376" lon="13.9086"><ele>1126.4285714285713</ele><time>2026-04-25T12:58:00.796Z</time></trkpt><trkpt lat="41.758595" lon="13.9086703"><ele>1123.7142857142858</ele><time>2026-04-25T12:58:09.78Z</time></trkpt><trkpt lat="41.7586039" lon="13.908767"><ele>1121.0</ele><time>2026-04-25T12:58:27.781Z</time></trkpt><trkpt lat="41.7586082" lon="13.9088547"><ele>1119.2857142857142</ele><time>2026-04-25T12:58:32.819Z</time></trkpt><trkpt lat="41.7586749" lon="13.9088737"><ele>1117.5714285714284</ele><time>2026-04-25T12:58:43.78Z</time></trkpt><trkpt lat="41.7587377" lon="13.9088391"><ele>1115.8571428571427</ele><time>2026-04-25T12:58:49.781Z</time></trkpt><trkpt lat="41.7587126" lon="13.9089376"><ele>1114.142857142857</ele><time>2026-04-25T12:59:17.781Z</time></trkpt><trkpt lat="41.7586813" lon="13.9090116"><ele>1112.4285714285713</ele><time>2026-04-25T12:59:22.78Z</time></trkpt><trkpt lat="41.7586354" lon="13.9090854"><ele>1110.7142857142856</ele><time>2026-04-25T12:59:28.809Z</time></trkpt><trkpt lat="41.7587004" lon="13.909114"><ele>1109.0</ele><time>2026-04-25T12:59:34.798Z</time></trkpt><trkpt lat="41.7587634" lon="13.9090919"><ele>1108.9999999999998</ele><time>2026-04-25T12:59:44.801Z</time></trkpt><trkpt lat="41.7588162" lon="13.9091416"><ele>1109.0</ele><time>2026-04-25T12:59:54.78Z</time></trkpt><trkpt lat="41.758825" lon="13.9092332"><ele>1109.0</ele><time>2026-04-25T13:00:01.801Z</time></trkpt><trkpt lat="41.7587559" lon="13.9091927"><ele>1109.0</ele><time>2026-04-25T13:00:33.786Z</time></trkpt><trkpt lat="41.7586904" lon="13.909212"><ele>1109.0</ele><time>2026-04-25T13:00:38.78Z</time></trkpt><trkpt lat="41.7586192" lon="13.9091914"><ele>1108.9999999999998</ele><time>2026-04-25T13:00:44.78Z</time></trkpt><trkpt lat="41.7586863" lon="13.9091729"><ele>1109.0</ele><time>2026-04-25T13:11:48.78Z</time></trkpt><trkpt lat="41.7587564" lon="13.9091688"><ele>1108.9999999999998</ele><time>2026-04-25T13:11:54.78Z</time></trkpt><trkpt lat="41.7588184" lon="13.9091335"><ele>1109.0</ele><time>2026-04-25T13:12:00.78Z</time></trkpt><trkpt lat="41.7588852" lon="13.9091101"><ele>1109.0</ele><time>2026-04-25T13:12:10.78Z</time></trkpt><trkpt lat="41.7589399" lon="13.9090657"><ele>1109.0</ele><time>2026-04-25T13:12:17.78Z</time></trkpt><trkpt lat="41.7590004" lon="13.9090273"><ele>1109.0</ele><time>2026-04-25T13:12:23.781Z</time></trkpt><trkpt lat="41.7590582" lon="13.9089917"><ele>1108.9999999999998</ele><time>2026-04-25T13:12:29.78Z</time></trkpt><trkpt lat="41.7591166" lon="13.9089487"><ele>1109.0</ele><time>2026-04-25T13:12:36.78Z</time></trkpt><trkpt lat="41.7591739" lon="13.9089122"><ele>1108.9999999999998</ele><time>2026-04-25T13:12:43.78Z</time></trkpt><trkpt lat="41.7592415" lon="13.9088882"><ele>1109.0</ele><time>2026-04-25T13:12:51.781Z</time></trkpt><trkpt lat="41.7593018" lon="13.9088613"><ele>1109.0</ele><time>2026-04-25T13:12:58.78Z</time></trkpt><trkpt lat="41.7593611" lon="13.9088137"><ele>1109.0</ele><time>2026-04-25T13:13:04.78Z</time></trkpt><trkpt lat="41.7594024" lon="13.9087402"><ele>1109.0</ele><time>2026-04-25T13:13:23.773Z</time></trkpt><trkpt lat="41.7594688" lon="13.9086999"><ele>1108.9999999999998</ele><time>2026-04-25T13:18:10.78Z</time></trkpt><trkpt lat="41.7595335" lon="13.9086636"><ele>1109.0</ele><time>2026-04-25T13:18:16.78Z</time></trkpt><trkpt lat="41.7595952" lon="13.908617"><ele>1108.9999999999998</ele><time>2026-04-25T13:18:23.827Z</time></trkpt><trkpt lat="41.7596477" lon="13.9085696"><ele>1109.0</ele><time>2026-04-25T13:18:29.819Z</time></trkpt><trkpt lat="41.75971" lon="13.908517"><ele>1109.0</ele><time>2026-04-25T13:18:36.78Z</time></trkpt><trkpt lat="41.7597688" lon="13.9084628"><ele>1109.0</ele><time>2026-04-25T13:18:43.794Z</time></trkpt><trkpt lat="41.7598295" lon="13.9084077"><ele>1109.0</ele><time>2026-04-25T13:18:50.78Z</time></trkpt><trkpt lat="41.7598857" lon="13.9083643"><ele>1108.9999999999998</ele><time>2026-04-25T13:18:56.73Z</time></trkpt><trkpt lat="41.759941" lon="13.9083097"><ele>1109.0</ele><time>2026-04-25T13:19:02.811Z</time></trkpt><trkpt lat="41.759995" lon="13.9082589"><ele>1107.5714285714284</ele><time>2026-04-25T13:19:09.718Z</time></trkpt><trkpt lat="41.7600638" lon="13.9082365"><ele>1106.142857142857</ele><time>2026-04-25T13:19:17.798Z</time></trkpt><trkpt lat="41.7601168" lon="13.9081755"><ele>1104.7142857142858</ele><time>2026-04-25T13:19:23.78Z</time></trkpt><trkpt lat="41.7601719" lon="13.9081307"><ele>1103.2857142857142</ele><time>2026-04-25T13:19:30.78Z</time></trkpt><trkpt lat="41.7601959" lon="13.9080488"><ele>1101.857142857143</ele><time>2026-04-25T13:19:36.795Z</time></trkpt><trkpt lat="41.7602577" lon="13.9080683"><ele>1100.4285714285713</ele><time>2026-04-25T13:19:42.78Z</time></trkpt><trkpt lat="41.7603233" lon="13.9080256"><ele>1099.0</ele><time>2026-04-25T13:19:49.784Z</time></trkpt><trkpt lat="41.7603755" lon="13.9079733"><ele>1098.2857142857142</ele><time>2026-04-25T13:19:55.714Z</time></trkpt><trkpt lat="41.7604269" lon="13.9079145"><ele>1097.5714285714284</ele><time>2026-04-25T13:20:01.78Z</time></trkpt><trkpt lat="41.7604781" lon="13.9078619"><ele>1096.857142857143</ele><time>2026-04-25T13:20:09.796Z</time></trkpt><trkpt lat="41.7605455" lon="13.9078428"><ele>1096.142857142857</ele><time>2026-04-25T13:20:15.71Z</time></trkpt><trkpt lat="41.7606103" lon="13.9078353"><ele>1095.4285714285713</ele><time>2026-04-25T13:20:21.78Z</time></trkpt><trkpt lat="41.7606755" lon="13.907805"><ele>1094.7142857142858</ele><time>2026-04-25T13:20:28.78Z</time></trkpt><trkpt lat="41.7607441" lon="13.9077818"><ele>1094.0</ele><time>2026-04-25T13:20:35.823Z</time></trkpt><trkpt lat="41.7608084" lon="13.9078111"><ele>1094.0</ele><time>2026-04-25T13:20:42.722Z</time></trkpt><trkpt lat="41.7608744" lon="13.9077847"><ele>1094.0</ele><time>2026-04-25T13:20:49.78Z</time></trkpt><trkpt lat="41.7609454" lon="13.9077769"><ele>1094.0</ele><time>2026-04-25T13:20:56.78Z</time></trkpt><trkpt lat="41.7610119" lon="13.9077857"><ele>1094.0</ele><time>2026-04-25T13:21:03.73Z</time></trkpt><trkpt lat="41.7610789" lon="13.9078135"><ele>1094.0</ele><time>2026-04-25T13:21:10.78Z</time></trkpt><trkpt lat="41.7611395" lon="13.9077892"><ele>1094.0</ele><time>2026-04-25T13:21:21.78Z</time></trkpt><trkpt lat="41.7612003" lon="13.9078134"><ele>1094.0</ele><time>2026-04-25T13:21:44.781Z</time></trkpt><trkpt lat="41.7612532" lon="13.9078674"><ele>1093.7142857142858</ele><time>2026-04-25T13:21:50.78Z</time></trkpt><trkpt lat="41.7613205" lon="13.9078967"><ele>1093.4285714285713</ele><time>2026-04-25T13:21:58.78Z</time></trkpt><trkpt lat="41.7613727" lon="13.90795"><ele>1093.142857142857</ele><time>2026-04-25T13:22:03.78Z</time></trkpt><trkpt lat="41.7614377" lon="13.9079969"><ele>1092.857142857143</ele><time>2026-04-25T13:22:10.771Z</time></trkpt><trkpt lat="41.7615055" lon="13.9080316"><ele>1092.5714285714284</ele><time>2026-04-25T13:22:17.691Z</time></trkpt><trkpt lat="41.7615609" lon="13.9080817"><ele>1092.2857142857142</ele><time>2026-04-25T13:22:22.79Z</time></trkpt><trkpt lat="41.7616305" lon="13.9081144"><ele>1092.0</ele><time>2026-04-25T13:22:28.811Z</time></trkpt><trkpt lat="41.7616974" lon="13.9081165"><ele>1092.0</ele><time>2026-04-25T13:22:34.79Z</time></trkpt><trkpt lat="41.7617624" lon="13.9080991"><ele>1092.0</ele><time>2026-04-25T13:22:40.78Z</time></trkpt><trkpt lat="41.7618238" lon="13.9080686"><ele>1092.0</ele><time>2026-04-25T13:22:46.815Z</time></trkpt><trkpt lat="41.7618884" lon="13.9080403"><ele>1092.0</ele><time>2026-04-25T13:22:52.838Z</time></trkpt><trkpt lat="41.7619518" lon="13.9080275"><ele>1092.0</ele><time>2026-04-25T13:22:58.785Z</time></trkpt><trkpt lat="41.7620173" lon="13.9080157"><ele>1092.0</ele><time>2026-04-25T13:23:04.78Z</time></trkpt><trkpt lat="41.7620828" lon="13.9080164"><ele>1092.0</ele><time>2026-04-25T13:23:11.78Z</time></trkpt><trkpt lat="41.7621492" lon="13.9079933"><ele>1090.7142857142858</ele><time>2026-04-25T13:23:18.801Z</time></trkpt><trkpt lat="41.762206" lon="13.9079434"><ele>1089.4285714285716</ele><time>2026-04-25T13:23:25.696Z</time></trkpt><trkpt lat="41.76227" lon="13.9079051"><ele>1088.142857142857</ele><time>2026-04-25T13:23:31.781Z</time></trkpt><trkpt lat="41.7623217" lon="13.9078458"><ele>1086.857142857143</ele><time>2026-04-25T13:23:37.74Z</time></trkpt><trkpt lat="41.7623953" lon="13.9078539"><ele>1085.5714285714287</ele><time>2026-04-25T13:24:05.78Z</time></trkpt><trkpt lat="41.7624573" lon="13.9078158"><ele>1084.2857142857142</ele><time>2026-04-25T13:24:10.81Z</time></trkpt><trkpt lat="41.7625196" lon="13.907775"><ele>1083.0</ele><time>2026-04-25T13:24:16.78Z</time></trkpt><trkpt lat="41.7625773" lon="13.9077381"><ele>1083.0</ele><time>2026-04-25T13:24:21.78Z</time></trkpt><trkpt lat="41.7626317" lon="13.9076863"><ele>1083.0</ele><time>2026-04-25T13:24:27.738Z</time></trkpt><trkpt lat="41.7626927" lon="13.9076601"><ele>1083.0</ele><time>2026-04-25T13:24:34.78Z</time></trkpt><trkpt lat="41.7627554" lon="13.9076372"><ele>1083.0</ele><time>2026-04-25T13:24:40.78Z</time></trkpt><trkpt lat="41.76282" lon="13.9076158"><ele>1083.0</ele><time>2026-04-25T13:24:45.78Z</time></trkpt><trkpt lat="41.7628845" lon="13.9075923"><ele>1083.0</ele><time>2026-04-25T13:24:51.78Z</time></trkpt><trkpt lat="41.7629476" lon="13.9075864"><ele>1083.0</ele><time>2026-04-25T13:24:57.78Z</time></trkpt><trkpt lat="41.7630119" lon="13.9075767"><ele>1082.2857142857142</ele><time>2026-04-25T13:25:03.813Z</time></trkpt><trkpt lat="41.7630786" lon="13.9075613"><ele>1081.5714285714287</ele><time>2026-04-25T13:25:10.78Z</time></trkpt><trkpt lat="41.7631394" lon="13.9075892"><ele>1080.857142857143</ele><time>2026-04-25T13:25:16.789Z</time></trkpt><trkpt lat="41.7631206" lon="13.9076719"><ele>1080.142857142857</ele><time>2026-04-25T13:25:23.78Z</time></trkpt><trkpt lat="41.7630934" lon="13.9077596"><ele>1079.4285714285716</ele><time>2026-04-25T13:25:32.717Z</time></trkpt><trkpt lat="41.7630983" lon="13.907853"><ele>1078.7142857142858</ele><time>2026-04-25T13:25:40.78Z</time></trkpt><trkpt lat="41.7630442" lon="13.907917"><ele>1078.0</ele><time>2026-04-25T13:26:17.78Z</time></trkpt><trkpt lat="41.7629938" lon="13.9079704"><ele>1078.0</ele><time>2026-04-25T13:26:23.78Z</time></trkpt><trkpt lat="41.7629381" lon="13.9080183"><ele>1078.0</ele><time>2026-04-25T13:26:31.78Z</time></trkpt><trkpt lat="41.7628516" lon="13.907983"><ele>1078.0</ele><time>2026-04-25T13:27:23.78Z</time></trkpt><trkpt lat="41.7627866" lon="13.9079679"><ele>1078.0</ele><time>2026-04-25T13:27:28.716Z</time></trkpt><trkpt lat="41.7627252" lon="13.9079281"><ele>1078.0</ele><time>2026-04-25T13:27:36.808Z</time></trkpt><trkpt lat="41.7626591" lon="13.9079093"><ele>1078.0</ele><time>2026-04-25T13:27:43.78Z</time></trkpt><trkpt lat="41.7625986" lon="13.9079523"><ele>1078.0</ele><time>2026-04-25T13:27:55.78Z</time></trkpt><trkpt lat="41.7625293" lon="13.9079615"><ele>1078.7142857142858</ele><time>2026-04-25T13:28:02.755Z</time></trkpt><trkpt lat="41.7624686" lon="13.908004"><ele>1079.4285714285716</ele><time>2026-04-25T13:28:09.82Z</time></trkpt><trkpt lat="41.76242" lon="13.9080676"><ele>1080.142857142857</ele><time>2026-04-25T13:28:21.78Z</time></trkpt><trkpt lat="41.7624266" lon="13.9081614"><ele>1080.857142857143</ele><time>2026-04-25T13:28:28.812Z</time></trkpt><trkpt lat="41.7624754" lon="13.9082171"><ele>1081.5714285714287</ele><time>2026-04-25T13:28:36.78Z</time></trkpt><trkpt lat="41.7624377" lon="13.9082989"><ele>1082.2857142857142</ele><time>2026-04-25T13:28:42.795Z</time></trkpt><trkpt lat="41.7624547" lon="13.9083855"><ele>1083.0</ele><time>2026-04-25T13:28:50.836Z</time></trkpt><trkpt lat="41.7624827" lon="13.9084645"><ele>1085.2857142857142</ele><time>2026-04-25T13:29:59.78Z</time></trkpt><trkpt lat="41.7625154" lon="13.9085419"><ele>1087.5714285714287</ele><time>2026-04-25T13:30:05.78Z</time></trkpt><trkpt lat="41.7624931" lon="13.9086248"><ele>1089.857142857143</ele><time>2026-04-25T13:30:12.819Z</time></trkpt><trkpt lat="41.7625181" lon="13.9087069"><ele>1092.142857142857</ele><time>2026-04-25T13:30:19.78Z</time></trkpt><trkpt lat="41.7625072" lon="13.9087904"><ele>1094.4285714285716</ele><time>2026-04-25T13:30:38.799Z</time></trkpt><trkpt lat="41.7624416" lon="13.9087656"><ele>1096.7142857142858</ele><time>2026-04-25T13:30:45.811Z</time></trkpt><trkpt lat="41.7623771" lon="13.9087571"><ele>1099.0</ele><time>2026-04-25T13:30:53.78Z</time></trkpt><trkpt lat="41.7623088" lon="13.908744"><ele>1099.0</ele><time>2026-04-25T13:31:01.805Z</time></trkpt><trkpt lat="41.7622582" lon="13.9088066"><ele>1099.0</ele><time>2026-04-25T13:32:13.78Z</time></trkpt><trkpt lat="41.762195" lon="13.9087907"><ele>1099.0</ele><time>2026-04-25T13:32:20.858Z</time></trkpt><trkpt lat="41.7621316" lon="13.9088073"><ele>1099.0</ele><time>2026-04-25T13:32:29.78Z</time></trkpt><trkpt lat="41.7620743" lon="13.9087646"><ele>1099.0</ele><time>2026-04-25T13:32:41.638Z</time></trkpt><trkpt lat="41.7620258" lon="13.9086954"><ele>1099.0</ele><time>2026-04-25T13:32:48.835Z</time></trkpt><trkpt lat="41.7619672" lon="13.9086519"><ele>1099.0</ele><time>2026-04-25T13:32:57.788Z</time></trkpt><trkpt lat="41.7619807" lon="13.9087398"><ele>1099.0</ele><time>2026-04-25T13:33:17.781Z</time></trkpt><trkpt lat="41.7619301" lon="13.9086658"><ele>1099.0</ele><time>2026-04-25T13:33:32.781Z</time></trkpt><trkpt lat="41.7618631" lon="13.9086332"><ele>1099.0</ele><time>2026-04-25T13:33:43.781Z</time></trkpt><trkpt lat="41.7617943" lon="13.9086189"><ele>1099.0</ele><time>2026-04-25T13:33:51.836Z</time></trkpt><trkpt lat="41.7617435" lon="13.9085604"><ele>1099.0</ele><time>2026-04-25T13:33:59.78Z</time></trkpt><trkpt lat="41.7616768" lon="13.9085234"><ele>1099.0</ele><time>2026-04-25T13:34:11.822Z</time></trkpt><trkpt lat="41.761634" lon="13.9084574"><ele>1099.0</ele><time>2026-04-25T13:34:17.78Z</time></trkpt><trkpt lat="41.7616165" lon="13.9083691"><ele>1098.0</ele><time>2026-04-25T13:34:26.81Z</time></trkpt><trkpt lat="41.7615664" lon="13.9083172"><ele>1097.0</ele><time>2026-04-25T13:34:34.78Z</time></trkpt><trkpt lat="41.7615018" lon="13.9083316"><ele>1096.0</ele><time>2026-04-25T13:34:40.792Z</time></trkpt><trkpt lat="41.7614386" lon="13.9083696"><ele>1095.0</ele><time>2026-04-25T13:34:47.78Z</time></trkpt><trkpt lat="41.7613736" lon="13.9084009"><ele>1094.0</ele><time>2026-04-25T13:34:54.701Z</time></trkpt><trkpt lat="41.7613168" lon="13.9084395"><ele>1093.0</ele><time>2026-04-25T13:35:01.815Z</time></trkpt><trkpt lat="41.7612533" lon="13.9084526"><ele>1092.0</ele><time>2026-04-25T13:35:09.781Z</time></trkpt><trkpt lat="41.7612072" lon="13.9085217"><ele>1095.0</ele><time>2026-04-25T13:35:16.802Z</time></trkpt><trkpt lat="41.7612777" lon="13.9085383"><ele>1098.0</ele><time>2026-04-25T13:35:33.802Z</time></trkpt><trkpt lat="41.7612881" lon="13.9086239"><ele>1101.0</ele><time>2026-04-25T13:35:38.78Z</time></trkpt><trkpt lat="41.7613504" lon="13.9086512"><ele>1104.0</ele><time>2026-04-25T13:35:44.712Z</time></trkpt><trkpt lat="41.7614154" lon="13.9086635"><ele>1107.0</ele><time>2026-04-25T13:35:51.807Z</time></trkpt><trkpt lat="41.7614548" lon="13.9087294"><ele>1110.0</ele><time>2026-04-25T13:36:00.781Z</time></trkpt><trkpt lat="41.7615088" lon="13.908778"><ele>1113.0</ele><time>2026-04-25T13:36:06.83Z</time></trkpt><trkpt lat="41.7615719" lon="13.9088228"><ele>1113.0</ele><time>2026-04-25T13:36:13.78Z</time></trkpt><trkpt lat="41.7615777" lon="13.9089131"><ele>1113.0</ele><time>2026-04-25T13:36:28.824Z</time></trkpt><trkpt lat="41.7614972" lon="13.9089395"><ele>1113.0</ele><time>2026-04-25T13:38:23.8Z</time></trkpt><trkpt lat="41.7614416" lon="13.9089949"><ele>1113.0</ele><time>2026-04-25T13:38:29.81Z</time></trkpt><trkpt lat="41.7613814" lon="13.9090428"><ele>1113.0</ele><time>2026-04-25T13:38:39.789Z</time></trkpt><trkpt lat="41.7613378" lon="13.9091038"><ele>1113.0</ele><time>2026-04-25T13:38:47.78Z</time></trkpt><trkpt lat="41.7613336" lon="13.909195"><ele>1113.0</ele><time>2026-04-25T13:38:59.44Z</time></trkpt><trkpt lat="41.7613806" lon="13.9092518"><ele>1113.0</ele><time>2026-04-25T13:39:04.78Z</time></trkpt><trkpt lat="41.7614468" lon="13.9092386"><ele>1113.0</ele><time>2026-04-25T13:39:12.787Z</time></trkpt><trkpt lat="41.7614937" lon="13.9092979"><ele>1113.0</ele><time>2026-04-25T13:39:21.78Z</time></trkpt><trkpt lat="41.7615471" lon="13.909357"><ele>1113.0</ele><time>2026-04-25T13:39:47.792Z</time></trkpt><trkpt lat="41.7615986" lon="13.9094131"><ele>1113.0</ele><time>2026-04-25T13:39:54.78Z</time></trkpt><trkpt lat="41.7616398" lon="13.9094874"><ele>1113.0</ele><time>2026-04-25T13:40:00.792Z</time></trkpt><trkpt lat="41.761684" lon="13.9095539"><ele>1113.0</ele><time>2026-04-25T13:40:10.772Z</time></trkpt><trkpt lat="41.7616422" lon="13.9096216"><ele>1115.7142857142858</ele><time>2026-04-25T13:40:19.78Z</time></trkpt><trkpt lat="41.761575" lon="13.9096077"><ele>1118.4285714285716</ele><time>2026-04-25T13:40:27.78Z</time></trkpt><trkpt lat="41.7615108" lon="13.9096126"><ele>1121.142857142857</ele><time>2026-04-25T13:41:21.78Z</time></trkpt><trkpt lat="41.761527" lon="13.9097097"><ele>1123.857142857143</ele><time>2026-04-25T13:41:35.78Z</time></trkpt><trkpt lat="41.7615341" lon="13.9097975"><ele>1126.5714285714287</ele><time>2026-04-25T13:41:42.71Z</time></trkpt><trkpt lat="41.761585" lon="13.9098644"><ele>1129.2857142857142</ele><time>2026-04-25T13:41:50.812Z</time></trkpt><trkpt lat="41.7615772" lon="13.9099506"><ele>1132.0</ele><time>2026-04-25T13:42:04.794Z</time></trkpt><trkpt lat="41.7615979" lon="13.9100525"><ele>1134.142857142857</ele><time>2026-04-25T13:42:33.78Z</time></trkpt><trkpt lat="41.7616135" lon="13.9101409"><ele>1136.2857142857144</ele><time>2026-04-25T13:42:39.799Z</time></trkpt><trkpt lat="41.7615991" lon="13.9102336"><ele>1138.4285714285716</ele><time>2026-04-25T13:42:47.831Z</time></trkpt><trkpt lat="41.7615682" lon="13.9103127"><ele>1140.5714285714287</ele><time>2026-04-25T13:43:21.78Z</time></trkpt><trkpt lat="41.7615421" lon="13.9103934"><ele>1142.7142857142858</ele><time>2026-04-25T13:43:28.785Z</time></trkpt><trkpt lat="41.7615555" lon="13.910476"><ele>1144.857142857143</ele><time>2026-04-25T13:43:36.818Z</time></trkpt><trkpt lat="41.7615878" lon="13.9105506"><ele>1147.0</ele><time>2026-04-25T13:43:42.78Z</time></trkpt><trkpt lat="41.7615721" lon="13.9106347"><ele>1147.0</ele><time>2026-04-25T13:43:49.854Z</time></trkpt><trkpt lat="41.7615463" lon="13.9107174"><ele>1147.0</ele><time>2026-04-25T13:43:56.78Z</time></trkpt><trkpt lat="41.7616071" lon="13.9107736"><ele>1147.0</ele><time>2026-04-25T13:44:07.815Z</time></trkpt><trkpt lat="41.7616693" lon="13.9108028"><ele>1147.0</ele><time>2026-04-25T13:44:12.78Z</time></trkpt><trkpt lat="41.7616761" lon="13.9108952"><ele>1147.0</ele><time>2026-04-25T13:44:19.784Z</time></trkpt><trkpt lat="41.7617109" lon="13.9109761"><ele>1147.0</ele><time>2026-04-25T13:44:27.78Z</time></trkpt><trkpt lat="41.761742" lon="13.9110567"><ele>1147.0</ele><time>2026-04-25T13:44:35.78Z</time></trkpt><trkpt lat="41.7617761" lon="13.9111293"><ele>1148.7142857142858</ele><time>2026-04-25T13:44:41.813Z</time></trkpt><trkpt lat="41.7618159" lon="13.9111952"><ele>1150.4285714285716</ele><time>2026-04-25T13:44:49.78Z</time></trkpt><trkpt lat="41.7618421" lon="13.9112823"><ele>1152.1428571428573</ele><time>2026-04-25T13:45:20.78Z</time></trkpt><trkpt lat="41.761809" lon="13.9113591"><ele>1153.857142857143</ele><time>2026-04-25T13:45:26.781Z</time></trkpt><trkpt lat="41.761785" lon="13.9114389"><ele>1155.5714285714287</ele><time>2026-04-25T13:45:33.817Z</time></trkpt><trkpt lat="41.7617306" lon="13.9114847"><ele>1157.2857142857144</ele><time>2026-04-25T13:45:48.805Z</time></trkpt><trkpt lat="41.7616729" lon="13.911532"><ele>1159.0</ele><time>2026-04-25T13:46:02.787Z</time></trkpt><trkpt lat="41.7616096" lon="13.9115527"><ele>1159.0000000000002</ele><time>2026-04-25T13:46:07.816Z</time></trkpt><trkpt lat="41.7615547" lon="13.911594"><ele>1159.0</ele><time>2026-04-25T13:46:13.68Z</time></trkpt><trkpt lat="41.7615244" lon="13.9116797"><ele>1159.0</ele><time>2026-04-25T13:46:22.804Z</time></trkpt><trkpt lat="41.7615459" lon="13.911766"><ele>1159.0</ele><time>2026-04-25T13:46:39.804Z</time></trkpt><trkpt lat="41.7615684" lon="13.9118521"><ele>1159.0</ele><time>2026-04-25T13:46:46.78Z</time></trkpt><trkpt lat="41.7616081" lon="13.911931"><ele>1159.0000000000002</ele><time>2026-04-25T13:46:53.786Z</time></trkpt><trkpt lat="41.7616565" lon="13.9120023"><ele>1159.0</ele><time>2026-04-25T13:47:00.78Z</time></trkpt><trkpt lat="41.7616893" lon="13.9120784"><ele>1160.5714285714287</ele><time>2026-04-25T13:47:11.791Z</time></trkpt><trkpt lat="41.7617561" lon="13.9120465"><ele>1162.142857142857</ele><time>2026-04-25T13:47:16.82Z</time></trkpt><trkpt lat="41.7617222" lon="13.9119613"><ele>1163.7142857142858</ele><time>2026-04-25T13:48:20.69Z</time></trkpt><trkpt lat="41.7617577" lon="13.9118859"><ele>1165.2857142857142</ele><time>2026-04-25T13:48:25.781Z</time></trkpt><trkpt lat="41.7618283" lon="13.9119047"><ele>1166.857142857143</ele><time>2026-04-25T13:48:34.78Z</time></trkpt><trkpt lat="41.761862" lon="13.9119778"><ele>1168.4285714285716</ele><time>2026-04-25T13:48:42.78Z</time></trkpt><trkpt lat="41.7619185" lon="13.9120225"><ele>1170.0</ele><time>2026-04-25T13:48:51.781Z</time></trkpt><trkpt lat="41.7620034" lon="13.9120345"><ele>1170.0</ele><time>2026-04-25T13:49:36.78Z</time></trkpt><trkpt lat="41.7620662" lon="13.9120133"><ele>1170.0</ele><time>2026-04-25T13:49:42.78Z</time></trkpt><trkpt lat="41.7621261" lon="13.9119856"><ele>1170.0</ele><time>2026-04-25T13:49:49.771Z</time></trkpt><trkpt lat="41.7621915" lon="13.9119875"><ele>1170.0</ele><time>2026-04-25T13:49:58.78Z</time></trkpt><trkpt lat="41.7622487" lon="13.9119429"><ele>1170.0</ele><time>2026-04-25T13:50:07.718Z</time></trkpt><trkpt lat="41.7623048" lon="13.9118884"><ele>1170.0</ele><time>2026-04-25T13:50:14.821Z</time></trkpt><trkpt lat="41.7623248" lon="13.9117983"><ele>1170.0</ele><time>2026-04-25T13:50:20.798Z</time></trkpt><trkpt lat="41.7623819" lon="13.9117504"><ele>1170.0</ele><time>2026-04-25T13:52:17.695Z</time></trkpt><trkpt lat="41.7624532" lon="13.9117492"><ele>1170.0</ele><time>2026-04-25T13:54:31.782Z</time></trkpt><trkpt lat="41.762521" lon="13.9117685"><ele>1170.0</ele><time>2026-04-25T13:54:37.782Z</time></trkpt><trkpt lat="41.7625409" lon="13.9118643"><ele>1170.0</ele><time>2026-04-25T13:55:19.749Z</time></trkpt><trkpt lat="41.7625745" lon="13.9119454"><ele>1170.0</ele><time>2026-04-25T13:55:26.783Z</time></trkpt><trkpt lat="41.7625539" lon="13.912032"><ele>1170.0</ele><time>2026-04-25T13:55:55.782Z</time></trkpt><trkpt lat="41.7626057" lon="13.9120855"><ele>1170.0</ele><time>2026-04-25T13:56:01.782Z</time></trkpt><trkpt lat="41.7626731" lon="13.9121055"><ele>1169.142857142857</ele><time>2026-04-25T13:56:07.726Z</time></trkpt><trkpt lat="41.7627211" lon="13.9121735"><ele>1168.2857142857142</ele><time>2026-04-25T13:56:14.782Z</time></trkpt><trkpt lat="41.7627491" lon="13.912254"><ele>1167.4285714285713</ele><time>2026-04-25T13:56:19.783Z</time></trkpt><trkpt lat="41.7627868" lon="13.9123276"><ele>1166.5714285714284</ele><time>2026-04-25T13:57:15.782Z</time></trkpt><trkpt lat="41.7628375" lon="13.9124052"><ele>1165.7142857142856</ele><time>2026-04-25T13:57:27.782Z</time></trkpt><trkpt lat="41.762891" lon="13.9124732"><ele>1164.857142857143</ele><time>2026-04-25T13:57:33.782Z</time></trkpt><trkpt lat="41.7629109" lon="13.91256"><ele>1164.0</ele><time>2026-04-25T13:57:40.782Z</time></trkpt><trkpt lat="41.7629257" lon="13.9126626"><ele>1164.0</ele><time>2026-04-25T13:58:14.782Z</time></trkpt><trkpt lat="41.7629504" lon="13.912741"><ele>1164.0</ele><time>2026-04-25T13:59:03.782Z</time></trkpt><trkpt lat="41.7629359" lon="13.91283"><ele>1164.0</ele><time>2026-04-25T13:59:10.782Z</time></trkpt><trkpt lat="41.7629719" lon="13.9129096"><ele>1164.0</ele><time>2026-04-25T13:59:18.782Z</time></trkpt><trkpt lat="41.76297" lon="13.9130116"><ele>1164.0</ele><time>2026-04-25T13:59:26.812Z</time></trkpt><trkpt lat="41.7629891" lon="13.9130992"><ele>1164.0</ele><time>2026-04-25T13:59:42.809Z</time></trkpt><trkpt lat="41.7630312" lon="13.9131756"><ele>1164.0</ele><time>2026-04-25T13:59:50.782Z</time></trkpt><trkpt lat="41.7630991" lon="13.9132067"><ele>1164.0</ele><time>2026-04-25T13:59:58.805Z</time></trkpt><trkpt lat="41.7631443" lon="13.9132777"><ele>1164.0</ele><time>2026-04-25T14:00:05.782Z</time></trkpt><trkpt lat="41.7632018" lon="13.9133269"><ele>1164.0</ele><time>2026-04-25T14:00:12.791Z</time></trkpt><trkpt lat="41.7632414" lon="13.9133964"><ele>1164.0</ele><time>2026-04-25T14:00:19.766Z</time></trkpt><trkpt lat="41.7632929" lon="13.913459"><ele>1164.0</ele><time>2026-04-25T14:00:25.782Z</time></trkpt><trkpt lat="41.7633471" lon="13.9135184"><ele>1164.0</ele><time>2026-04-25T14:00:31.804Z</time></trkpt><trkpt lat="41.763392" lon="13.9135919"><ele>1164.0</ele><time>2026-04-25T14:00:37.782Z</time></trkpt><trkpt lat="41.7634347" lon="13.9136555"><ele>1164.2857142857142</ele><time>2026-04-25T14:00:43.682Z</time></trkpt><trkpt lat="41.7634622" lon="13.913742"><ele>1164.5714285714284</ele><time>2026-04-25T14:00:49.782Z</time></trkpt><trkpt lat="41.7635078" lon="13.913808"><ele>1164.857142857143</ele><time>2026-04-25T14:00:55.782Z</time></trkpt><trkpt lat="41.7635665" lon="13.9138443"><ele>1165.142857142857</ele><time>2026-04-25T14:01:02.726Z</time></trkpt><trkpt lat="41.7636242" lon="13.913887"><ele>1165.4285714285716</ele><time>2026-04-25T14:01:10.782Z</time></trkpt><trkpt lat="41.7636778" lon="13.9139417"><ele>1165.7142857142858</ele><time>2026-04-25T14:01:24.782Z</time></trkpt><trkpt lat="41.7637191" lon="13.9140172"><ele>1166.0</ele><time>2026-04-25T14:01:32.782Z</time></trkpt><trkpt lat="41.7637772" lon="13.9140627"><ele>1166.0000000000002</ele><time>2026-04-25T14:01:37.835Z</time></trkpt><trkpt lat="41.7638352" lon="13.9140969"><ele>1166.0</ele><time>2026-04-25T14:01:44.76Z</time></trkpt><trkpt lat="41.7638476" lon="13.9141817"><ele>1166.0</ele><time>2026-04-25T14:02:11.808Z</time></trkpt><trkpt lat="41.7638942" lon="13.9141238"><ele>1166.0</ele><time>2026-04-25T14:02:48.829Z</time></trkpt><trkpt lat="41.7638875" lon="13.9140355"><ele>1166.0</ele><time>2026-04-25T14:02:52.782Z</time></trkpt><trkpt lat="41.7639133" lon="13.9139533"><ele>1166.0000000000002</ele><time>2026-04-25T14:02:59.795Z</time></trkpt><trkpt lat="41.7638942" lon="13.914056"><ele>1166.0</ele><time>2026-04-25T14:06:47.782Z</time></trkpt><trkpt lat="41.7638677" lon="13.9141366"><ele>1168.4285714285716</ele><time>2026-04-25T14:06:53.782Z</time></trkpt><trkpt lat="41.7638724" lon="13.9142612"><ele>1170.857142857143</ele><time>2026-04-25T14:07:49.825Z</time></trkpt><trkpt lat="41.7638917" lon="13.9143437"><ele>1173.2857142857142</ele><time>2026-04-25T14:07:54.822Z</time></trkpt><trkpt lat="41.7639472" lon="13.9143934"><ele>1175.7142857142858</ele><time>2026-04-25T14:07:59.796Z</time></trkpt><trkpt lat="41.7640145" lon="13.9144097"><ele>1178.142857142857</ele><time>2026-04-25T14:08:04.783Z</time></trkpt><trkpt lat="41.7640774" lon="13.9144263"><ele>1180.5714285714287</ele><time>2026-04-25T14:08:10.782Z</time></trkpt><trkpt lat="41.7641479" lon="13.9144237"><ele>1183.0</ele><time>2026-04-25T14:08:16.798Z</time></trkpt><trkpt lat="41.7642074" lon="13.9144536"><ele>1183.0</ele><time>2026-04-25T14:08:21.803Z</time></trkpt><trkpt lat="41.7642732" lon="13.9144212"><ele>1183.0</ele><time>2026-04-25T14:08:28.684Z</time></trkpt><trkpt lat="41.7643305" lon="13.9143847"><ele>1183.0</ele><time>2026-04-25T14:08:34.807Z</time></trkpt><trkpt lat="41.7643897" lon="13.9143513"><ele>1183.0</ele><time>2026-04-25T14:08:40.782Z</time></trkpt><trkpt lat="41.7644538" lon="13.9143382"><ele>1183.0</ele><time>2026-04-25T14:08:45.783Z</time></trkpt><trkpt lat="41.7645238" lon="13.9143511"><ele>1183.0</ele><time>2026-04-25T14:08:51.783Z</time></trkpt><trkpt lat="41.7645877" lon="13.9143613"><ele>1183.0</ele><time>2026-04-25T14:08:58.782Z</time></trkpt><trkpt lat="41.7646197" lon="13.9144398"><ele>1179.5</ele><time>2026-04-25T14:09:05.792Z</time></trkpt><trkpt lat="41.7646004" lon="13.9145203"><ele>1176.0</ele><time>2026-04-25T14:09:11.682Z</time></trkpt><trkpt lat="41.7646076" lon="13.914614"><ele>1172.5</ele><time>2026-04-25T14:09:18.782Z</time></trkpt><trkpt lat="41.7646532" lon="13.9146894"><ele>1169.0</ele><time>2026-04-25T14:09:25.782Z</time></trkpt><trkpt lat="41.7647045" lon="13.914742"><ele>1165.5</ele><time>2026-04-25T14:09:31.785Z</time></trkpt><trkpt lat="41.7647943" lon="13.9148293"><ele>1162.0</ele><time>2026-04-25T14:10:08.685Z</time></trkpt><trkpt lat="41.7648503" lon="13.9148948"><ele>1162.0</ele><time>2026-04-25T14:10:13.853Z</time></trkpt><trkpt lat="41.7649089" lon="13.9149394"><ele>1162.0</ele><time>2026-04-25T14:10:19.782Z</time></trkpt><trkpt lat="41.7649266" lon="13.9150212"><ele>1162.0</ele><time>2026-04-25T14:10:25.782Z</time></trkpt><trkpt lat="41.7649458" lon="13.9151142"><ele>1162.0</ele><time>2026-04-25T14:10:32.813Z</time></trkpt><trkpt lat="41.7649432" lon="13.9152038"><ele>1162.0</ele><time>2026-04-25T14:10:40.782Z</time></trkpt><trkpt lat="41.7649211" lon="13.9152855"><ele>1162.0</ele><time>2026-04-25T14:10:49.815Z</time></trkpt><trkpt lat="41.764919" lon="13.9153723"><ele>1162.0</ele><time>2026-04-25T14:10:58.845Z</time></trkpt><trkpt lat="41.7649591" lon="13.9154396"><ele>1162.7142857142858</ele><time>2026-04-25T14:11:04.804Z</time></trkpt><trkpt lat="41.7649991" lon="13.9155295"><ele>1163.4285714285716</ele><time>2026-04-25T14:11:13.782Z</time></trkpt><trkpt lat="41.7650339" lon="13.9156181"><ele>1164.142857142857</ele><time>2026-04-25T14:11:18.788Z</time></trkpt><trkpt lat="41.7650523" lon="13.915711"><ele>1164.857142857143</ele><time>2026-04-25T14:11:22.813Z</time></trkpt><trkpt lat="41.7650619" lon="13.9157982"><ele>1165.5714285714287</ele><time>2026-04-25T14:11:27.782Z</time></trkpt><trkpt lat="41.7650179" lon="13.91586"><ele>1166.2857142857142</ele><time>2026-04-25T14:11:33.782Z</time></trkpt><trkpt lat="41.7649535" lon="13.9158994"><ele>1167.0</ele><time>2026-04-25T14:11:40.82Z</time></trkpt><trkpt lat="41.7649083" lon="13.915967"><ele>1167.4285714285716</ele><time>2026-04-25T14:11:48.782Z</time></trkpt><trkpt lat="41.7648814" lon="13.9160474"><ele>1167.857142857143</ele><time>2026-04-25T14:11:55.81Z</time></trkpt><trkpt lat="41.7648857" lon="13.9161364"><ele>1168.2857142857142</ele><time>2026-04-25T14:12:00.807Z</time></trkpt><trkpt lat="41.764858" lon="13.9162217"><ele>1168.7142857142858</ele><time>2026-04-25T14:12:54.782Z</time></trkpt><trkpt lat="41.7648188" lon="13.9162893"><ele>1169.142857142857</ele><time>2026-04-25T14:13:01.806Z</time></trkpt><trkpt lat="41.7647951" lon="13.9163792"><ele>1169.5714285714287</ele><time>2026-04-25T14:13:08.722Z</time></trkpt><trkpt lat="41.7648091" lon="13.9164707"><ele>1170.0</ele><time>2026-04-25T14:13:14.784Z</time></trkpt><trkpt lat="41.7648188" lon="13.9165565"><ele>1170.0</ele><time>2026-04-25T14:13:21.782Z</time></trkpt><trkpt lat="41.7648262" lon="13.9166414"><ele>1170.0</ele><time>2026-04-25T14:13:28.782Z</time></trkpt><trkpt lat="41.7648608" lon="13.916717"><ele>1170.0</ele><time>2026-04-25T14:13:36.815Z</time></trkpt><trkpt lat="41.7648856" lon="13.9167961"><ele>1170.0</ele><time>2026-04-25T14:13:49.794Z</time></trkpt><trkpt lat="41.7648539" lon="13.9168764"><ele>1170.0</ele><time>2026-04-25T14:13:56.782Z</time></trkpt><trkpt lat="41.7648284" lon="13.9169596"><ele>1170.0</ele><time>2026-04-25T14:14:03.741Z</time></trkpt><trkpt lat="41.7648744" lon="13.9170242"><ele>1170.0</ele><time>2026-04-25T14:14:11.782Z</time></trkpt><trkpt lat="41.7649268" lon="13.9170747"><ele>1170.4285714285716</ele><time>2026-04-25T14:14:17.782Z</time></trkpt><trkpt lat="41.7649737" lon="13.9171324"><ele>1170.857142857143</ele><time>2026-04-25T14:14:23.798Z</time></trkpt><trkpt lat="41.7650366" lon="13.9171238"><ele>1171.2857142857142</ele><time>2026-04-25T14:14:30.782Z</time></trkpt><trkpt lat="41.7651035" lon="13.9171713"><ele>1171.7142857142858</ele><time>2026-04-25T14:14:51.682Z</time></trkpt><trkpt lat="41.7651104" lon="13.9172599"><ele>1172.142857142857</ele><time>2026-04-25T14:14:55.787Z</time></trkpt><trkpt lat="41.765135" lon="13.9173479"><ele>1172.5714285714287</ele><time>2026-04-25T14:15:01.782Z</time></trkpt><trkpt lat="41.7651726" lon="13.9174265"><ele>1173.0</ele><time>2026-04-25T14:15:08.783Z</time></trkpt><trkpt lat="41.7651835" lon="13.9175206"><ele>1173.2857142857144</ele><time>2026-04-25T14:15:14.808Z</time></trkpt><trkpt lat="41.7651673" lon="13.9176079"><ele>1173.5714285714287</ele><time>2026-04-25T14:15:25.782Z</time></trkpt><trkpt lat="41.7651128" lon="13.9176707"><ele>1173.857142857143</ele><time>2026-04-25T14:15:45.798Z</time></trkpt><trkpt lat="41.7650693" lon="13.9177377"><ele>1174.1428571428573</ele><time>2026-04-25T14:15:55.744Z</time></trkpt><trkpt lat="41.7650659" lon="13.917829"><ele>1174.4285714285716</ele><time>2026-04-25T14:16:03.806Z</time></trkpt><trkpt lat="41.7650838" lon="13.9179179"><ele>1174.7142857142858</ele><time>2026-04-25T14:16:18.796Z</time></trkpt><trkpt lat="41.7650775" lon="13.9180104"><ele>1175.0</ele><time>2026-04-25T14:16:27.782Z</time></trkpt><trkpt lat="41.765066" lon="13.9181031"><ele>1175.0</ele><time>2026-04-25T14:16:36.804Z</time></trkpt><trkpt lat="41.765058" lon="13.9181903"><ele>1175.0</ele><time>2026-04-25T14:16:57.782Z</time></trkpt><trkpt lat="41.7650933" lon="13.9182616"><ele>1175.0</ele><time>2026-04-25T14:17:02.788Z</time></trkpt><trkpt lat="41.7651595" lon="13.9182635"><ele>1175.0</ele><time>2026-04-25T14:17:07.79Z</time></trkpt><trkpt lat="41.7652238" lon="13.9183007"><ele>1175.0</ele><time>2026-04-25T14:17:14.782Z</time></trkpt><trkpt lat="41.76529" lon="13.9183213"><ele>1175.0</ele><time>2026-04-25T14:17:21.782Z</time></trkpt><trkpt lat="41.7652967" lon="13.918409"><ele>1175.0</ele><time>2026-04-25T14:17:29.782Z</time></trkpt><trkpt lat="41.7653311" lon="13.9184959"><ele>1173.857142857143</ele><time>2026-04-25T14:17:37.782Z</time></trkpt><trkpt lat="41.7653424" lon="13.9185887"><ele>1172.7142857142858</ele><time>2026-04-25T14:17:45.818Z</time></trkpt><trkpt lat="41.7653624" lon="13.9186755"><ele>1171.5714285714287</ele><time>2026-04-25T14:17:55.782Z</time></trkpt><trkpt lat="41.7653353" lon="13.9187591"><ele>1170.4285714285716</ele><time>2026-04-25T14:18:01.813Z</time></trkpt><trkpt lat="41.7652965" lon="13.9188272"><ele>1169.2857142857144</ele><time>2026-04-25T14:18:08.782Z</time></trkpt><trkpt lat="41.7652837" lon="13.9189149"><ele>1168.142857142857</ele><time>2026-04-25T14:18:16.803Z</time></trkpt><trkpt lat="41.765272" lon="13.9190009"><ele>1167.0</ele><time>2026-04-25T14:18:39.782Z</time></trkpt><trkpt lat="41.7653331" lon="13.9189689"><ele>1167.0</ele><time>2026-04-25T14:19:13.782Z</time></trkpt><trkpt lat="41.7653855" lon="13.9189163"><ele>1167.0</ele><time>2026-04-25T14:19:19.782Z</time></trkpt><trkpt lat="41.7654493" lon="13.9189272"><ele>1167.0</ele><time>2026-04-25T14:19:26.782Z</time></trkpt><trkpt lat="41.7653829" lon="13.9189061"><ele>1167.0</ele><time>2026-04-25T14:19:43.782Z</time></trkpt><trkpt lat="41.7653217" lon="13.9189347"><ele>1167.0</ele><time>2026-04-25T14:19:53.782Z</time></trkpt><trkpt lat="41.7653085" lon="13.9190201"><ele>1167.0</ele><time>2026-04-25T14:20:01.782Z</time></trkpt><trkpt lat="41.7652566" lon="13.9190713"><ele>1167.0</ele><time>2026-04-25T14:22:25.782Z</time></trkpt><trkpt lat="41.7652541" lon="13.9191559"><ele>1167.0</ele><time>2026-04-25T14:23:01.76Z</time></trkpt><trkpt lat="41.7652025" lon="13.9192176"><ele>1167.0</ele><time>2026-04-25T14:23:11.782Z</time></trkpt><trkpt lat="41.7651673" lon="13.9192924"><ele>1167.0</ele><time>2026-04-25T14:23:20.799Z</time></trkpt><trkpt lat="41.7651884" lon="13.9192109"><ele>1167.0</ele><time>2026-04-25T14:24:33.807Z</time></trkpt><trkpt lat="41.7652633" lon="13.9191859"><ele>1167.0</ele><time>2026-04-25T14:24:38.782Z</time></trkpt><trkpt lat="41.7653147" lon="13.9191221"><ele>1167.0</ele><time>2026-04-25T14:24:44.782Z</time></trkpt><trkpt lat="41.7652872" lon="13.9190406"><ele>1167.0</ele><time>2026-04-25T14:25:12.782Z</time></trkpt><trkpt lat="41.7653504" lon="13.91913"><ele>1167.0</ele><time>2026-04-25T14:33:38.782Z</time></trkpt><trkpt lat="41.765323" lon="13.9190489"><ele>1167.0</ele><time>2026-04-25T14:36:37.782Z</time></trkpt><trkpt lat="41.7653016" lon="13.9191481"><ele>1167.0</ele><time>2026-04-25T14:37:56.782Z</time></trkpt><trkpt lat="41.7652248" lon="13.9191476"><ele>1167.0</ele><time>2026-04-25T14:38:16.808Z</time></trkpt><trkpt lat="41.7652942" lon="13.9191314"><ele>1167.0</ele><time>2026-04-25T14:39:41.782Z</time></trkpt><trkpt lat="41.7653598" lon="13.9191124"><ele>1167.0</ele><time>2026-04-25T14:39:48.782Z</time></trkpt><trkpt lat="41.765437" lon="13.9190821"><ele>1167.0</ele><time>2026-04-25T14:39:56.782Z</time></trkpt><trkpt lat="41.765469" lon="13.9190018"><ele>1167.0</ele><time>2026-04-25T14:40:05.783Z</time></trkpt><trkpt lat="41.7654898" lon="13.9189211"><ele>1167.0</ele><time>2026-04-25T14:40:17.782Z</time></trkpt><trkpt lat="41.7655166" lon="13.9190066"><ele>1167.0</ele><time>2026-04-25T14:41:27.782Z</time></trkpt><trkpt lat="41.7655377" lon="13.9190963"><ele>1167.0</ele><time>2026-04-25T14:41:39.783Z</time></trkpt><trkpt lat="41.7655678" lon="13.9191943"><ele>1167.0</ele><time>2026-04-25T14:42:21.804Z</time></trkpt><trkpt lat="41.765567" lon="13.9192873"><ele>1167.0</ele><time>2026-04-25T14:42:27.782Z</time></trkpt><trkpt lat="41.7655361" lon="13.9193725"><ele>1167.0</ele><time>2026-04-25T14:42:37.801Z</time></trkpt><trkpt lat="41.765599" lon="13.9194046"><ele>1169.2857142857142</ele><time>2026-04-25T14:42:44.782Z</time></trkpt><trkpt lat="41.7656706" lon="13.9194204"><ele>1171.5714285714287</ele><time>2026-04-25T14:42:53.796Z</time></trkpt><trkpt lat="41.765714" lon="13.9194817"><ele>1173.857142857143</ele><time>2026-04-25T14:43:00.782Z</time></trkpt><trkpt lat="41.7657188" lon="13.9195683"><ele>1176.142857142857</ele><time>2026-04-25T14:43:08.787Z</time></trkpt><trkpt lat="41.7657635" lon="13.9196403"><ele>1178.4285714285716</ele><time>2026-04-25T14:43:14.783Z</time></trkpt><trkpt lat="41.7658054" lon="13.9197049"><ele>1180.7142857142858</ele><time>2026-04-25T14:43:21.782Z</time></trkpt><trkpt lat="41.765817" lon="13.9197907"><ele>1183.0</ele><time>2026-04-25T14:43:30.782Z</time></trkpt><trkpt lat="41.7658401" lon="13.9198715"><ele>1183.0</ele><time>2026-04-25T14:43:40.782Z</time></trkpt><trkpt lat="41.7658994" lon="13.9199265"><ele>1183.0</ele><time>2026-04-25T14:43:47.763Z</time></trkpt><trkpt lat="41.7659441" lon="13.919995"><ele>1183.0</ele><time>2026-04-25T14:43:53.782Z</time></trkpt><trkpt lat="41.7660012" lon="13.9199559"><ele>1183.0</ele><time>2026-04-25T14:44:02.807Z</time></trkpt><trkpt lat="41.7660596" lon="13.9200146"><ele>1183.0</ele><time>2026-04-25T14:44:12.782Z</time></trkpt><trkpt lat="41.7661254" lon="13.9200444"><ele>1183.0</ele><time>2026-04-25T14:44:18.802Z</time></trkpt><trkpt lat="41.766166" lon="13.9201111"><ele>1183.0</ele><time>2026-04-25T14:44:24.686Z</time></trkpt><trkpt lat="41.7662347" lon="13.9201354"><ele>1183.4285714285713</ele><time>2026-04-25T14:44:31.782Z</time></trkpt><trkpt lat="41.7662973" lon="13.9201838"><ele>1183.857142857143</ele><time>2026-04-25T14:44:37.814Z</time></trkpt><trkpt lat="41.7663564" lon="13.9202262"><ele>1184.2857142857142</ele><time>2026-04-25T14:44:44.683Z</time></trkpt><trkpt lat="41.7664258" lon="13.920245"><ele>1184.7142857142858</ele><time>2026-04-25T14:44:50.748Z</time></trkpt><trkpt lat="41.7664792" lon="13.9202938"><ele>1185.142857142857</ele><time>2026-04-25T14:44:58.684Z</time></trkpt><trkpt lat="41.7664762" lon="13.9203839"><ele>1185.5714285714284</ele><time>2026-04-25T14:45:11.816Z</time></trkpt><trkpt lat="41.7665423" lon="13.9204102"><ele>1186.0</ele><time>2026-04-25T14:45:17.782Z</time></trkpt><trkpt lat="41.7665818" lon="13.920481"><ele>1185.9999999999998</ele><time>2026-04-25T14:45:25.799Z</time></trkpt><trkpt lat="41.7665533" lon="13.9205648"><ele>1186.0</ele><time>2026-04-25T14:45:33.721Z</time></trkpt><trkpt lat="41.7665755" lon="13.9206522"><ele>1186.0</ele><time>2026-04-25T14:45:39.782Z</time></trkpt><trkpt lat="41.7665911" lon="13.9207505"><ele>1186.0</ele><time>2026-04-25T14:45:48.782Z</time></trkpt><trkpt lat="41.7666053" lon="13.9208402"><ele>1186.0</ele><time>2026-04-25T14:45:56.785Z</time></trkpt><trkpt lat="41.7666484" lon="13.9209167"><ele>1185.9999999999998</ele><time>2026-04-25T14:46:02.782Z</time></trkpt><trkpt lat="41.7666624" lon="13.921004"><ele>1186.0</ele><time>2026-04-25T14:46:09.782Z</time></trkpt><trkpt lat="41.7666532" lon="13.9210891"><ele>1186.8571428571427</ele><time>2026-04-25T14:46:16.805Z</time></trkpt><trkpt lat="41.7666759" lon="13.9211782"><ele>1187.7142857142858</ele><time>2026-04-25T14:46:24.782Z</time></trkpt><trkpt lat="41.7667245" lon="13.9212437"><ele>1188.5714285714284</ele><time>2026-04-25T14:46:30.79Z</time></trkpt><trkpt lat="41.7667804" lon="13.9212029"><ele>1189.4285714285713</ele><time>2026-04-25T14:46:39.782Z</time></trkpt><trkpt lat="41.7667611" lon="13.9212918"><ele>1190.2857142857142</ele><time>2026-04-25T14:47:08.815Z</time></trkpt><trkpt lat="41.766743" lon="13.9213763"><ele>1191.142857142857</ele><time>2026-04-25T14:47:15.783Z</time></trkpt><trkpt lat="41.7667077" lon="13.9214574"><ele>1192.0</ele><time>2026-04-25T14:47:22.8Z</time></trkpt><trkpt lat="41.7667199" lon="13.9215413"><ele>1192.0</ele><time>2026-04-25T14:47:28.782Z</time></trkpt><trkpt lat="41.7666673" lon="13.9215939"><ele>1192.0</ele><time>2026-04-25T14:47:39.799Z</time></trkpt><trkpt lat="41.7666285" lon="13.9216699"><ele>1192.0</ele><time>2026-04-25T14:47:46.783Z</time></trkpt><trkpt lat="41.7666248" lon="13.9217568"><ele>1192.0</ele><time>2026-04-25T14:47:52.804Z</time></trkpt><trkpt lat="41.7665843" lon="13.9218394"><ele>1192.0</ele><time>2026-04-25T14:47:59.723Z</time></trkpt><trkpt lat="41.7665478" lon="13.9219165"><ele>1192.0</ele><time>2026-04-25T14:48:04.783Z</time></trkpt><trkpt lat="41.7665658" lon="13.9220049"><ele>1192.0</ele><time>2026-04-25T14:48:11.79Z</time></trkpt><trkpt lat="41.7666343" lon="13.9220241"><ele>1191.857142857143</ele><time>2026-04-25T14:48:18.783Z</time></trkpt><trkpt lat="41.7666985" lon="13.9220683"><ele>1191.7142857142856</ele><time>2026-04-25T14:48:26.782Z</time></trkpt><trkpt lat="41.7666759" lon="13.9221549"><ele>1191.5714285714284</ele><time>2026-04-25T14:49:48.782Z</time></trkpt><trkpt lat="41.7666999" lon="13.9222353"><ele>1191.4285714285713</ele><time>2026-04-25T14:49:54.782Z</time></trkpt><trkpt lat="41.7667272" lon="13.9223225"><ele>1191.2857142857142</ele><time>2026-04-25T14:50:03.782Z</time></trkpt><trkpt lat="41.7667866" lon="13.9223767"><ele>1191.142857142857</ele><time>2026-04-25T14:50:09.791Z</time></trkpt><trkpt lat="41.7668095" lon="13.92247"><ele>1191.0</ele><time>2026-04-25T14:50:16.747Z</time></trkpt><trkpt lat="41.7667899" lon="13.9225578"><ele>1191.857142857143</ele><time>2026-04-25T14:50:25.785Z</time></trkpt><trkpt lat="41.7668007" lon="13.9226448"><ele>1192.7142857142858</ele><time>2026-04-25T14:50:35.74Z</time></trkpt><trkpt lat="41.7667813" lon="13.9227295"><ele>1193.5714285714284</ele><time>2026-04-25T14:50:41.782Z</time></trkpt><trkpt lat="41.7667455" lon="13.9228001"><ele>1194.4285714285716</ele><time>2026-04-25T14:50:46.805Z</time></trkpt><trkpt lat="41.7667047" lon="13.9228655"><ele>1195.2857142857142</ele><time>2026-04-25T14:50:52.782Z</time></trkpt><trkpt lat="41.7666449" lon="13.9229172"><ele>1196.142857142857</ele><time>2026-04-25T14:50:58.783Z</time></trkpt><trkpt lat="41.7665914" lon="13.9229814"><ele>1197.0</ele><time>2026-04-25T14:51:04.817Z</time></trkpt><trkpt lat="41.7665858" lon="13.9230691"><ele>1197.0</ele><time>2026-04-25T14:51:10.706Z</time></trkpt><trkpt lat="41.766573" lon="13.9231547"><ele>1197.0</ele><time>2026-04-25T14:51:18.8Z</time></trkpt><trkpt lat="41.7665405" lon="13.9232306"><ele>1197.0</ele><time>2026-04-25T14:54:46.783Z</time></trkpt><trkpt lat="41.7665928" lon="13.9232778"><ele>1197.0</ele><time>2026-04-25T14:54:52.782Z</time></trkpt><trkpt lat="41.7666524" lon="13.9233199"><ele>1197.0</ele><time>2026-04-25T14:54:59.782Z</time></trkpt><trkpt lat="41.7666881" lon="13.9233899"><ele>1197.0</ele><time>2026-04-25T14:55:07.782Z</time></trkpt><trkpt lat="41.7667489" lon="13.9234418"><ele>1197.0</ele><time>2026-04-25T14:55:13.792Z</time></trkpt><trkpt lat="41.7667461" lon="13.9235267"><ele>1198.142857142857</ele><time>2026-04-25T14:55:19.782Z</time></trkpt><trkpt lat="41.7668096" lon="13.9235492"><ele>1199.2857142857142</ele><time>2026-04-25T14:55:27.782Z</time></trkpt><trkpt lat="41.766863" lon="13.9236064"><ele>1200.4285714285716</ele><time>2026-04-25T14:55:35.782Z</time></trkpt><trkpt lat="41.7669259" lon="13.923624"><ele>1201.5714285714284</ele><time>2026-04-25T14:55:41.782Z</time></trkpt><trkpt lat="41.7669831" lon="13.9236597"><ele>1202.7142857142858</ele><time>2026-04-25T14:55:47.727Z</time></trkpt><trkpt lat="41.7670433" lon="13.9236973"><ele>1203.857142857143</ele><time>2026-04-25T14:55:53.743Z</time></trkpt><trkpt lat="41.7670841" lon="13.9237642"><ele>1205.0</ele><time>2026-04-25T14:55:59.69Z</time></trkpt><trkpt lat="41.7671531" lon="13.9237685"><ele>1202.7142857142858</ele><time>2026-04-25T14:56:11.82Z</time></trkpt><trkpt lat="41.7672177" lon="13.9238042"><ele>1200.4285714285713</ele><time>2026-04-25T14:56:24.812Z</time></trkpt><trkpt lat="41.7672352" lon="13.9238873"><ele>1198.142857142857</ele><time>2026-04-25T14:56:37.788Z</time></trkpt><trkpt lat="41.7672934" lon="13.9239224"><ele>1195.857142857143</ele><time>2026-04-25T14:56:46.782Z</time></trkpt><trkpt lat="41.767348" lon="13.9239746"><ele>1193.5714285714287</ele><time>2026-04-25T14:56:56.801Z</time></trkpt><trkpt lat="41.7673774" lon="13.9240524"><ele>1191.2857142857142</ele><time>2026-04-25T14:57:03.782Z</time></trkpt><trkpt lat="41.7673907" lon="13.9241434"><ele>1189.0</ele><time>2026-04-25T14:57:11.79Z</time></trkpt><trkpt lat="41.7673668" lon="13.9242244"><ele>1189.0</ele><time>2026-04-25T14:57:35.747Z</time></trkpt><trkpt lat="41.7673494" lon="13.9243126"><ele>1189.0</ele><time>2026-04-25T14:57:43.782Z</time></trkpt><trkpt lat="41.7674154" lon="13.9242978"><ele>1189.0</ele><time>2026-04-25T15:06:58.782Z</time></trkpt><trkpt lat="41.7674287" lon="13.9242114"><ele>1189.0</ele><time>2026-04-25T15:07:05.782Z</time></trkpt><trkpt lat="41.7674026" lon="13.9241306"><ele>1189.0</ele><time>2026-04-25T15:07:26.788Z</time></trkpt><trkpt lat="41.7673677" lon="13.924055"><ele>1189.0</ele><time>2026-04-25T15:07:33.72Z</time></trkpt><trkpt lat="41.7673499" lon="13.9239656"><ele>1189.0</ele><time>2026-04-25T15:07:42.746Z</time></trkpt><trkpt lat="41.7673816" lon="13.9238816"><ele>1189.0</ele><time>2026-04-25T15:08:32.747Z</time></trkpt><trkpt lat="41.7673704" lon="13.9237936"><ele>1189.0</ele><time>2026-04-25T15:08:38.782Z</time></trkpt><trkpt lat="41.7673485" lon="13.9237141"><ele>1189.0</ele><time>2026-04-25T15:08:45.782Z</time></trkpt><trkpt lat="41.767357" lon="13.9236207"><ele>1189.0</ele><time>2026-04-25T15:08:54.815Z</time></trkpt><trkpt lat="41.7673438" lon="13.9235368"><ele>1189.0</ele><time>2026-04-25T15:09:06.787Z</time></trkpt><trkpt lat="41.7673029" lon="13.9234658"><ele>1189.0</ele><time>2026-04-25T15:09:20.747Z</time></trkpt><trkpt lat="41.7673017" lon="13.9233804"><ele>1189.0</ele><time>2026-04-25T15:09:51.564Z</time></trkpt><trkpt lat="41.7672916" lon="13.9232953"><ele>1187.857142857143</ele><time>2026-04-25T15:09:58.8Z</time></trkpt><trkpt lat="41.767272" lon="13.9232099"><ele>1186.7142857142858</ele><time>2026-04-25T15:10:07.809Z</time></trkpt><trkpt lat="41.7672961" lon="13.9231192"><ele>1185.5714285714287</ele><time>2026-04-25T15:10:15.802Z</time></trkpt><trkpt lat="41.7673029" lon="13.9230266"><ele>1184.4285714285716</ele><time>2026-04-25T15:10:22.782Z</time></trkpt><trkpt lat="41.7672567" lon="13.9229623"><ele>1183.2857142857144</ele><time>2026-04-25T15:10:30.792Z</time></trkpt><trkpt lat="41.7672072" lon="13.922908"><ele>1182.142857142857</ele><time>2026-04-25T15:10:37.782Z</time></trkpt><trkpt lat="41.7672405" lon="13.9228301"><ele>1181.0</ele><time>2026-04-25T15:10:56.782Z</time></trkpt><trkpt lat="41.7673012" lon="13.9228709"><ele>1181.0</ele><time>2026-04-25T15:11:05.802Z</time></trkpt><trkpt lat="41.7673453" lon="13.9228088"><ele>1181.0</ele><time>2026-04-25T15:11:12.782Z</time></trkpt><trkpt lat="41.7674125" lon="13.9227927"><ele>1181.0</ele><time>2026-04-25T15:11:20.686Z</time></trkpt><trkpt lat="41.7674692" lon="13.9227545"><ele>1181.0</ele><time>2026-04-25T15:11:29.783Z</time></trkpt><trkpt lat="41.767493" lon="13.9226708"><ele>1181.0</ele><time>2026-04-25T15:11:39.805Z</time></trkpt><trkpt lat="41.7675451" lon="13.9226118"><ele>1181.0</ele><time>2026-04-25T15:12:27.792Z</time></trkpt><trkpt lat="41.7676097" lon="13.9226028"><ele>1181.0</ele><time>2026-04-25T15:12:34.782Z</time></trkpt><trkpt lat="41.7676739" lon="13.9225896"><ele>1178.4285714285716</ele><time>2026-04-25T15:12:41.743Z</time></trkpt><trkpt lat="41.7677275" lon="13.9225448"><ele>1175.857142857143</ele><time>2026-04-25T15:12:47.812Z</time></trkpt><trkpt lat="41.7677993" lon="13.9225408"><ele>1173.2857142857142</ele><time>2026-04-25T15:12:54.782Z</time></trkpt><trkpt lat="41.7678639" lon="13.9225326"><ele>1170.7142857142858</ele><time>2026-04-25T15:13:00.79Z</time></trkpt><trkpt lat="41.7679262" lon="13.9224967"><ele>1168.142857142857</ele><time>2026-04-25T15:13:11.763Z</time></trkpt><trkpt lat="41.7679901" lon="13.9224689"><ele>1165.5714285714287</ele><time>2026-04-25T15:13:18.798Z</time></trkpt><trkpt lat="41.7680329" lon="13.9224026"><ele>1163.0</ele><time>2026-04-25T15:13:25.782Z</time></trkpt><trkpt lat="41.7681022" lon="13.922399"><ele>1163.0</ele><time>2026-04-25T15:13:33.788Z</time></trkpt><trkpt lat="41.7681688" lon="13.922382"><ele>1163.0</ele><time>2026-04-25T15:13:44.782Z</time></trkpt><trkpt lat="41.7682172" lon="13.9223153"><ele>1163.0</ele><time>2026-04-25T15:13:53.808Z</time></trkpt><trkpt lat="41.7681981" lon="13.9222337"><ele>1163.0</ele><time>2026-04-25T15:14:01.762Z</time></trkpt><trkpt lat="41.7681437" lon="13.9221881"><ele>1163.0</ele><time>2026-04-25T15:14:10.782Z</time></trkpt><trkpt lat="41.7681741" lon="13.9221069"><ele>1163.0</ele><time>2026-04-25T15:14:18.782Z</time></trkpt><trkpt lat="41.7681856" lon="13.9220188"><ele>1163.0</ele><time>2026-04-25T15:15:15.782Z</time></trkpt><trkpt lat="41.7682294" lon="13.9219439"><ele>1163.0</ele><time>2026-04-25T15:15:23.782Z</time></trkpt><trkpt lat="41.7682794" lon="13.9218756"><ele>1163.0</ele><time>2026-04-25T15:15:31.797Z</time></trkpt><trkpt lat="41.7683425" lon="13.9218389"><ele>1163.0</ele><time>2026-04-25T15:15:40.782Z</time></trkpt><trkpt lat="41.7684081" lon="13.9218172"><ele>1163.0</ele><time>2026-04-25T15:15:48.799Z</time></trkpt><trkpt lat="41.7684481" lon="13.9217513"><ele>1163.0</ele><time>2026-04-25T15:16:08.746Z</time></trkpt><trkpt lat="41.7684805" lon="13.9216769"><ele>1163.0</ele><time>2026-04-25T15:16:14.77Z</time></trkpt><trkpt lat="41.7685403" lon="13.9216403"><ele>1163.0</ele><time>2026-04-25T15:16:21.834Z</time></trkpt><trkpt lat="41.7685759" lon="13.9215645"><ele>1159.4285714285716</ele><time>2026-04-25T15:16:48.783Z</time></trkpt><trkpt lat="41.7686263" lon="13.9215106"><ele>1155.857142857143</ele><time>2026-04-25T15:16:54.783Z</time></trkpt><trkpt lat="41.7686885" lon="13.9214646"><ele>1152.2857142857142</ele><time>2026-04-25T15:17:00.782Z</time></trkpt><trkpt lat="41.7687476" lon="13.9214154"><ele>1148.7142857142858</ele><time>2026-04-25T15:17:07.782Z</time></trkpt><trkpt lat="41.7688107" lon="13.9213773"><ele>1145.142857142857</ele><time>2026-04-25T15:17:14.782Z</time></trkpt><trkpt lat="41.7688407" lon="13.9212939"><ele>1141.5714285714287</ele><time>2026-04-25T15:17:22.787Z</time></trkpt><trkpt lat="41.7689083" lon="13.9212871"><ele>1138.0</ele><time>2026-04-25T15:17:33.782Z</time></trkpt><trkpt lat="41.7689618" lon="13.9212297"><ele>1138.0000000000002</ele><time>2026-04-25T15:17:41.782Z</time></trkpt><trkpt lat="41.7689124" lon="13.9211638"><ele>1138.0</ele><time>2026-04-25T15:17:50.726Z</time></trkpt><trkpt lat="41.768851" lon="13.9211399"><ele>1138.0</ele><time>2026-04-25T15:17:57.783Z</time></trkpt><trkpt lat="41.7687898" lon="13.9211081"><ele>1138.0</ele><time>2026-04-25T15:18:05.821Z</time></trkpt><trkpt lat="41.7687662" lon="13.9210211"><ele>1138.0</ele><time>2026-04-25T15:18:16.786Z</time></trkpt><trkpt lat="41.7687032" lon="13.9209854"><ele>1138.0000000000002</ele><time>2026-04-25T15:18:24.782Z</time></trkpt><trkpt lat="41.7687266" lon="13.9209033"><ele>1138.0</ele><time>2026-04-25T15:18:49.784Z</time></trkpt><trkpt lat="41.7687208" lon="13.9208147"><ele>1137.1428571428573</ele><time>2026-04-25T15:19:01.805Z</time></trkpt><trkpt lat="41.768714" lon="13.9207235"><ele>1136.2857142857142</ele><time>2026-04-25T15:19:13.723Z</time></trkpt><trkpt lat="41.7687504" lon="13.9206528"><ele>1135.4285714285716</ele><time>2026-04-25T15:19:22.782Z</time></trkpt><trkpt lat="41.7687907" lon="13.920581"><ele>1134.5714285714287</ele><time>2026-04-25T15:19:32.769Z</time></trkpt><trkpt lat="41.7688206" lon="13.9204981"><ele>1133.7142857142858</ele><time>2026-04-25T15:20:05.782Z</time></trkpt><trkpt lat="41.7688778" lon="13.9204553"><ele>1132.857142857143</ele><time>2026-04-25T15:20:13.723Z</time></trkpt><trkpt lat="41.7689359" lon="13.920505"><ele>1132.0</ele><time>2026-04-25T15:21:33.782Z</time></trkpt><trkpt lat="41.7689453" lon="13.9204194"><ele>1132.0</ele><time>2026-04-25T15:21:42.821Z</time></trkpt><trkpt lat="41.768982" lon="13.9203456"><ele>1132.0</ele><time>2026-04-25T15:21:47.783Z</time></trkpt><trkpt lat="41.769042" lon="13.9202957"><ele>1132.0</ele><time>2026-04-25T15:21:53.788Z</time></trkpt><trkpt lat="41.7690866" lon="13.9202212"><ele>1132.0</ele><time>2026-04-25T15:21:59.782Z</time></trkpt><trkpt lat="41.7691343" lon="13.9201472"><ele>1132.0</ele><time>2026-04-25T15:22:06.74Z</time></trkpt><trkpt lat="41.769152" lon="13.9200637"><ele>1132.0</ele><time>2026-04-25T15:22:12.765Z</time></trkpt><trkpt lat="41.7691259" lon="13.9199783"><ele>1132.0</ele><time>2026-04-25T15:22:20.783Z</time></trkpt><trkpt lat="41.7690753" lon="13.9199151"><ele>1131.1666666666665</ele><time>2026-04-25T15:22:27.745Z</time></trkpt><trkpt lat="41.7690016" lon="13.9198927"><ele>1130.3333333333333</ele><time>2026-04-25T15:22:32.686Z</time></trkpt><trkpt lat="41.7689395" lon="13.9199169"><ele>1129.5</ele><time>2026-04-25T15:22:36.782Z</time></trkpt><trkpt lat="41.7688915" lon="13.9198577"><ele>1128.6666666666667</ele><time>2026-04-25T15:22:45.744Z</time></trkpt><trkpt lat="41.7688593" lon="13.919782"><ele>1127.8333333333335</ele><time>2026-04-25T15:22:50.723Z</time></trkpt><trkpt lat="41.7690032" lon="13.9197503"><ele>1127.0</ele><time>2026-04-25T15:22:51.699Z</time></trkpt><trkpt lat="41.7690494" lon="13.9196883"><ele>1127.0</ele><time>2026-04-25T15:22:54.727Z</time></trkpt><trkpt lat="41.7690494" lon="13.9195895"><ele>1127.0</ele><time>2026-04-25T15:22:58.783Z</time></trkpt><trkpt lat="41.7690442" lon="13.919492"><ele>1127.0</ele><time>2026-04-25T15:23:04.748Z</time></trkpt><trkpt lat="41.7690049" lon="13.9194216"><ele>1127.0</ele><time>2026-04-25T15:23:10.782Z</time></trkpt><trkpt lat="41.7690463" lon="13.919353"><ele>1127.0</ele><time>2026-04-25T15:23:16.739Z</time></trkpt><trkpt lat="41.7690925" lon="13.9192944"><ele>1127.0</ele><time>2026-04-25T15:23:20.808Z</time></trkpt><trkpt lat="41.7691438" lon="13.9192351"><ele>1127.0</ele><time>2026-04-25T15:23:25.823Z</time></trkpt><trkpt lat="41.7692054" lon="13.9191936"><ele>1125.857142857143</ele><time>2026-04-25T15:23:30.803Z</time></trkpt><trkpt lat="41.7692732" lon="13.9191729"><ele>1124.7142857142858</ele><time>2026-04-25T15:23:36.804Z</time></trkpt><trkpt lat="41.7693099" lon="13.9190972"><ele>1123.5714285714284</ele><time>2026-04-25T15:23:41.782Z</time></trkpt><trkpt lat="41.7693522" lon="13.9190212"><ele>1122.4285714285716</ele><time>2026-04-25T15:23:46.782Z</time></trkpt><trkpt lat="41.7694085" lon="13.9189652"><ele>1121.2857142857142</ele><time>2026-04-25T15:23:51.794Z</time></trkpt><trkpt lat="41.7694604" lon="13.9189082"><ele>1120.142857142857</ele><time>2026-04-25T15:23:56.782Z</time></trkpt><trkpt lat="41.769504" lon="13.9188323"><ele>1119.0</ele><time>2026-04-25T15:24:01.649Z</time></trkpt><trkpt lat="41.7695135" lon="13.9187481"><ele>1117.142857142857</ele><time>2026-04-25T15:24:06.784Z</time></trkpt><trkpt lat="41.7695616" lon="13.9186868"><ele>1115.2857142857142</ele><time>2026-04-25T15:24:12.685Z</time></trkpt><trkpt lat="41.7695899" lon="13.9186054"><ele>1113.4285714285716</ele><time>2026-04-25T15:24:18.782Z</time></trkpt><trkpt lat="41.7696325" lon="13.9185412"><ele>1111.5714285714284</ele><time>2026-04-25T15:24:24.793Z</time></trkpt><trkpt lat="41.7696762" lon="13.91848"><ele>1109.7142857142858</ele><time>2026-04-25T15:24:30.782Z</time></trkpt><trkpt lat="41.7697366" lon="13.9184296"><ele>1107.857142857143</ele><time>2026-04-25T15:24:36.782Z</time></trkpt><trkpt lat="41.769757" lon="13.9183484"><ele>1106.0</ele><time>2026-04-25T15:24:42.81Z</time></trkpt><trkpt lat="41.7698431" lon="13.9183423"><ele>1104.5714285714287</ele><time>2026-04-25T15:24:48.74Z</time></trkpt><trkpt lat="41.7698919" lon="13.9182836"><ele>1103.142857142857</ele><time>2026-04-25T15:24:53.782Z</time></trkpt><trkpt lat="41.769918" lon="13.9181997"><ele>1101.7142857142858</ele><time>2026-04-25T15:24:59.749Z</time></trkpt><trkpt lat="41.7698875" lon="13.9181248"><ele>1100.2857142857142</ele><time>2026-04-25T15:25:04.782Z</time></trkpt><trkpt lat="41.7698777" lon="13.918032"><ele>1098.857142857143</ele><time>2026-04-25T15:25:10.725Z</time></trkpt><trkpt lat="41.7698639" lon="13.9179409"><ele>1097.4285714285716</ele><time>2026-04-25T15:25:17.812Z</time></trkpt><trkpt lat="41.7698745" lon="13.917851"><ele>1096.0</ele><time>2026-04-25T15:25:25.783Z</time></trkpt><trkpt lat="41.769863" lon="13.9177654"><ele>1096.0000000000002</ele><time>2026-04-25T15:25:34.815Z</time></trkpt><trkpt lat="41.7698575" lon="13.9176807"><ele>1096.0</ele><time>2026-04-25T15:25:47.84Z</time></trkpt><trkpt lat="41.7699146" lon="13.9176398"><ele>1096.0</ele><time>2026-04-25T15:25:57.808Z</time></trkpt><trkpt lat="41.7699835" lon="13.9176338"><ele>1096.0</ele><time>2026-04-25T15:26:03.788Z</time></trkpt><trkpt lat="41.770035" lon="13.917685"><ele>1096.0</ele><time>2026-04-25T15:26:08.782Z</time></trkpt><trkpt lat="41.7700733" lon="13.9176179"><ele>1096.0000000000002</ele><time>2026-04-25T15:26:14.782Z</time></trkpt><trkpt lat="41.7700109" lon="13.9176055"><ele>1096.0</ele><time>2026-04-25T15:26:20.805Z</time></trkpt><trkpt lat="41.7699454" lon="13.9175815"><ele>1096.0000000000002</ele><time>2026-04-25T15:26:26.782Z</time></trkpt><trkpt lat="41.7698895" lon="13.9175362"><ele>1096.0</ele><time>2026-04-25T15:26:30.785Z</time></trkpt><trkpt lat="41.7699358" lon="13.9176656"><ele>1096.0</ele><time>2026-04-25T15:26:35.782Z</time></trkpt><trkpt lat="41.7700037" lon="13.9176435"><ele>1096.0</ele><time>2026-04-25T15:26:39.804Z</time></trkpt><trkpt lat="41.7700181" lon="13.917553"><ele>1096.0</ele><time>2026-04-25T15:26:43.782Z</time></trkpt><trkpt lat="41.7700317" lon="13.9174655"><ele>1096.0000000000002</ele><time>2026-04-25T15:26:48.782Z</time></trkpt><trkpt lat="41.7700116" lon="13.9173823"><ele>1096.0</ele><time>2026-04-25T15:26:52.783Z</time></trkpt><trkpt lat="41.7700041" lon="13.9172949"><ele>1094.5714285714287</ele><time>2026-04-25T15:27:11.796Z</time></trkpt><trkpt lat="41.7700243" lon="13.9172135"><ele>1093.142857142857</ele><time>2026-04-25T15:27:17.686Z</time></trkpt><trkpt lat="41.7700107" lon="13.9171212"><ele>1091.7142857142858</ele><time>2026-04-25T15:27:24.782Z</time></trkpt><trkpt lat="41.7699595" lon="13.917056"><ele>1090.2857142857142</ele><time>2026-04-25T15:27:31.76Z</time></trkpt><trkpt lat="41.7699285" lon="13.9169796"><ele>1088.857142857143</ele><time>2026-04-25T15:27:41.782Z</time></trkpt><trkpt lat="41.7699963" lon="13.9169785"><ele>1087.4285714285716</ele><time>2026-04-25T15:27:52.782Z</time></trkpt><trkpt lat="41.7700397" lon="13.9169159"><ele>1086.0</ele><time>2026-04-25T15:28:08.782Z</time></trkpt><trkpt lat="41.7700821" lon="13.9168451"><ele>1086.0</ele><time>2026-04-25T15:28:15.782Z</time></trkpt><trkpt lat="41.7701334" lon="13.916784"><ele>1086.0</ele><time>2026-04-25T15:28:21.782Z</time></trkpt><trkpt lat="41.7701823" lon="13.9167218"><ele>1086.0</ele><time>2026-04-25T15:28:28.782Z</time></trkpt><trkpt lat="41.7702355" lon="13.9166753"><ele>1086.0</ele><time>2026-04-25T15:28:35.8Z</time></trkpt><trkpt lat="41.7702659" lon="13.9166009"><ele>1086.0</ele><time>2026-04-25T15:28:41.783Z</time></trkpt><trkpt lat="41.7703307" lon="13.9165529"><ele>1086.0</ele><time>2026-04-25T15:28:56.828Z</time></trkpt><trkpt lat="41.7703906" lon="13.9164991"><ele>1086.0</ele><time>2026-04-25T15:29:03.741Z</time></trkpt><trkpt lat="41.7704441" lon="13.9164452"><ele>1083.5</ele><time>2026-04-25T15:29:12.782Z</time></trkpt><trkpt lat="41.7705149" lon="13.9164728"><ele>1081.0</ele><time>2026-04-25T15:29:28.817Z</time></trkpt><trkpt lat="41.7704375" lon="13.9163771"><ele>1078.5</ele><time>2026-04-25T15:29:45.782Z</time></trkpt><trkpt lat="41.7703667" lon="13.9163546"><ele>1076.0</ele><time>2026-04-25T15:29:47.766Z</time></trkpt><trkpt lat="41.770455" lon="13.9162283"><ele>1073.5</ele><time>2026-04-25T15:30:22.782Z</time></trkpt><trkpt lat="41.7704965" lon="13.9161601"><ele>1071.0</ele><time>2026-04-25T15:30:27.782Z</time></trkpt><trkpt lat="41.7705225" lon="13.9160761"><ele>1071.0</ele><time>2026-04-25T15:30:34.812Z</time></trkpt><trkpt lat="41.7705554" lon="13.9159974"><ele>1071.0</ele><time>2026-04-25T15:30:41.782Z</time></trkpt><trkpt lat="41.77058" lon="13.9159178"><ele>1071.0</ele><time>2026-04-25T15:30:49.802Z</time></trkpt><trkpt lat="41.7705961" lon="13.9158233"><ele>1071.0</ele><time>2026-04-25T15:30:59.782Z</time></trkpt><trkpt lat="41.7706013" lon="13.9157297"><ele>1071.0</ele><time>2026-04-25T15:31:05.763Z</time></trkpt><trkpt lat="41.7706289" lon="13.9156466"><ele>1071.0</ele><time>2026-04-25T15:31:11.688Z</time></trkpt><trkpt lat="41.7705682" lon="13.9156021"><ele>1071.0</ele><time>2026-04-25T15:31:15.783Z</time></trkpt><trkpt lat="41.7705116" lon="13.9155609"><ele>1070.1666666666667</ele><time>2026-04-25T15:31:21.793Z</time></trkpt><trkpt lat="41.770493" lon="13.9154689"><ele>1069.3333333333333</ele><time>2026-04-25T15:31:28.782Z</time></trkpt><trkpt lat="41.7706177" lon="13.9153963"><ele>1068.5</ele><time>2026-04-25T15:31:33.782Z</time></trkpt><trkpt lat="41.7706375" lon="13.9153059"><ele>1067.6666666666665</ele><time>2026-04-25T15:31:38.795Z</time></trkpt><trkpt lat="41.7706667" lon="13.9152305"><ele>1066.8333333333333</ele><time>2026-04-25T15:31:47.804Z</time></trkpt><trkpt lat="41.7707212" lon="13.9151873"><ele>1066.0</ele><time>2026-04-25T15:31:57.809Z</time></trkpt><trkpt lat="41.7707179" lon="13.9150922"><ele>1065.0</ele><time>2026-04-25T15:32:04.788Z</time></trkpt><trkpt lat="41.7706768" lon="13.9150261"><ele>1064.0</ele><time>2026-04-25T15:32:20.682Z</time></trkpt><trkpt lat="41.7706255" lon="13.914969"><ele>1063.0</ele><time>2026-04-25T15:32:25.782Z</time></trkpt><trkpt lat="41.7706022" lon="13.9148884"><ele>1062.0</ele><time>2026-04-25T15:32:31.813Z</time></trkpt><trkpt lat="41.770649" lon="13.9148259"><ele>1061.0</ele><time>2026-04-25T15:32:36.782Z</time></trkpt><trkpt lat="41.7706734" lon="13.9147433"><ele>1060.0</ele><time>2026-04-25T15:32:42.782Z</time></trkpt><trkpt lat="41.7707258" lon="13.9146949"><ele>1059.0</ele><time>2026-04-25T15:32:47.808Z</time></trkpt><trkpt lat="41.7707543" lon="13.9146028"><ele>1059.0</ele><time>2026-04-25T15:33:02.799Z</time></trkpt><trkpt lat="41.7707997" lon="13.9145329"><ele>1059.0</ele><time>2026-04-25T15:33:07.704Z</time></trkpt><trkpt lat="41.7708486" lon="13.9144782"><ele>1059.0</ele><time>2026-04-25T15:33:12.782Z</time></trkpt><trkpt lat="41.7708747" lon="13.9143987"><ele>1059.0</ele><time>2026-04-25T15:33:18.794Z</time></trkpt><trkpt lat="41.7709373" lon="13.9143634"><ele>1059.0</ele><time>2026-04-25T15:33:24.783Z</time></trkpt><trkpt lat="41.770992" lon="13.9143069"><ele>1059.0</ele><time>2026-04-25T15:33:31.782Z</time></trkpt><trkpt lat="41.7710273" lon="13.9142315"><ele>1059.0</ele><time>2026-04-25T15:33:38.816Z</time></trkpt><trkpt lat="41.7710399" lon="13.9141475"><ele>1058.2857142857142</ele><time>2026-04-25T15:33:44.782Z</time></trkpt><trkpt lat="41.7710827" lon="13.9140695"><ele>1057.5714285714284</ele><time>2026-04-25T15:33:51.793Z</time></trkpt><trkpt lat="41.7711358" lon="13.9140051"><ele>1056.857142857143</ele><time>2026-04-25T15:34:23.784Z</time></trkpt><trkpt lat="41.7711843" lon="13.9139416"><ele>1056.142857142857</ele><time>2026-04-25T15:34:30.742Z</time></trkpt><trkpt lat="41.771211" lon="13.9138511"><ele>1055.4285714285716</ele><time>2026-04-25T15:34:38.782Z</time></trkpt><trkpt lat="41.7712725" lon="13.913873"><ele>1054.7142857142858</ele><time>2026-04-25T15:34:57.788Z</time></trkpt><trkpt lat="41.7713024" lon="13.9137915"><ele>1054.0</ele><time>2026-04-25T15:35:03.729Z</time></trkpt><trkpt lat="41.77127" lon="13.9136977"><ele>1054.0000000000002</ele><time>2026-04-25T15:35:08.782Z</time></trkpt><trkpt lat="41.7712058" lon="13.9136495"><ele>1054.0</ele><time>2026-04-25T15:35:09.708Z</time></trkpt><trkpt lat="41.7712708" lon="13.9136317"><ele>1054.0</ele><time>2026-04-25T15:35:17.783Z</time></trkpt><trkpt lat="41.7712529" lon="13.9135499"><ele>1054.0</ele><time>2026-04-25T15:35:31.782Z</time></trkpt><trkpt lat="41.7711797" lon="13.9135498"><ele>1054.0</ele><time>2026-04-25T15:35:38.783Z</time></trkpt><trkpt lat="41.7711125" lon="13.9135655"><ele>1054.0000000000002</ele><time>2026-04-25T15:35:45.782Z</time></trkpt><trkpt lat="41.7710513" lon="13.913524"><ele>1054.0</ele><time>2026-04-25T15:35:53.783Z</time></trkpt><trkpt lat="41.7710213" lon="13.9134404"><ele>1052.1428571428573</ele><time>2026-04-25T15:36:01.782Z</time></trkpt><trkpt lat="41.7710291" lon="13.9133449"><ele>1050.2857142857142</ele><time>2026-04-25T15:36:10.782Z</time></trkpt><trkpt lat="41.7709872" lon="13.9132764"><ele>1048.4285714285716</ele><time>2026-04-25T15:36:19.782Z</time></trkpt><trkpt lat="41.7709475" lon="13.9132036"><ele>1046.5714285714287</ele><time>2026-04-25T15:36:28.782Z</time></trkpt><trkpt lat="41.7709643" lon="13.913122"><ele>1044.7142857142858</ele><time>2026-04-25T15:36:34.782Z</time></trkpt><trkpt lat="41.77097" lon="13.9130292"><ele>1042.857142857143</ele><time>2026-04-25T15:36:41.782Z</time></trkpt><trkpt lat="41.7709783" lon="13.9129288"><ele>1041.0</ele><time>2026-04-25T15:36:50.74Z</time></trkpt><trkpt lat="41.7709756" lon="13.9128352"><ele>1040.857142857143</ele><time>2026-04-25T15:37:03.782Z</time></trkpt><trkpt lat="41.770961" lon="13.9127473"><ele>1040.7142857142858</ele><time>2026-04-25T15:37:09.782Z</time></trkpt><trkpt lat="41.7709378" lon="13.912663"><ele>1040.5714285714287</ele><time>2026-04-25T15:37:16.782Z</time></trkpt><trkpt lat="41.7709576" lon="13.9125754"><ele>1040.4285714285716</ele><time>2026-04-25T15:37:24.782Z</time></trkpt><trkpt lat="41.7709696" lon="13.9124814"><ele>1040.2857142857142</ele><time>2026-04-25T15:37:33.823Z</time></trkpt><trkpt lat="41.7710035" lon="13.9123984"><ele>1040.1428571428573</ele><time>2026-04-25T15:37:41.782Z</time></trkpt><trkpt lat="41.7710104" lon="13.9123117"><ele>1040.0</ele><time>2026-04-25T15:37:48.813Z</time></trkpt><trkpt lat="41.7710231" lon="13.9122261"><ele>1039.7142857142858</ele><time>2026-04-25T15:38:16.782Z</time></trkpt><trkpt lat="41.7710164" lon="13.9121331"><ele>1039.4285714285716</ele><time>2026-04-25T15:38:44.782Z</time></trkpt><trkpt lat="41.7710247" lon="13.9120422"><ele>1039.142857142857</ele><time>2026-04-25T15:38:52.782Z</time></trkpt><trkpt lat="41.7710369" lon="13.911959"><ele>1038.857142857143</ele><time>2026-04-25T15:39:00.782Z</time></trkpt><trkpt lat="41.771032" lon="13.9118743"><ele>1038.5714285714284</ele><time>2026-04-25T15:39:07.786Z</time></trkpt><trkpt lat="41.7710539" lon="13.9117832"><ele>1038.2857142857142</ele><time>2026-04-25T15:39:18.782Z</time></trkpt><trkpt lat="41.7710493" lon="13.9116982"><ele>1038.0</ele><time>2026-04-25T15:39:23.782Z</time></trkpt><trkpt lat="41.7710765" lon="13.9116086"><ele>1037.5714285714284</ele><time>2026-04-25T15:39:30.782Z</time></trkpt><trkpt lat="41.7710076" lon="13.9116114"><ele>1037.142857142857</ele><time>2026-04-25T15:40:35.782Z</time></trkpt><trkpt lat="41.7710194" lon="13.9117034"><ele>1036.7142857142858</ele><time>2026-04-25T15:42:04.721Z</time></trkpt><trkpt lat="41.7710829" lon="13.9117573"><ele>1036.2857142857142</ele><time>2026-04-25T15:42:11.703Z</time></trkpt><trkpt lat="41.771154" lon="13.9117841"><ele>1035.857142857143</ele><time>2026-04-25T15:42:16.748Z</time></trkpt><trkpt lat="41.7712187" lon="13.9117912"><ele>1035.4285714285713</ele><time>2026-04-25T15:42:21.783Z</time></trkpt><trkpt lat="41.7712741" lon="13.9117421"><ele>1035.0</ele><time>2026-04-25T15:42:25.782Z</time></trkpt><trkpt lat="41.7713338" lon="13.9117042"><ele>1034.4285714285713</ele><time>2026-04-25T15:42:33.782Z</time></trkpt><trkpt lat="41.7712922" lon="13.9116315"><ele>1033.857142857143</ele><time>2026-04-25T15:43:20.801Z</time></trkpt><trkpt lat="41.7712888" lon="13.9115376"><ele>1033.2857142857142</ele><time>2026-04-25T15:44:04.799Z</time></trkpt><trkpt lat="41.7713124" lon="13.9114424"><ele>1032.7142857142858</ele><time>2026-04-25T15:44:10.8Z</time></trkpt><trkpt lat="41.7712648" lon="13.9113729"><ele>1032.142857142857</ele><time>2026-04-25T15:44:16.782Z</time></trkpt><trkpt lat="41.7712726" lon="13.911285"><ele>1031.5714285714284</ele><time>2026-04-25T15:44:22.782Z</time></trkpt><trkpt lat="41.7712642" lon="13.911196"><ele>1031.0</ele><time>2026-04-25T15:44:28.808Z</time></trkpt><trkpt lat="41.7713117" lon="13.9111403"><ele>1031.0</ele><time>2026-04-25T15:44:33.782Z</time></trkpt><trkpt lat="41.7713715" lon="13.9111925"><ele>1031.0</ele><time>2026-04-25T15:44:39.782Z</time></trkpt><trkpt lat="41.7714282" lon="13.9112331"><ele>1031.0</ele><time>2026-04-25T15:44:44.81Z</time></trkpt><trkpt lat="41.7714957" lon="13.9112715"><ele>1031.0</ele><time>2026-04-25T15:44:50.825Z</time></trkpt><trkpt lat="41.7715655" lon="13.9112768"><ele>1031.0</ele><time>2026-04-25T15:44:56.782Z</time></trkpt><trkpt lat="41.7716354" lon="13.91125"><ele>1031.0</ele><time>2026-04-25T15:45:01.78Z</time></trkpt><trkpt lat="41.7716885" lon="13.9111984"><ele>1031.0</ele><time>2026-04-25T15:45:06.78Z</time></trkpt><trkpt lat="41.7717566" lon="13.9111792"><ele>1031.0</ele><time>2026-04-25T15:45:12.847Z</time></trkpt><trkpt lat="41.7718187" lon="13.9111991"><ele>1031.0</ele><time>2026-04-25T15:45:17.831Z</time></trkpt><trkpt lat="41.7718845" lon="13.9112239"><ele>1031.0</ele><time>2026-04-25T15:45:22.782Z</time></trkpt><trkpt lat="41.7719482" lon="13.9112148"><ele>1031.0</ele><time>2026-04-25T15:45:27.782Z</time></trkpt><trkpt lat="41.7720101" lon="13.9111742"><ele>1031.0</ele><time>2026-04-25T15:45:32.79Z</time></trkpt><trkpt lat="41.7720772" lon="13.9111662"><ele>1031.0</ele><time>2026-04-25T15:45:37.82Z</time></trkpt><trkpt lat="41.7721496" lon="13.9111391"><ele>1031.0</ele><time>2026-04-25T15:45:43.782Z</time></trkpt><trkpt lat="41.772203" lon="13.9110694"><ele>1031.857142857143</ele><time>2026-04-25T15:45:49.792Z</time></trkpt><trkpt lat="41.7722685" lon="13.9110707"><ele>1032.7142857142856</ele><time>2026-04-25T15:45:54.783Z</time></trkpt><trkpt lat="41.7723421" lon="13.9110581"><ele>1033.5714285714284</ele><time>2026-04-25T15:46:00.763Z</time></trkpt><trkpt lat="41.7724078" lon="13.9110408"><ele>1034.4285714285713</ele><time>2026-04-25T15:46:06.795Z</time></trkpt><trkpt lat="41.7724706" lon="13.9110239"><ele>1035.2857142857142</ele><time>2026-04-25T15:46:19.782Z</time></trkpt><trkpt lat="41.7725341" lon="13.911019"><ele>1036.142857142857</ele><time>2026-04-25T15:46:24.782Z</time></trkpt><trkpt lat="41.772599" lon="13.9110006"><ele>1037.0</ele><time>2026-04-25T15:46:29.782Z</time></trkpt><trkpt lat="41.7726586" lon="13.9109486"><ele>1038.2857142857142</ele><time>2026-04-25T15:46:35.782Z</time></trkpt><trkpt lat="41.7727322" lon="13.9109692"><ele>1039.5714285714284</ele><time>2026-04-25T15:46:40.803Z</time></trkpt><trkpt lat="41.7727975" lon="13.910942"><ele>1040.8571428571427</ele><time>2026-04-25T15:46:45.767Z</time></trkpt><trkpt lat="41.7728615" lon="13.9109104"><ele>1042.142857142857</ele><time>2026-04-25T15:46:51.722Z</time></trkpt><trkpt lat="41.7729274" lon="13.9109403"><ele>1043.4285714285713</ele><time>2026-04-25T15:46:59.747Z</time></trkpt><trkpt lat="41.7729948" lon="13.9109198"><ele>1044.7142857142856</ele><time>2026-04-25T15:47:06.782Z</time></trkpt><trkpt lat="41.7730459" lon="13.9108569"><ele>1046.0</ele><time>2026-04-25T15:47:12.794Z</time></trkpt><trkpt lat="41.7731062" lon="13.9108026"><ele>1045.9999999999998</ele><time>2026-04-25T15:47:21.763Z</time></trkpt><trkpt lat="41.7731537" lon="13.9107364"><ele>1046.0</ele><time>2026-04-25T15:47:27.77Z</time></trkpt><trkpt lat="41.7732154" lon="13.9106991"><ele>1046.0</ele><time>2026-04-25T15:47:33.782Z</time></trkpt><trkpt lat="41.773276" lon="13.9106664"><ele>1046.0</ele><time>2026-04-25T15:47:38.764Z</time></trkpt><trkpt lat="41.7733388" lon="13.910636"><ele>1046.0</ele><time>2026-04-25T15:47:43.825Z</time></trkpt><trkpt lat="41.7733949" lon="13.9105946"><ele>1045.9999999999998</ele><time>2026-04-25T15:47:49.816Z</time></trkpt><trkpt lat="41.7734529" lon="13.9105563"><ele>1046.0</ele><time>2026-04-25T15:47:55.782Z</time></trkpt><trkpt lat="41.7735157" lon="13.9105429"><ele>1047.4285714285713</ele><time>2026-04-25T15:48:01.787Z</time></trkpt><trkpt lat="41.7735862" lon="13.9105386"><ele>1048.857142857143</ele><time>2026-04-25T15:48:09.782Z</time></trkpt><trkpt lat="41.7736285" lon="13.9104655"><ele>1050.2857142857142</ele><time>2026-04-25T15:48:15.782Z</time></trkpt><trkpt lat="41.7736779" lon="13.9103918"><ele>1051.7142857142858</ele><time>2026-04-25T15:48:22.812Z</time></trkpt><trkpt lat="41.7737412" lon="13.9103678"><ele>1053.142857142857</ele><time>2026-04-25T15:48:27.782Z</time></trkpt><trkpt lat="41.7738005" lon="13.9103393"><ele>1054.5714285714284</ele><time>2026-04-25T15:48:32.782Z</time></trkpt><trkpt lat="41.7738676" lon="13.9103744"><ele>1056.0</ele><time>2026-04-25T15:48:38.803Z</time></trkpt><trkpt lat="41.7739395" lon="13.9103484"><ele>1056.0</ele><time>2026-04-25T15:48:44.851Z</time></trkpt><trkpt lat="41.7740045" lon="13.9103295"><ele>1056.0</ele><time>2026-04-25T15:48:50.782Z</time></trkpt><trkpt lat="41.774073" lon="13.9103312"><ele>1056.0</ele><time>2026-04-25T15:48:56.815Z</time></trkpt><trkpt lat="41.7741201" lon="13.9102706"><ele>1056.0</ele><time>2026-04-25T15:49:01.782Z</time></trkpt><trkpt lat="41.7740832" lon="13.9101908"><ele>1056.0</ele><time>2026-04-25T15:55:39.782Z</time></trkpt><trkpt lat="41.774151" lon="13.9101822"><ele>1056.0</ele><time>2026-04-25T15:56:44.782Z</time></trkpt><trkpt lat="41.7742176" lon="13.9101944"><ele>1056.0</ele><time>2026-04-25T15:56:50.782Z</time></trkpt><trkpt lat="41.7742838" lon="13.9101771"><ele>1056.2857142857142</ele><time>2026-04-25T15:56:56.782Z</time></trkpt><trkpt lat="41.7743553" lon="13.9102016"><ele>1056.5714285714287</ele><time>2026-04-25T15:57:02.801Z</time></trkpt><trkpt lat="41.7744184" lon="13.9102229"><ele>1056.857142857143</ele><time>2026-04-25T15:57:08.625Z</time></trkpt><trkpt lat="41.7744867" lon="13.9101948"><ele>1057.142857142857</ele><time>2026-04-25T15:57:14.781Z</time></trkpt><trkpt lat="41.7745403" lon="13.9101354"><ele>1057.4285714285713</ele><time>2026-04-25T15:57:20.782Z</time></trkpt><trkpt lat="41.7746068" lon="13.9101229"><ele>1057.7142857142858</ele><time>2026-04-25T15:57:27.782Z</time></trkpt><trkpt lat="41.7746656" lon="13.9100787"><ele>1058.0</ele><time>2026-04-25T15:57:36.724Z</time></trkpt><trkpt lat="41.7747399" lon="13.9100682"><ele>1056.0</ele><time>2026-04-25T15:57:42.783Z</time></trkpt><trkpt lat="41.7748084" lon="13.9100734"><ele>1054.0</ele><time>2026-04-25T15:57:48.824Z</time></trkpt><trkpt lat="41.7748624" lon="13.9100224"><ele>1052.0</ele><time>2026-04-25T15:57:54.782Z</time></trkpt><trkpt lat="41.7749263" lon="13.9099749"><ele>1050.0</ele><time>2026-04-25T15:58:01.68Z</time></trkpt><trkpt lat="41.7749932" lon="13.9099496"><ele>1048.0</ele><time>2026-04-25T15:58:07.801Z</time></trkpt><trkpt lat="41.775056" lon="13.9099221"><ele>1046.0</ele><time>2026-04-25T15:58:14.782Z</time></trkpt><trkpt lat="41.775118" lon="13.9099065"><ele>1044.0</ele><time>2026-04-25T15:58:20.784Z</time></trkpt><trkpt lat="41.7751771" lon="13.9098763"><ele>1043.142857142857</ele><time>2026-04-25T15:58:26.782Z</time></trkpt><trkpt lat="41.7752418" lon="13.909869"><ele>1042.2857142857142</ele><time>2026-04-25T15:58:33.762Z</time></trkpt><trkpt lat="41.7753039" lon="13.9099195"><ele>1041.4285714285713</ele><time>2026-04-25T15:58:39.787Z</time></trkpt><trkpt lat="41.7753672" lon="13.9099214"><ele>1040.5714285714284</ele><time>2026-04-25T15:58:44.782Z</time></trkpt><trkpt lat="41.7754365" lon="13.9099032"><ele>1039.7142857142856</ele><time>2026-04-25T15:58:50.802Z</time></trkpt><trkpt lat="41.7755084" lon="13.9098757"><ele>1038.857142857143</ele><time>2026-04-25T15:59:14.782Z</time></trkpt><trkpt lat="41.7755674" lon="13.9098249"><ele>1038.0</ele><time>2026-04-25T16:00:13.783Z</time></trkpt><trkpt lat="41.7756203" lon="13.9097667"><ele>1038.0</ele><time>2026-04-25T16:00:17.782Z</time></trkpt><trkpt lat="41.7756751" lon="13.9097196"><ele>1038.0</ele><time>2026-04-25T16:00:21.782Z</time></trkpt><trkpt lat="41.7757407" lon="13.9096951"><ele>1038.0</ele><time>2026-04-25T16:00:25.782Z</time></trkpt><trkpt lat="41.775805" lon="13.9096817"><ele>1038.0</ele><time>2026-04-25T16:00:30.803Z</time></trkpt><trkpt lat="41.7758427" lon="13.9095951"><ele>1038.0</ele><time>2026-04-25T16:00:39.782Z</time></trkpt><trkpt lat="41.7759124" lon="13.90959"><ele>1038.0</ele><time>2026-04-25T16:00:45.795Z</time></trkpt><trkpt lat="41.7759667" lon="13.9095464"><ele>1038.0</ele><time>2026-04-25T16:00:51.745Z</time></trkpt><trkpt lat="41.7760313" lon="13.9095577"><ele>1036.7142857142858</ele><time>2026-04-25T16:00:57.782Z</time></trkpt><trkpt lat="41.7760954" lon="13.9095476"><ele>1035.4285714285713</ele><time>2026-04-25T16:01:02.796Z</time></trkpt><trkpt lat="41.7761562" lon="13.9094908"><ele>1034.142857142857</ele><time>2026-04-25T16:01:07.782Z</time></trkpt><trkpt lat="41.7761785" lon="13.9094084"><ele>1032.857142857143</ele><time>2026-04-25T16:01:12.782Z</time></trkpt><trkpt lat="41.7762095" lon="13.9093189"><ele>1031.5714285714284</ele><time>2026-04-25T16:01:18.793Z</time></trkpt><trkpt lat="41.7762177" lon="13.9092349"><ele>1030.2857142857142</ele><time>2026-04-25T16:01:23.822Z</time></trkpt><trkpt lat="41.7762293" lon="13.9091448"><ele>1029.0</ele><time>2026-04-25T16:01:28.727Z</time></trkpt><trkpt lat="41.7762387" lon="13.90905"><ele>1029.0</ele><time>2026-04-25T16:01:33.687Z</time></trkpt><trkpt lat="41.776211" lon="13.9089559"><ele>1029.0</ele><time>2026-04-25T16:01:38.783Z</time></trkpt><trkpt lat="41.7761809" lon="13.9088784"><ele>1029.0</ele><time>2026-04-25T16:01:43.782Z</time></trkpt><trkpt lat="41.7761234" lon="13.9088256"><ele>1029.0</ele><time>2026-04-25T16:01:50.825Z</time></trkpt><trkpt lat="41.7761209" lon="13.9087353"><ele>1029.0</ele><time>2026-04-25T16:01:56.782Z</time></trkpt><trkpt lat="41.7760898" lon="13.9086591"><ele>1029.0</ele><time>2026-04-25T16:02:03.782Z</time></trkpt><trkpt lat="41.7761565" lon="13.9085991"><ele>1029.0</ele><time>2026-04-25T16:04:04.782Z</time></trkpt><trkpt lat="41.7762066" lon="13.9085375"><ele>1029.0</ele><time>2026-04-25T16:04:11.782Z</time></trkpt><trkpt lat="41.7761548" lon="13.908586"><ele>1029.0</ele><time>2026-04-25T16:04:27.782Z</time></trkpt><trkpt lat="41.776208" lon="13.908526"><ele>1029.0</ele><time>2026-04-25T16:05:27.968Z</time></trkpt><trkpt lat="41.7762699" lon="13.9084907"><ele>1029.0</ele><time>2026-04-25T16:05:32.785Z</time></trkpt><trkpt lat="41.7763266" lon="13.9084305"><ele>1029.0</ele><time>2026-04-25T16:05:38.762Z</time></trkpt><trkpt lat="41.776391" lon="13.9083919"><ele>1029.0</ele><time>2026-04-25T16:05:52.782Z</time></trkpt><trkpt lat="41.7764489" lon="13.9083361"><ele>1029.0</ele><time>2026-04-25T16:05:58.782Z</time></trkpt><trkpt lat="41.7764998" lon="13.9082766"><ele>1029.142857142857</ele><time>2026-04-25T16:06:04.783Z</time></trkpt><trkpt lat="41.7765558" lon="13.9082371"><ele>1029.2857142857142</ele><time>2026-04-25T16:06:09.786Z</time></trkpt><trkpt lat="41.7765887" lon="13.908161"><ele>1029.4285714285716</ele><time>2026-04-25T16:06:15.782Z</time></trkpt><trkpt lat="41.7766593" lon="13.9081344"><ele>1029.5714285714284</ele><time>2026-04-25T16:06:21.584Z</time></trkpt><trkpt lat="41.7767023" lon="13.9080707"><ele>1029.7142857142858</ele><time>2026-04-25T16:06:27.48Z</time></trkpt><trkpt lat="41.776752" lon="13.9080012"><ele>1029.857142857143</ele><time>2026-04-25T16:06:33.365Z</time></trkpt><trkpt lat="41.7768144" lon="13.907957"><ele>1030.0</ele><time>2026-04-25T16:06:39.3Z</time></trkpt><trkpt lat="41.7768687" lon="13.907899"><ele>1030.0</ele><time>2026-04-25T16:06:45.247Z</time></trkpt><trkpt lat="41.7769326" lon="13.9078614"><ele>1030.0</ele><time>2026-04-25T16:06:51.223Z</time></trkpt><trkpt lat="41.7769888" lon="13.9078212"><ele>1030.0</ele><time>2026-04-25T16:06:56.324Z</time></trkpt><trkpt lat="41.7770363" lon="13.9077518"><ele>1030.0</ele><time>2026-04-25T16:07:01.305Z</time></trkpt><trkpt lat="41.7770865" lon="13.907698"><ele>1030.0</ele><time>2026-04-25T16:07:06.245Z</time></trkpt><trkpt lat="41.7771411" lon="13.9076546"><ele>1030.0</ele><time>2026-04-25T16:07:11.187Z</time></trkpt><trkpt lat="41.7772053" lon="13.9076049"><ele>1030.0</ele><time>2026-04-25T16:07:17.179Z</time></trkpt><trkpt lat="41.7772566" lon="13.907535"><ele>1030.0</ele><time>2026-04-25T16:07:23.206Z</time></trkpt><trkpt lat="41.7773144" lon="13.9074981"><ele>1030.0</ele><time>2026-04-25T16:07:28.225Z</time></trkpt><trkpt lat="41.7773758" lon="13.907445"><ele>1030.0</ele><time>2026-04-25T16:07:34.203Z</time></trkpt><trkpt lat="41.7774197" lon="13.9073803"><ele>1030.0</ele><time>2026-04-25T16:07:40.36Z</time></trkpt><trkpt lat="41.7774796" lon="13.907332"><ele>1030.0</ele><time>2026-04-25T16:07:46.325Z</time></trkpt><trkpt lat="41.7775369" lon="13.9072729"><ele>1030.0</ele><time>2026-04-25T16:07:52.362Z</time></trkpt><trkpt lat="41.7775947" lon="13.9072244"><ele>1030.0</ele><time>2026-04-25T16:07:57.524Z</time></trkpt><trkpt lat="41.7776496" lon="13.9071748"><ele>1030.142857142857</ele><time>2026-04-25T16:08:02.546Z</time></trkpt><trkpt lat="41.777703" lon="13.9071286"><ele>1030.2857142857142</ele><time>2026-04-25T16:08:08.782Z</time></trkpt><trkpt lat="41.777774" lon="13.9071212"><ele>1030.4285714285713</ele><time>2026-04-25T16:08:12.782Z</time></trkpt><trkpt lat="41.7778346" lon="13.9070705"><ele>1030.5714285714284</ele><time>2026-04-25T16:08:18.782Z</time></trkpt><trkpt lat="41.7778814" lon="13.9069985"><ele>1030.7142857142856</ele><time>2026-04-25T16:08:24.724Z</time></trkpt><trkpt lat="41.7779372" lon="13.9069441"><ele>1030.857142857143</ele><time>2026-04-25T16:08:30.782Z</time></trkpt><trkpt lat="41.7779974" lon="13.9068983"><ele>1031.0</ele><time>2026-04-25T16:08:36.783Z</time></trkpt><trkpt lat="41.7780431" lon="13.9068355"><ele>1031.0</ele><time>2026-04-25T16:08:42.782Z</time></trkpt><trkpt lat="41.7781029" lon="13.9068062"><ele>1031.0</ele><time>2026-04-25T16:08:47.701Z</time></trkpt><trkpt lat="41.7781646" lon="13.9067644"><ele>1031.0</ele><time>2026-04-25T16:08:53.783Z</time></trkpt><trkpt lat="41.7782241" lon="13.9067105"><ele>1031.0</ele><time>2026-04-25T16:08:59.782Z</time></trkpt><trkpt lat="41.7782822" lon="13.906663"><ele>1031.0</ele><time>2026-04-25T16:09:05.782Z</time></trkpt><trkpt lat="41.7783391" lon="13.9066176"><ele>1031.0</ele><time>2026-04-25T16:09:10.788Z</time></trkpt><trkpt lat="41.7783964" lon="13.9065819"><ele>1031.0</ele><time>2026-04-25T16:09:15.684Z</time></trkpt><trkpt lat="41.7784577" lon="13.9065401"><ele>1031.142857142857</ele><time>2026-04-25T16:09:21.782Z</time></trkpt><trkpt lat="41.778522" lon="13.9065209"><ele>1031.2857142857142</ele><time>2026-04-25T16:09:27.791Z</time></trkpt><trkpt lat="41.778584" lon="13.9064872"><ele>1031.4285714285713</ele><time>2026-04-25T16:09:33.782Z</time></trkpt><trkpt lat="41.7786443" lon="13.9064486"><ele>1031.5714285714284</ele><time>2026-04-25T16:09:39.72Z</time></trkpt><trkpt lat="41.778709" lon="13.906429"><ele>1031.7142857142858</ele><time>2026-04-25T16:09:45.782Z</time></trkpt><trkpt lat="41.778772" lon="13.9064091"><ele>1031.8571428571427</ele><time>2026-04-25T16:09:51.705Z</time></trkpt><trkpt lat="41.7788384" lon="13.9063812"><ele>1032.0</ele><time>2026-04-25T16:09:57.782Z</time></trkpt><trkpt lat="41.7789073" lon="13.9063813"><ele>1031.9999999999998</ele><time>2026-04-25T16:10:03.811Z</time></trkpt><trkpt lat="41.7789785" lon="13.9063722"><ele>1032.0</ele><time>2026-04-25T16:10:09.782Z</time></trkpt><trkpt lat="41.779041" lon="13.9063538"><ele>1032.0</ele><time>2026-04-25T16:10:15.785Z</time></trkpt><trkpt lat="41.7791095" lon="13.9063724"><ele>1032.0</ele><time>2026-04-25T16:10:21.782Z</time></trkpt><trkpt lat="41.7791875" lon="13.906383"><ele>1032.0</ele><time>2026-04-25T16:10:27.823Z</time></trkpt><trkpt lat="41.7792625" lon="13.9063935"><ele>1031.9999999999998</ele><time>2026-04-25T16:10:33.794Z</time></trkpt><trkpt lat="41.7793296" lon="13.9063945"><ele>1032.0</ele><time>2026-04-25T16:10:39.782Z</time></trkpt><trkpt lat="41.7793975" lon="13.9064019"><ele>1032.5714285714284</ele><time>2026-04-25T16:10:45.782Z</time></trkpt><trkpt lat="41.7794752" lon="13.9064005"><ele>1033.142857142857</ele><time>2026-04-25T16:10:51.75Z</time></trkpt><trkpt lat="41.779523" lon="13.9063441"><ele>1033.7142857142858</ele><time>2026-04-25T16:10:58.822Z</time></trkpt><trkpt lat="41.7795381" lon="13.9062545"><ele>1034.2857142857142</ele><time>2026-04-25T16:11:05.79Z</time></trkpt><trkpt lat="41.7796038" lon="13.9062572"><ele>1034.857142857143</ele><time>2026-04-25T16:11:09.708Z</time></trkpt><trkpt lat="41.7796671" lon="13.9062637"><ele>1035.4285714285713</ele><time>2026-04-25T16:11:13.722Z</time></trkpt><trkpt lat="41.7797409" lon="13.9062816"><ele>1036.0</ele><time>2026-04-25T16:11:18.782Z</time></trkpt><trkpt lat="41.7797758" lon="13.9063597"><ele>1036.0</ele><time>2026-04-25T16:11:29.782Z</time></trkpt><trkpt lat="41.7798461" lon="13.9063767"><ele>1036.0</ele><time>2026-04-25T16:11:33.782Z</time></trkpt><trkpt lat="41.7798663" lon="13.9064577"><ele>1036.0</ele><time>2026-04-25T16:11:41.808Z</time></trkpt><trkpt lat="41.7798014" lon="13.9064547"><ele>1036.0</ele><time>2026-04-25T16:11:53.782Z</time></trkpt><trkpt lat="41.7797338" lon="13.9064547"><ele>1036.0</ele><time>2026-04-25T16:12:26.795Z</time></trkpt><trkpt lat="41.7797882" lon="13.9064068"><ele>1036.0</ele><time>2026-04-25T16:12:37.165Z</time></trkpt><trkpt lat="41.7798544" lon="13.9063627"><ele>1036.0</ele><time>2026-04-25T16:12:43.724Z</time></trkpt><trkpt lat="41.7799156" lon="13.906328"><ele>1036.0</ele><time>2026-04-25T16:12:49.704Z</time></trkpt><trkpt lat="41.7799718" lon="13.906284"><ele>1036.0</ele><time>2026-04-25T16:12:55.94Z</time></trkpt><trkpt lat="41.7800285" lon="13.9062314"><ele>1036.0</ele><time>2026-04-25T16:13:01.446Z</time></trkpt><trkpt lat="41.7800657" lon="13.9061624"><ele>1036.0</ele><time>2026-04-25T16:13:06.467Z</time></trkpt><trkpt lat="41.7801229" lon="13.9061156"><ele>1036.0</ele><time>2026-04-25T16:13:12.527Z</time></trkpt><trkpt lat="41.7801885" lon="13.9060842"><ele>1036.0</ele><time>2026-04-25T16:13:18.704Z</time></trkpt><trkpt lat="41.7802546" lon="13.9060598"><ele>1036.0</ele><time>2026-04-25T16:13:24.821Z</time></trkpt><trkpt lat="41.7803236" lon="13.9060465"><ele>1042.0</ele><time>2026-04-25T16:13:30.814Z</time></trkpt><trkpt lat="41.7803932" lon="13.9060231"><ele>1042.0</ele><time>2026-04-25T16:13:36.744Z</time></trkpt></trkseg></trk></gpx>